<?xml version="1.0" encoding="UTF-8" standalone="no" ?>
<gpx xmlns="http://www.topografix.com/GPX/1/1" xmlns:xsi="http://www.w3.org/2001/XMLSchema-instance" xsi:schemaLocation="http://www.topografix.com/GPX/1/1 http://www.topografix.com/GPX/1/1/gpx.xsd" version="1.1" creator="VisuGPX - https://www.visugpx.com">
  <metadata>
    <name>2017-06-14 Ezy</name>
    <desc><![CDATA[Trace AlpineQuest 14/06/2017 11:03:23]]></desc>
  </metadata>
  <trk>
    <name><![CDATA[ezy]]></name>
    <trkseg>
      <trkpt lat="45.24623" lon="5.60709">
        <ele>652.39501953125</ele>
        <time>2017-06-14T09:03:23Z</time>
      </trkpt>
      <trkpt lat="45.24613" lon="5.60703">
        <ele>637.39501953125</ele>
        <time>2017-06-14T09:03:24Z</time>
      </trkpt>
      <trkpt lat="45.24593" lon="5.60686">
        <ele>597.39501953125</ele>
        <time>2017-06-14T09:03:25Z</time>
      </trkpt>
      <trkpt lat="45.24585" lon="5.60689">
        <ele>593.39501953125</ele>
        <time>2017-06-14T09:03:50Z</time>
      </trkpt>
      <trkpt lat="45.2458" lon="5.6068">
        <ele>593.39501953125</ele>
        <time>2017-06-14T09:03:59Z</time>
      </trkpt>
      <trkpt lat="45.24575" lon="5.6067">
        <ele>594.39501953125</ele>
        <time>2017-06-14T09:04:06Z</time>
      </trkpt>
      <trkpt lat="45.24563" lon="5.60657">
        <ele>596.39501953125</ele>
        <time>2017-06-14T09:04:21Z</time>
      </trkpt>
      <trkpt lat="45.24551" lon="5.60638">
        <ele>596.39501953125</ele>
        <time>2017-06-14T09:04:35Z</time>
      </trkpt>
      <trkpt lat="45.24549" lon="5.60626">
        <ele>600.39501953125</ele>
        <time>2017-06-14T09:04:42Z</time>
      </trkpt>
      <trkpt lat="45.24545" lon="5.60619">
        <ele>602.39501953125</ele>
        <time>2017-06-14T09:04:47Z</time>
      </trkpt>
      <trkpt lat="45.2453" lon="5.6061">
        <ele>602.39501953125</ele>
        <time>2017-06-14T09:04:54Z</time>
      </trkpt>
      <trkpt lat="45.24523" lon="5.60602">
        <ele>607.39501953125</ele>
        <time>2017-06-14T09:05:00Z</time>
      </trkpt>
      <trkpt lat="45.24481" lon="5.60564">
        <ele>609.39501953125</ele>
        <time>2017-06-14T09:05:28Z</time>
      </trkpt>
      <trkpt lat="45.24474" lon="5.60545">
        <ele>614.39501953125</ele>
        <time>2017-06-14T09:05:36Z</time>
      </trkpt>
      <trkpt lat="45.24454" lon="5.60551">
        <ele>614.39501953125</ele>
        <time>2017-06-14T09:05:44Z</time>
      </trkpt>
      <trkpt lat="45.24447" lon="5.60559">
        <ele>619.39501953125</ele>
        <time>2017-06-14T09:05:49Z</time>
      </trkpt>
      <trkpt lat="45.24446" lon="5.6057">
        <ele>615.39501953125</ele>
        <time>2017-06-14T09:05:57Z</time>
      </trkpt>
      <trkpt lat="45.24443" lon="5.60581">
        <ele>623.39501953125</ele>
        <time>2017-06-14T09:06:06Z</time>
      </trkpt>
      <trkpt lat="45.24434" lon="5.60584">
        <ele>623.39501953125</ele>
        <time>2017-06-14T09:06:12Z</time>
      </trkpt>
      <trkpt lat="45.24426" lon="5.60587">
        <ele>625.39501953125</ele>
        <time>2017-06-14T09:06:17Z</time>
      </trkpt>
      <trkpt lat="45.24401" lon="5.60588">
        <ele>627.39398193359</ele>
        <time>2017-06-14T09:06:28Z</time>
      </trkpt>
      <trkpt lat="45.24392" lon="5.60595">
        <ele>628.39398193359</ele>
        <time>2017-06-14T09:06:32Z</time>
      </trkpt>
      <trkpt lat="45.24387" lon="5.60605">
        <ele>625.39398193359</ele>
        <time>2017-06-14T09:06:36Z</time>
      </trkpt>
      <trkpt lat="45.24383" lon="5.60616">
        <ele>623.39398193359</ele>
        <time>2017-06-14T09:06:43Z</time>
      </trkpt>
      <trkpt lat="45.24377" lon="5.60626">
        <ele>624.39398193359</ele>
        <time>2017-06-14T09:06:46Z</time>
      </trkpt>
      <trkpt lat="45.24363" lon="5.60636">
        <ele>622.39398193359</ele>
        <time>2017-06-14T09:06:53Z</time>
      </trkpt>
      <trkpt lat="45.24358" lon="5.60643">
        <ele>622.39398193359</ele>
        <time>2017-06-14T09:06:56Z</time>
      </trkpt>
      <trkpt lat="45.24343" lon="5.60652">
        <ele>619.39398193359</ele>
        <time>2017-06-14T09:07:04Z</time>
      </trkpt>
      <trkpt lat="45.24337" lon="5.6066">
        <ele>615.39398193359</ele>
        <time>2017-06-14T09:07:08Z</time>
      </trkpt>
      <trkpt lat="45.24323" lon="5.60672">
        <ele>615.39398193359</ele>
        <time>2017-06-14T09:07:15Z</time>
      </trkpt>
      <trkpt lat="45.24312" lon="5.60687">
        <ele>620.39398193359</ele>
        <time>2017-06-14T09:07:21Z</time>
      </trkpt>
      <trkpt lat="45.24311" lon="5.60699">
        <ele>621.39398193359</ele>
        <time>2017-06-14T09:07:24Z</time>
      </trkpt>
      <trkpt lat="45.24305" lon="5.60711">
        <ele>622.39398193359</ele>
        <time>2017-06-14T09:07:28Z</time>
      </trkpt>
      <trkpt lat="45.243" lon="5.60734">
        <ele>627.39398193359</ele>
        <time>2017-06-14T09:07:36Z</time>
      </trkpt>
      <trkpt lat="45.24297" lon="5.60746">
        <ele>627.39398193359</ele>
        <time>2017-06-14T09:07:39Z</time>
      </trkpt>
      <trkpt lat="45.24298" lon="5.60771">
        <ele>630.39501953125</ele>
        <time>2017-06-14T09:07:46Z</time>
      </trkpt>
      <trkpt lat="45.2429" lon="5.60791">
        <ele>631.39501953125</ele>
        <time>2017-06-14T09:07:51Z</time>
      </trkpt>
      <trkpt lat="45.24288" lon="5.60806">
        <ele>633.39501953125</ele>
        <time>2017-06-14T09:07:56Z</time>
      </trkpt>
      <trkpt lat="45.24276" lon="5.60825">
        <ele>633.39501953125</ele>
        <time>2017-06-14T09:08:04Z</time>
      </trkpt>
      <trkpt lat="45.24268" lon="5.60845">
        <ele>634.39501953125</ele>
        <time>2017-06-14T09:08:11Z</time>
      </trkpt>
      <trkpt lat="45.24253" lon="5.60865">
        <ele>636.39501953125</ele>
        <time>2017-06-14T09:08:22Z</time>
      </trkpt>
      <trkpt lat="45.24244" lon="5.6093">
        <ele>643.39501953125</ele>
        <time>2017-06-14T09:08:44Z</time>
      </trkpt>
      <trkpt lat="45.24243" lon="5.60942">
        <ele>645.39501953125</ele>
        <time>2017-06-14T09:08:48Z</time>
      </trkpt>
      <trkpt lat="45.24242" lon="5.60965">
        <ele>648.39501953125</ele>
        <time>2017-06-14T09:08:56Z</time>
      </trkpt>
      <trkpt lat="45.24242" lon="5.60976">
        <ele>649.39501953125</ele>
        <time>2017-06-14T09:09:01Z</time>
      </trkpt>
      <trkpt lat="45.24235" lon="5.61003">
        <ele>646.39501953125</ele>
        <time>2017-06-14T09:09:12Z</time>
      </trkpt>
      <trkpt lat="45.24228" lon="5.61026">
        <ele>649.39501953125</ele>
        <time>2017-06-14T09:09:18Z</time>
      </trkpt>
      <trkpt lat="45.24223" lon="5.61048">
        <ele>651.39501953125</ele>
        <time>2017-06-14T09:09:25Z</time>
      </trkpt>
      <trkpt lat="45.24222" lon="5.61059">
        <ele>652.39501953125</ele>
        <time>2017-06-14T09:09:29Z</time>
      </trkpt>
      <trkpt lat="45.24218" lon="5.61073">
        <ele>651.39501953125</ele>
        <time>2017-06-14T09:09:36Z</time>
      </trkpt>
      <trkpt lat="45.24219" lon="5.61086">
        <ele>652.39501953125</ele>
        <time>2017-06-14T09:09:41Z</time>
      </trkpt>
      <trkpt lat="45.24216" lon="5.61096">
        <ele>648.39501953125</ele>
        <time>2017-06-14T09:09:47Z</time>
      </trkpt>
      <trkpt lat="45.24217" lon="5.61119">
        <ele>654.39501953125</ele>
        <time>2017-06-14T09:09:55Z</time>
      </trkpt>
      <trkpt lat="45.24214" lon="5.6113">
        <ele>655.39501953125</ele>
        <time>2017-06-14T09:10:02Z</time>
      </trkpt>
      <trkpt lat="45.24214" lon="5.61155">
        <ele>663.39501953125</ele>
        <time>2017-06-14T09:10:08Z</time>
      </trkpt>
      <trkpt lat="45.24213" lon="5.61166">
        <ele>662.39501953125</ele>
        <time>2017-06-14T09:10:14Z</time>
      </trkpt>
      <trkpt lat="45.24217" lon="5.61176">
        <ele>664.39501953125</ele>
        <time>2017-06-14T09:10:21Z</time>
      </trkpt>
      <trkpt lat="45.24216" lon="5.61186">
        <ele>666.39501953125</ele>
        <time>2017-06-14T09:10:31Z</time>
      </trkpt>
      <trkpt lat="45.24214" lon="5.61197">
        <ele>666.39501953125</ele>
        <time>2017-06-14T09:10:41Z</time>
      </trkpt>
      <trkpt lat="45.24204" lon="5.61218">
        <ele>660.39501953125</ele>
        <time>2017-06-14T09:11:12Z</time>
      </trkpt>
      <trkpt lat="45.24199" lon="5.6124">
        <ele>647.39501953125</ele>
        <time>2017-06-14T09:11:25Z</time>
      </trkpt>
      <trkpt lat="45.24195" lon="5.61252">
        <ele>646.39501953125</ele>
        <time>2017-06-14T09:11:32Z</time>
      </trkpt>
      <trkpt lat="45.24194" lon="5.61263">
        <ele>642.39501953125</ele>
        <time>2017-06-14T09:11:35Z</time>
      </trkpt>
      <trkpt lat="45.24196" lon="5.61284">
        <ele>641.39501953125</ele>
        <time>2017-06-14T09:11:41Z</time>
      </trkpt>
      <trkpt lat="45.24197" lon="5.61294">
        <ele>642.39501953125</ele>
        <time>2017-06-14T09:11:45Z</time>
      </trkpt>
      <trkpt lat="45.24193" lon="5.61305">
        <ele>639.39501953125</ele>
        <time>2017-06-14T09:11:48Z</time>
      </trkpt>
      <trkpt lat="45.24186" lon="5.61332">
        <ele>637.39501953125</ele>
        <time>2017-06-14T09:11:56Z</time>
      </trkpt>
      <trkpt lat="45.24184" lon="5.61345">
        <ele>636.39501953125</ele>
        <time>2017-06-14T09:12:00Z</time>
      </trkpt>
      <trkpt lat="45.24174" lon="5.61381">
        <ele>630.39501953125</ele>
        <time>2017-06-14T09:12:12Z</time>
      </trkpt>
      <trkpt lat="45.24169" lon="5.61391">
        <ele>627.39501953125</ele>
        <time>2017-06-14T09:12:16Z</time>
      </trkpt>
      <trkpt lat="45.24159" lon="5.6141">
        <ele>622.39501953125</ele>
        <time>2017-06-14T09:12:25Z</time>
      </trkpt>
      <trkpt lat="45.24151" lon="5.61415">
        <ele>620.39501953125</ele>
        <time>2017-06-14T09:12:31Z</time>
      </trkpt>
      <trkpt lat="45.24142" lon="5.61434">
        <ele>620.39501953125</ele>
        <time>2017-06-14T09:12:38Z</time>
      </trkpt>
      <trkpt lat="45.2413" lon="5.61452">
        <ele>620.39501953125</ele>
        <time>2017-06-14T09:12:46Z</time>
      </trkpt>
      <trkpt lat="45.24119" lon="5.61469">
        <ele>619.39501953125</ele>
        <time>2017-06-14T09:12:56Z</time>
      </trkpt>
      <trkpt lat="45.24107" lon="5.61483">
        <ele>621.39501953125</ele>
        <time>2017-06-14T09:13:01Z</time>
      </trkpt>
      <trkpt lat="45.24102" lon="5.61494">
        <ele>623.39501953125</ele>
        <time>2017-06-14T09:13:03Z</time>
      </trkpt>
      <trkpt lat="45.24097" lon="5.61505">
        <ele>630.39501953125</ele>
        <time>2017-06-14T09:13:05Z</time>
      </trkpt>
      <trkpt lat="45.2409" lon="5.61514">
        <ele>634.39501953125</ele>
        <time>2017-06-14T09:13:08Z</time>
      </trkpt>
      <trkpt lat="45.24085" lon="5.61525">
        <ele>638.39501953125</ele>
        <time>2017-06-14T09:13:11Z</time>
      </trkpt>
      <trkpt lat="45.24082" lon="5.61534">
        <ele>641.39501953125</ele>
        <time>2017-06-14T09:13:13Z</time>
      </trkpt>
      <trkpt lat="45.24078" lon="5.61547">
        <ele>647.39501953125</ele>
        <time>2017-06-14T09:13:16Z</time>
      </trkpt>
      <trkpt lat="45.24078" lon="5.61558">
        <ele>653.39501953125</ele>
        <time>2017-06-14T09:13:18Z</time>
      </trkpt>
      <trkpt lat="45.24054" lon="5.61592">
        <ele>654.39501953125</ele>
        <time>2017-06-14T09:13:34Z</time>
      </trkpt>
      <trkpt lat="45.2405" lon="5.61601">
        <ele>656.39501953125</ele>
        <time>2017-06-14T09:13:38Z</time>
      </trkpt>
      <trkpt lat="45.24044" lon="5.6162">
        <ele>660.39501953125</ele>
        <time>2017-06-14T09:13:44Z</time>
      </trkpt>
      <trkpt lat="45.24028" lon="5.61632">
        <ele>662.39501953125</ele>
        <time>2017-06-14T09:13:54Z</time>
      </trkpt>
      <trkpt lat="45.24024" lon="5.61646">
        <ele>664.39501953125</ele>
        <time>2017-06-14T09:14:01Z</time>
      </trkpt>
      <trkpt lat="45.24006" lon="5.61654">
        <ele>663.39501953125</ele>
        <time>2017-06-14T09:14:18Z</time>
      </trkpt>
      <trkpt lat="45.24008" lon="5.61667">
        <ele>669.39501953125</ele>
        <time>2017-06-14T09:14:23Z</time>
      </trkpt>
      <trkpt lat="45.23992" lon="5.61663">
        <ele>670.39501953125</ele>
        <time>2017-06-14T09:14:57Z</time>
      </trkpt>
      <trkpt lat="45.23984" lon="5.61663">
        <ele>672.39501953125</ele>
        <time>2017-06-14T09:15:00Z</time>
      </trkpt>
      <trkpt lat="45.23974" lon="5.61655">
        <ele>676.39501953125</ele>
        <time>2017-06-14T09:15:11Z</time>
      </trkpt>
      <trkpt lat="45.23973" lon="5.61645">
        <ele>678.39501953125</ele>
        <time>2017-06-14T09:15:29Z</time>
      </trkpt>
      <trkpt lat="45.23972" lon="5.61635">
        <ele>679.39501953125</ele>
        <time>2017-06-14T09:15:43Z</time>
      </trkpt>
      <trkpt lat="45.23975" lon="5.61625">
        <ele>676.39501953125</ele>
        <time>2017-06-14T09:16:36Z</time>
      </trkpt>
      <trkpt lat="45.23969" lon="5.61597">
        <ele>662.39501953125</ele>
        <time>2017-06-14T09:16:44Z</time>
      </trkpt>
      <trkpt lat="45.23956" lon="5.61568">
        <ele>656.39501953125</ele>
        <time>2017-06-14T09:16:58Z</time>
      </trkpt>
      <trkpt lat="45.23934" lon="5.61529">
        <ele>673.39501953125</ele>
        <time>2017-06-14T09:17:18Z</time>
      </trkpt>
      <trkpt lat="45.2394" lon="5.61519">
        <ele>696.39501953125</ele>
        <time>2017-06-14T09:17:32Z</time>
      </trkpt>
      <trkpt lat="45.23953" lon="5.61509">
        <ele>708.39501953125</ele>
        <time>2017-06-14T09:17:47Z</time>
      </trkpt>
      <trkpt lat="45.2395" lon="5.61495">
        <ele>718.39501953125</ele>
        <time>2017-06-14T09:18:15Z</time>
      </trkpt>
      <trkpt lat="45.23946" lon="5.61467">
        <ele>722.39501953125</ele>
        <time>2017-06-14T09:18:59Z</time>
      </trkpt>
      <trkpt lat="45.23945" lon="5.61451">
        <ele>731.39501953125</ele>
        <time>2017-06-14T09:19:15Z</time>
      </trkpt>
      <trkpt lat="45.23941" lon="5.61436">
        <ele>735.39501953125</ele>
        <time>2017-06-14T09:19:30Z</time>
      </trkpt>
      <trkpt lat="45.23935" lon="5.61431">
        <ele>741.39501953125</ele>
        <time>2017-06-14T09:19:45Z</time>
      </trkpt>
      <trkpt lat="45.23947" lon="5.61432">
        <ele>751.39501953125</ele>
        <time>2017-06-14T09:21:24Z</time>
      </trkpt>
      <trkpt lat="45.23959" lon="5.61424">
        <ele>759.39501953125</ele>
        <time>2017-06-14T09:21:34Z</time>
      </trkpt>
      <trkpt lat="45.23966" lon="5.61422">
        <ele>764.39501953125</ele>
        <time>2017-06-14T09:21:46Z</time>
      </trkpt>
      <trkpt lat="45.23983" lon="5.61414">
        <ele>769.39501953125</ele>
        <time>2017-06-14T09:21:57Z</time>
      </trkpt>
      <trkpt lat="45.23994" lon="5.61403">
        <ele>771.39501953125</ele>
        <time>2017-06-14T09:22:05Z</time>
      </trkpt>
      <trkpt lat="45.24" lon="5.61396">
        <ele>773.39501953125</ele>
        <time>2017-06-14T09:22:11Z</time>
      </trkpt>
      <trkpt lat="45.24004" lon="5.61386">
        <ele>780.39501953125</ele>
        <time>2017-06-14T09:22:24Z</time>
      </trkpt>
      <trkpt lat="45.24" lon="5.61376">
        <ele>784.39501953125</ele>
        <time>2017-06-14T09:22:43Z</time>
      </trkpt>
      <trkpt lat="45.23991" lon="5.61376">
        <ele>783.39501953125</ele>
        <time>2017-06-14T09:22:51Z</time>
      </trkpt>
      <trkpt lat="45.23983" lon="5.61369">
        <ele>787.39501953125</ele>
        <time>2017-06-14T09:23:04Z</time>
      </trkpt>
      <trkpt lat="45.23986" lon="5.61358">
        <ele>805.39501953125</ele>
        <time>2017-06-14T09:23:12Z</time>
      </trkpt>
      <trkpt lat="45.23977" lon="5.61347">
        <ele>809.39501953125</ele>
        <time>2017-06-14T09:24:24Z</time>
      </trkpt>
      <trkpt lat="45.23979" lon="5.61325">
        <ele>803.39501953125</ele>
        <time>2017-06-14T09:24:29Z</time>
      </trkpt>
      <trkpt lat="45.23989" lon="5.6131">
        <ele>801.39501953125</ele>
        <time>2017-06-14T09:24:36Z</time>
      </trkpt>
      <trkpt lat="45.2399" lon="5.61296">
        <ele>800.39501953125</ele>
        <time>2017-06-14T09:24:43Z</time>
      </trkpt>
      <trkpt lat="45.23977" lon="5.61275">
        <ele>806.39501953125</ele>
        <time>2017-06-14T09:24:49Z</time>
      </trkpt>
      <trkpt lat="45.23973" lon="5.61266">
        <ele>810.39398193359</ele>
        <time>2017-06-14T09:25:00Z</time>
      </trkpt>
      <trkpt lat="45.23984" lon="5.61253">
        <ele>811.39398193359</ele>
        <time>2017-06-14T09:25:18Z</time>
      </trkpt>
      <trkpt lat="45.2399" lon="5.61245">
        <ele>816.39398193359</ele>
        <time>2017-06-14T09:25:24Z</time>
      </trkpt>
      <trkpt lat="45.23997" lon="5.61239">
        <ele>825.39501953125</ele>
        <time>2017-06-14T09:25:28Z</time>
      </trkpt>
      <trkpt lat="45.23998" lon="5.61228">
        <ele>841.39398193359</ele>
        <time>2017-06-14T09:26:09Z</time>
      </trkpt>
      <trkpt lat="45.23994" lon="5.61218">
        <ele>838.39398193359</ele>
        <time>2017-06-14T09:26:19Z</time>
      </trkpt>
      <trkpt lat="45.23993" lon="5.61207">
        <ele>836.39398193359</ele>
        <time>2017-06-14T09:26:26Z</time>
      </trkpt>
      <trkpt lat="45.2399" lon="5.61198">
        <ele>839.39398193359</ele>
        <time>2017-06-14T09:26:34Z</time>
      </trkpt>
      <trkpt lat="45.23983" lon="5.61177">
        <ele>839.39398193359</ele>
        <time>2017-06-14T09:26:40Z</time>
      </trkpt>
      <trkpt lat="45.23984" lon="5.61157">
        <ele>841.39398193359</ele>
        <time>2017-06-14T09:26:46Z</time>
      </trkpt>
      <trkpt lat="45.23982" lon="5.61147">
        <ele>845.39398193359</ele>
        <time>2017-06-14T09:26:51Z</time>
      </trkpt>
      <trkpt lat="45.23982" lon="5.61136">
        <ele>848.39398193359</ele>
        <time>2017-06-14T09:26:57Z</time>
      </trkpt>
      <trkpt lat="45.23983" lon="5.61125">
        <ele>850.39398193359</ele>
        <time>2017-06-14T09:27:05Z</time>
      </trkpt>
      <trkpt lat="45.23985" lon="5.61115">
        <ele>854.39398193359</ele>
        <time>2017-06-14T09:27:12Z</time>
      </trkpt>
      <trkpt lat="45.23988" lon="5.61105">
        <ele>853.39398193359</ele>
        <time>2017-06-14T09:27:19Z</time>
      </trkpt>
      <trkpt lat="45.23978" lon="5.61087">
        <ele>854.39398193359</ele>
        <time>2017-06-14T09:27:27Z</time>
      </trkpt>
      <trkpt lat="45.23975" lon="5.61077">
        <ele>856.39398193359</ele>
        <time>2017-06-14T09:27:32Z</time>
      </trkpt>
      <trkpt lat="45.23971" lon="5.61068">
        <ele>857.39398193359</ele>
        <time>2017-06-14T09:27:40Z</time>
      </trkpt>
      <trkpt lat="45.23963" lon="5.61066">
        <ele>859.39398193359</ele>
        <time>2017-06-14T09:27:50Z</time>
      </trkpt>
      <trkpt lat="45.23953" lon="5.61066">
        <ele>860.39398193359</ele>
        <time>2017-06-14T09:28:00Z</time>
      </trkpt>
      <trkpt lat="45.23946" lon="5.61061">
        <ele>867.39398193359</ele>
        <time>2017-06-14T09:28:04Z</time>
      </trkpt>
      <trkpt lat="45.2394" lon="5.61055">
        <ele>877.39398193359</ele>
        <time>2017-06-14T09:28:08Z</time>
      </trkpt>
      <trkpt lat="45.2394" lon="5.61043">
        <ele>882.39398193359</ele>
        <time>2017-06-14T09:28:58Z</time>
      </trkpt>
      <trkpt lat="45.23931" lon="5.61023">
        <ele>878.39398193359</ele>
        <time>2017-06-14T09:29:02Z</time>
      </trkpt>
      <trkpt lat="45.23931" lon="5.61001">
        <ele>879.39398193359</ele>
        <time>2017-06-14T09:29:09Z</time>
      </trkpt>
      <trkpt lat="45.23928" lon="5.60989">
        <ele>885.39398193359</ele>
        <time>2017-06-14T09:29:14Z</time>
      </trkpt>
      <trkpt lat="45.23933" lon="5.60979">
        <ele>885.39398193359</ele>
        <time>2017-06-14T09:29:20Z</time>
      </trkpt>
      <trkpt lat="45.2394" lon="5.60974">
        <ele>891.39398193359</ele>
        <time>2017-06-14T09:29:24Z</time>
      </trkpt>
      <trkpt lat="45.23945" lon="5.60965">
        <ele>892.39398193359</ele>
        <time>2017-06-14T09:29:45Z</time>
      </trkpt>
      <trkpt lat="45.23953" lon="5.60945">
        <ele>893.39398193359</ele>
        <time>2017-06-14T09:29:52Z</time>
      </trkpt>
      <trkpt lat="45.23955" lon="5.60935">
        <ele>889.39398193359</ele>
        <time>2017-06-14T09:29:57Z</time>
      </trkpt>
      <trkpt lat="45.23959" lon="5.60926">
        <ele>891.39398193359</ele>
        <time>2017-06-14T09:30:01Z</time>
      </trkpt>
      <trkpt lat="45.23959" lon="5.60915">
        <ele>893.39398193359</ele>
        <time>2017-06-14T09:30:06Z</time>
      </trkpt>
      <trkpt lat="45.23966" lon="5.60907">
        <ele>894.39398193359</ele>
        <time>2017-06-14T09:30:11Z</time>
      </trkpt>
      <trkpt lat="45.23971" lon="5.60896">
        <ele>888.39398193359</ele>
        <time>2017-06-14T09:30:16Z</time>
      </trkpt>
      <trkpt lat="45.23969" lon="5.60885">
        <ele>888.39398193359</ele>
        <time>2017-06-14T09:30:19Z</time>
      </trkpt>
      <trkpt lat="45.2397" lon="5.6087">
        <ele>892.39398193359</ele>
        <time>2017-06-14T09:30:23Z</time>
      </trkpt>
      <trkpt lat="45.23969" lon="5.60857">
        <ele>890.39398193359</ele>
        <time>2017-06-14T09:30:30Z</time>
      </trkpt>
      <trkpt lat="45.23969" lon="5.60843">
        <ele>892.39398193359</ele>
        <time>2017-06-14T09:30:35Z</time>
      </trkpt>
      <trkpt lat="45.23968" lon="5.60818">
        <ele>894.39398193359</ele>
        <time>2017-06-14T09:30:47Z</time>
      </trkpt>
      <trkpt lat="45.23969" lon="5.60803">
        <ele>891.39398193359</ele>
        <time>2017-06-14T09:30:52Z</time>
      </trkpt>
      <trkpt lat="45.23969" lon="5.60771">
        <ele>895.39398193359</ele>
        <time>2017-06-14T09:31:07Z</time>
      </trkpt>
      <trkpt lat="45.23966" lon="5.60759">
        <ele>896.39398193359</ele>
        <time>2017-06-14T09:31:11Z</time>
      </trkpt>
      <trkpt lat="45.23968" lon="5.60748">
        <ele>901.39398193359</ele>
        <time>2017-06-14T09:31:18Z</time>
      </trkpt>
      <trkpt lat="45.23973" lon="5.6074">
        <ele>903.39398193359</ele>
        <time>2017-06-14T09:31:23Z</time>
      </trkpt>
      <trkpt lat="45.23969" lon="5.60729">
        <ele>908.39398193359</ele>
        <time>2017-06-14T09:31:31Z</time>
      </trkpt>
      <trkpt lat="45.23967" lon="5.60708">
        <ele>907.39398193359</ele>
        <time>2017-06-14T09:31:40Z</time>
      </trkpt>
      <trkpt lat="45.23969" lon="5.60696">
        <ele>914.39398193359</ele>
        <time>2017-06-14T09:31:54Z</time>
      </trkpt>
      <trkpt lat="45.23967" lon="5.60686">
        <ele>914.39398193359</ele>
        <time>2017-06-14T09:31:58Z</time>
      </trkpt>
      <trkpt lat="45.23969" lon="5.60674">
        <ele>918.39398193359</ele>
        <time>2017-06-14T09:32:04Z</time>
      </trkpt>
      <trkpt lat="45.23969" lon="5.60664">
        <ele>917.39398193359</ele>
        <time>2017-06-14T09:32:10Z</time>
      </trkpt>
      <trkpt lat="45.23964" lon="5.60654">
        <ele>916.39398193359</ele>
        <time>2017-06-14T09:32:20Z</time>
      </trkpt>
      <trkpt lat="45.23971" lon="5.60652">
        <ele>915.39398193359</ele>
        <time>2017-06-14T09:32:26Z</time>
      </trkpt>
      <trkpt lat="45.23969" lon="5.60642">
        <ele>918.39398193359</ele>
        <time>2017-06-14T09:32:29Z</time>
      </trkpt>
      <trkpt lat="45.23962" lon="5.60621">
        <ele>925.39398193359</ele>
        <time>2017-06-14T09:32:39Z</time>
      </trkpt>
      <trkpt lat="45.23958" lon="5.60612">
        <ele>929.39398193359</ele>
        <time>2017-06-14T09:32:45Z</time>
      </trkpt>
      <trkpt lat="45.23965" lon="5.60607">
        <ele>935.39398193359</ele>
        <time>2017-06-14T09:32:52Z</time>
      </trkpt>
      <trkpt lat="45.23961" lon="5.60598">
        <ele>939.39398193359</ele>
        <time>2017-06-14T09:33:25Z</time>
      </trkpt>
      <trkpt lat="45.23962" lon="5.60585">
        <ele>943.39398193359</ele>
        <time>2017-06-14T09:33:45Z</time>
      </trkpt>
      <trkpt lat="45.23964" lon="5.60561">
        <ele>939.39300537109</ele>
        <time>2017-06-14T09:33:51Z</time>
      </trkpt>
      <trkpt lat="45.23962" lon="5.60548">
        <ele>942.39300537109</ele>
        <time>2017-06-14T09:33:57Z</time>
      </trkpt>
      <trkpt lat="45.23959" lon="5.60537">
        <ele>944.39300537109</ele>
        <time>2017-06-14T09:34:00Z</time>
      </trkpt>
      <trkpt lat="45.23955" lon="5.60513">
        <ele>945.39300537109</ele>
        <time>2017-06-14T09:34:08Z</time>
      </trkpt>
      <trkpt lat="45.23948" lon="5.60495">
        <ele>947.39300537109</ele>
        <time>2017-06-14T09:34:15Z</time>
      </trkpt>
      <trkpt lat="45.23948" lon="5.60483">
        <ele>949.39300537109</ele>
        <time>2017-06-14T09:34:21Z</time>
      </trkpt>
      <trkpt lat="45.23953" lon="5.60463">
        <ele>951.39300537109</ele>
        <time>2017-06-14T09:34:28Z</time>
      </trkpt>
      <trkpt lat="45.23954" lon="5.6044">
        <ele>961.39300537109</ele>
        <time>2017-06-14T09:34:31Z</time>
      </trkpt>
      <trkpt lat="45.23959" lon="5.60432">
        <ele>970.39300537109</ele>
        <time>2017-06-14T09:34:32Z</time>
      </trkpt>
      <trkpt lat="45.23962" lon="5.60423">
        <ele>975.39300537109</ele>
        <time>2017-06-14T09:34:38Z</time>
      </trkpt>
      <trkpt lat="45.23961" lon="5.60412">
        <ele>972.39300537109</ele>
        <time>2017-06-14T09:34:49Z</time>
      </trkpt>
      <trkpt lat="45.2397" lon="5.60393">
        <ele>972.39300537109</ele>
        <time>2017-06-14T09:35:21Z</time>
      </trkpt>
      <trkpt lat="45.2397" lon="5.6038">
        <ele>970.39300537109</ele>
        <time>2017-06-14T09:35:28Z</time>
      </trkpt>
      <trkpt lat="45.23971" lon="5.60357">
        <ele>972.39300537109</ele>
        <time>2017-06-14T09:35:38Z</time>
      </trkpt>
      <trkpt lat="45.23978" lon="5.60348">
        <ele>972.39300537109</ele>
        <time>2017-06-14T09:35:43Z</time>
      </trkpt>
      <trkpt lat="45.23979" lon="5.60337">
        <ele>972.39300537109</ele>
        <time>2017-06-14T09:35:50Z</time>
      </trkpt>
      <trkpt lat="45.23984" lon="5.60317">
        <ele>972.39300537109</ele>
        <time>2017-06-14T09:36:09Z</time>
      </trkpt>
      <trkpt lat="45.23986" lon="5.60304">
        <ele>973.39300537109</ele>
        <time>2017-06-14T09:36:30Z</time>
      </trkpt>
      <trkpt lat="45.23983" lon="5.60289">
        <ele>972.39300537109</ele>
        <time>2017-06-14T09:36:31Z</time>
      </trkpt>
      <trkpt lat="45.2399" lon="5.60266">
        <ele>964.39300537109</ele>
        <time>2017-06-14T09:36:40Z</time>
      </trkpt>
      <trkpt lat="45.23993" lon="5.60239">
        <ele>961.39300537109</ele>
        <time>2017-06-14T09:36:48Z</time>
      </trkpt>
      <trkpt lat="45.23996" lon="5.60219">
        <ele>962.39300537109</ele>
        <time>2017-06-14T09:36:58Z</time>
      </trkpt>
      <trkpt lat="45.23994" lon="5.60197">
        <ele>961.39300537109</ele>
        <time>2017-06-14T09:37:05Z</time>
      </trkpt>
      <trkpt lat="45.23993" lon="5.60176">
        <ele>962.39300537109</ele>
        <time>2017-06-14T09:37:11Z</time>
      </trkpt>
      <trkpt lat="45.23993" lon="5.60163">
        <ele>966.39300537109</ele>
        <time>2017-06-14T09:37:14Z</time>
      </trkpt>
      <trkpt lat="45.2401" lon="5.60159">
        <ele>969.39300537109</ele>
        <time>2017-06-14T09:37:21Z</time>
      </trkpt>
      <trkpt lat="45.24022" lon="5.6015">
        <ele>974.39300537109</ele>
        <time>2017-06-14T09:37:30Z</time>
      </trkpt>
      <trkpt lat="45.24026" lon="5.60142">
        <ele>974.39300537109</ele>
        <time>2017-06-14T09:37:33Z</time>
      </trkpt>
      <trkpt lat="45.24033" lon="5.60132">
        <ele>975.39300537109</ele>
        <time>2017-06-14T09:37:35Z</time>
      </trkpt>
      <trkpt lat="45.2404" lon="5.60121">
        <ele>974.39300537109</ele>
        <time>2017-06-14T09:37:39Z</time>
      </trkpt>
      <trkpt lat="45.24045" lon="5.60109">
        <ele>973.39300537109</ele>
        <time>2017-06-14T09:37:48Z</time>
      </trkpt>
      <trkpt lat="45.24051" lon="5.601">
        <ele>975.39300537109</ele>
        <time>2017-06-14T09:37:53Z</time>
      </trkpt>
      <trkpt lat="45.24057" lon="5.60084">
        <ele>976.39300537109</ele>
        <time>2017-06-14T09:38:00Z</time>
      </trkpt>
      <trkpt lat="45.24062" lon="5.60075">
        <ele>978.39300537109</ele>
        <time>2017-06-14T09:38:06Z</time>
      </trkpt>
      <trkpt lat="45.24061" lon="5.60063">
        <ele>975.39300537109</ele>
        <time>2017-06-14T09:38:14Z</time>
      </trkpt>
      <trkpt lat="45.24065" lon="5.60047">
        <ele>973.39300537109</ele>
        <time>2017-06-14T09:38:21Z</time>
      </trkpt>
      <trkpt lat="45.24066" lon="5.60035">
        <ele>975.39300537109</ele>
        <time>2017-06-14T09:38:24Z</time>
      </trkpt>
      <trkpt lat="45.24067" lon="5.60024">
        <ele>977.39300537109</ele>
        <time>2017-06-14T09:38:34Z</time>
      </trkpt>
      <trkpt lat="45.24065" lon="5.60011">
        <ele>975.39300537109</ele>
        <time>2017-06-14T09:38:39Z</time>
      </trkpt>
      <trkpt lat="45.24062" lon="5.59991">
        <ele>972.39300537109</ele>
        <time>2017-06-14T09:38:47Z</time>
      </trkpt>
      <trkpt lat="45.24062" lon="5.5997">
        <ele>966.39300537109</ele>
        <time>2017-06-14T09:38:53Z</time>
      </trkpt>
      <trkpt lat="45.24067" lon="5.59948">
        <ele>960.39300537109</ele>
        <time>2017-06-14T09:38:59Z</time>
      </trkpt>
      <trkpt lat="45.24068" lon="5.59937">
        <ele>962.39300537109</ele>
        <time>2017-06-14T09:39:03Z</time>
      </trkpt>
      <trkpt lat="45.24066" lon="5.59926">
        <ele>961.39300537109</ele>
        <time>2017-06-14T09:39:09Z</time>
      </trkpt>
      <trkpt lat="45.24061" lon="5.59916">
        <ele>959.39300537109</ele>
        <time>2017-06-14T09:39:15Z</time>
      </trkpt>
      <trkpt lat="45.24061" lon="5.59905">
        <ele>958.39300537109</ele>
        <time>2017-06-14T09:39:22Z</time>
      </trkpt>
      <trkpt lat="45.24056" lon="5.59897">
        <ele>957.39300537109</ele>
        <time>2017-06-14T09:39:25Z</time>
      </trkpt>
      <trkpt lat="45.24059" lon="5.59885">
        <ele>956.39300537109</ele>
        <time>2017-06-14T09:39:28Z</time>
      </trkpt>
      <trkpt lat="45.2406" lon="5.59861">
        <ele>958.39300537109</ele>
        <time>2017-06-14T09:39:35Z</time>
      </trkpt>
      <trkpt lat="45.2406" lon="5.59849">
        <ele>958.39300537109</ele>
        <time>2017-06-14T09:39:37Z</time>
      </trkpt>
      <trkpt lat="45.24066" lon="5.59842">
        <ele>960.39300537109</ele>
        <time>2017-06-14T09:39:40Z</time>
      </trkpt>
      <trkpt lat="45.24074" lon="5.59836">
        <ele>964.39300537109</ele>
        <time>2017-06-14T09:39:46Z</time>
      </trkpt>
      <trkpt lat="45.24076" lon="5.59823">
        <ele>963.39300537109</ele>
        <time>2017-06-14T09:39:51Z</time>
      </trkpt>
      <trkpt lat="45.24095" lon="5.59807">
        <ele>970.39300537109</ele>
        <time>2017-06-14T09:39:57Z</time>
      </trkpt>
      <trkpt lat="45.24095" lon="5.59796">
        <ele>971.39300537109</ele>
        <time>2017-06-14T09:40:05Z</time>
      </trkpt>
      <trkpt lat="45.24095" lon="5.59784">
        <ele>971.39300537109</ele>
        <time>2017-06-14T09:40:11Z</time>
      </trkpt>
      <trkpt lat="45.24091" lon="5.59776">
        <ele>968.39300537109</ele>
        <time>2017-06-14T09:40:16Z</time>
      </trkpt>
      <trkpt lat="45.24085" lon="5.59759">
        <ele>966.39300537109</ele>
        <time>2017-06-14T09:40:25Z</time>
      </trkpt>
      <trkpt lat="45.24097" lon="5.59743">
        <ele>963.39300537109</ele>
        <time>2017-06-14T09:40:38Z</time>
      </trkpt>
      <trkpt lat="45.24093" lon="5.59733">
        <ele>966.39300537109</ele>
        <time>2017-06-14T09:40:45Z</time>
      </trkpt>
      <trkpt lat="45.2409" lon="5.59724">
        <ele>963.39300537109</ele>
        <time>2017-06-14T09:40:52Z</time>
      </trkpt>
      <trkpt lat="45.24087" lon="5.59707">
        <ele>965.39300537109</ele>
        <time>2017-06-14T09:41:18Z</time>
      </trkpt>
      <trkpt lat="45.241" lon="5.59679">
        <ele>972.39300537109</ele>
        <time>2017-06-14T09:41:20Z</time>
      </trkpt>
      <trkpt lat="45.24096" lon="5.59669">
        <ele>977.39300537109</ele>
        <time>2017-06-14T09:41:23Z</time>
      </trkpt>
      <trkpt lat="45.24092" lon="5.5966">
        <ele>979.39300537109</ele>
        <time>2017-06-14T09:41:27Z</time>
      </trkpt>
      <trkpt lat="45.2409" lon="5.59649">
        <ele>988.39300537109</ele>
        <time>2017-06-14T09:42:08Z</time>
      </trkpt>
      <trkpt lat="45.24083" lon="5.59653">
        <ele>984.39300537109</ele>
        <time>2017-06-14T09:43:29Z</time>
      </trkpt>
      <trkpt lat="45.2409" lon="5.59659">
        <ele>983.39300537109</ele>
        <time>2017-06-14T09:45:38Z</time>
      </trkpt>
      <trkpt lat="45.24112" lon="5.5965">
        <ele>987.39300537109</ele>
        <time>2017-06-14T09:45:47Z</time>
      </trkpt>
      <trkpt lat="45.2412" lon="5.59649">
        <ele>987.39300537109</ele>
        <time>2017-06-14T09:45:49Z</time>
      </trkpt>
      <trkpt lat="45.24136" lon="5.59623">
        <ele>989.39300537109</ele>
        <time>2017-06-14T09:45:55Z</time>
      </trkpt>
      <trkpt lat="45.24142" lon="5.59613">
        <ele>990.39300537109</ele>
        <time>2017-06-14T09:45:59Z</time>
      </trkpt>
      <trkpt lat="45.24158" lon="5.59603">
        <ele>992.39300537109</ele>
        <time>2017-06-14T09:46:07Z</time>
      </trkpt>
      <trkpt lat="45.2417" lon="5.59588">
        <ele>997.39300537109</ele>
        <time>2017-06-14T09:46:14Z</time>
      </trkpt>
      <trkpt lat="45.24178" lon="5.59571">
        <ele>998.39300537109</ele>
        <time>2017-06-14T09:46:29Z</time>
      </trkpt>
      <trkpt lat="45.24184" lon="5.59559">
        <ele>999.39300537109</ele>
        <time>2017-06-14T09:46:34Z</time>
      </trkpt>
      <trkpt lat="45.2419" lon="5.59566">
        <ele>999.39300537109</ele>
        <time>2017-06-14T09:46:40Z</time>
      </trkpt>
      <trkpt lat="45.24188" lon="5.59555">
        <ele>998.39300537109</ele>
        <time>2017-06-14T09:46:41Z</time>
      </trkpt>
      <trkpt lat="45.24193" lon="5.59568">
        <ele>1001.3930053711</ele>
        <time>2017-06-14T09:46:44Z</time>
      </trkpt>
      <trkpt lat="45.24203" lon="5.59546">
        <ele>1005.3930053711</ele>
        <time>2017-06-14T09:46:53Z</time>
      </trkpt>
      <trkpt lat="45.24212" lon="5.59543">
        <ele>1007.3930053711</ele>
        <time>2017-06-14T09:46:56Z</time>
      </trkpt>
      <trkpt lat="45.24219" lon="5.59555">
        <ele>1011.3930053711</ele>
        <time>2017-06-14T09:47:03Z</time>
      </trkpt>
      <trkpt lat="45.24227" lon="5.59541">
        <ele>1004.3930053711</ele>
        <time>2017-06-14T09:47:11Z</time>
      </trkpt>
      <trkpt lat="45.24229" lon="5.59531">
        <ele>1004.3930053711</ele>
        <time>2017-06-14T09:47:20Z</time>
      </trkpt>
      <trkpt lat="45.24241" lon="5.59518">
        <ele>1013.3930053711</ele>
        <time>2017-06-14T09:47:33Z</time>
      </trkpt>
      <trkpt lat="45.24247" lon="5.5952">
        <ele>1014.3930053711</ele>
        <time>2017-06-14T09:47:43Z</time>
      </trkpt>
      <trkpt lat="45.2425" lon="5.59506">
        <ele>1014.3930053711</ele>
        <time>2017-06-14T09:47:45Z</time>
      </trkpt>
      <trkpt lat="45.24256" lon="5.59511">
        <ele>1014.3930053711</ele>
        <time>2017-06-14T09:47:49Z</time>
      </trkpt>
      <trkpt lat="45.24254" lon="5.59494">
        <ele>1011.3930053711</ele>
        <time>2017-06-14T09:47:58Z</time>
      </trkpt>
      <trkpt lat="45.24261" lon="5.59501">
        <ele>1015.3930053711</ele>
        <time>2017-06-14T09:48:04Z</time>
      </trkpt>
      <trkpt lat="45.24256" lon="5.59528">
        <ele>1019.3930053711</ele>
        <time>2017-06-14T09:48:10Z</time>
      </trkpt>
      <trkpt lat="45.24254" lon="5.59517">
        <ele>1026.3929443359</ele>
        <time>2017-06-14T09:48:23Z</time>
      </trkpt>
      <trkpt lat="45.24248" lon="5.59511">
        <ele>1027.3929443359</ele>
        <time>2017-06-14T09:48:26Z</time>
      </trkpt>
      <trkpt lat="45.2424" lon="5.5948">
        <ele>1031.3929443359</ele>
        <time>2017-06-14T09:48:32Z</time>
      </trkpt>
      <trkpt lat="45.24234" lon="5.59473">
        <ele>1033.3929443359</ele>
        <time>2017-06-14T09:48:39Z</time>
      </trkpt>
      <trkpt lat="45.24228" lon="5.59479">
        <ele>1034.3929443359</ele>
        <time>2017-06-14T09:48:44Z</time>
      </trkpt>
      <trkpt lat="45.24233" lon="5.59487">
        <ele>1033.3929443359</ele>
        <time>2017-06-14T09:48:50Z</time>
      </trkpt>
      <trkpt lat="45.24236" lon="5.59474">
        <ele>1034.3929443359</ele>
        <time>2017-06-14T09:48:56Z</time>
      </trkpt>
      <trkpt lat="45.24242" lon="5.59483">
        <ele>1035.3929443359</ele>
        <time>2017-06-14T09:49:05Z</time>
      </trkpt>
      <trkpt lat="45.2424" lon="5.59468">
        <ele>1034.3929443359</ele>
        <time>2017-06-14T09:49:14Z</time>
      </trkpt>
      <trkpt lat="45.24251" lon="5.59475">
        <ele>1038.3929443359</ele>
        <time>2017-06-14T09:49:19Z</time>
      </trkpt>
      <trkpt lat="45.24242" lon="5.59452">
        <ele>1043.3929443359</ele>
        <time>2017-06-14T09:49:22Z</time>
      </trkpt>
      <trkpt lat="45.24232" lon="5.59444">
        <ele>1051.3929443359</ele>
        <time>2017-06-14T09:49:24Z</time>
      </trkpt>
      <trkpt lat="45.24228" lon="5.59433">
        <ele>1061.3929443359</ele>
        <time>2017-06-14T09:51:43Z</time>
      </trkpt>
      <trkpt lat="45.24252" lon="5.59437">
        <ele>1068.3929443359</ele>
        <time>2017-06-14T09:51:50Z</time>
      </trkpt>
      <trkpt lat="45.24247" lon="5.5942">
        <ele>1066.3929443359</ele>
        <time>2017-06-14T09:51:51Z</time>
      </trkpt>
      <trkpt lat="45.24255" lon="5.59417">
        <ele>1070.3929443359</ele>
        <time>2017-06-14T09:51:54Z</time>
      </trkpt>
      <trkpt lat="45.24259" lon="5.59393">
        <ele>1077.3929443359</ele>
        <time>2017-06-14T09:52:03Z</time>
      </trkpt>
      <trkpt lat="45.24264" lon="5.59401">
        <ele>1078.3929443359</ele>
        <time>2017-06-14T09:52:09Z</time>
      </trkpt>
      <trkpt lat="45.24259" lon="5.59393">
        <ele>1083.3929443359</ele>
        <time>2017-06-14T09:52:11Z</time>
      </trkpt>
      <trkpt lat="45.24265" lon="5.59388">
        <ele>1093.3929443359</ele>
        <time>2017-06-14T09:52:19Z</time>
      </trkpt>
      <trkpt lat="45.24268" lon="5.59378">
        <ele>1093.3929443359</ele>
        <time>2017-06-14T09:52:20Z</time>
      </trkpt>
      <trkpt lat="45.24276" lon="5.59374">
        <ele>1098.3929443359</ele>
        <time>2017-06-14T09:52:27Z</time>
      </trkpt>
      <trkpt lat="45.24284" lon="5.59374">
        <ele>1104.3929443359</ele>
        <time>2017-06-14T09:52:34Z</time>
      </trkpt>
      <trkpt lat="45.24287" lon="5.59361">
        <ele>1107.3929443359</ele>
        <time>2017-06-14T09:52:37Z</time>
      </trkpt>
      <trkpt lat="45.24283" lon="5.59346">
        <ele>1109.3929443359</ele>
        <time>2017-06-14T09:52:43Z</time>
      </trkpt>
      <trkpt lat="45.24287" lon="5.59371">
        <ele>1117.3929443359</ele>
        <time>2017-06-14T09:52:49Z</time>
      </trkpt>
      <trkpt lat="45.24296" lon="5.59377">
        <ele>1121.3929443359</ele>
        <time>2017-06-14T09:52:56Z</time>
      </trkpt>
      <trkpt lat="45.24296" lon="5.59366">
        <ele>1122.3929443359</ele>
        <time>2017-06-14T09:53:01Z</time>
      </trkpt>
      <trkpt lat="45.24303" lon="5.59367">
        <ele>1138.3929443359</ele>
        <time>2017-06-14T09:53:10Z</time>
      </trkpt>
      <trkpt lat="45.24311" lon="5.59371">
        <ele>1140.3929443359</ele>
        <time>2017-06-14T09:54:13Z</time>
      </trkpt>
      <trkpt lat="45.24324" lon="5.59374">
        <ele>1138.3929443359</ele>
        <time>2017-06-14T09:54:35Z</time>
      </trkpt>
      <trkpt lat="45.24332" lon="5.59377">
        <ele>1147.3929443359</ele>
        <time>2017-06-14T09:54:44Z</time>
      </trkpt>
      <trkpt lat="45.2434" lon="5.5937">
        <ele>1153.3929443359</ele>
        <time>2017-06-14T09:56:06Z</time>
      </trkpt>
      <trkpt lat="45.24337" lon="5.59358">
        <ele>1156.3929443359</ele>
        <time>2017-06-14T09:56:12Z</time>
      </trkpt>
      <trkpt lat="45.24332" lon="5.5935">
        <ele>1157.3929443359</ele>
        <time>2017-06-14T09:56:15Z</time>
      </trkpt>
      <trkpt lat="45.24333" lon="5.5934">
        <ele>1160.3929443359</ele>
        <time>2017-06-14T09:56:28Z</time>
      </trkpt>
      <trkpt lat="45.24328" lon="5.59328">
        <ele>1163.3929443359</ele>
        <time>2017-06-14T09:57:00Z</time>
      </trkpt>
      <trkpt lat="45.24322" lon="5.59315">
        <ele>1163.3929443359</ele>
        <time>2017-06-14T09:57:02Z</time>
      </trkpt>
      <trkpt lat="45.24324" lon="5.59294">
        <ele>1161.3929443359</ele>
        <time>2017-06-14T09:57:07Z</time>
      </trkpt>
      <trkpt lat="45.24332" lon="5.59274">
        <ele>1161.3929443359</ele>
        <time>2017-06-14T09:57:13Z</time>
      </trkpt>
      <trkpt lat="45.24326" lon="5.59251">
        <ele>1159.3919677734</ele>
        <time>2017-06-14T09:57:23Z</time>
      </trkpt>
      <trkpt lat="45.24327" lon="5.59239">
        <ele>1162.3919677734</ele>
        <time>2017-06-14T09:57:30Z</time>
      </trkpt>
      <trkpt lat="45.24331" lon="5.59216">
        <ele>1171.3919677734</ele>
        <time>2017-06-14T09:57:53Z</time>
      </trkpt>
      <trkpt lat="45.24336" lon="5.59197">
        <ele>1160.3919677734</ele>
        <time>2017-06-14T09:58:00Z</time>
      </trkpt>
      <trkpt lat="45.24339" lon="5.59188">
        <ele>1155.3919677734</ele>
        <time>2017-06-14T09:58:06Z</time>
      </trkpt>
      <trkpt lat="45.24343" lon="5.59174">
        <ele>1156.3919677734</ele>
        <time>2017-06-14T09:58:21Z</time>
      </trkpt>
      <trkpt lat="45.24342" lon="5.59163">
        <ele>1161.3919677734</ele>
        <time>2017-06-14T09:58:31Z</time>
      </trkpt>
      <trkpt lat="45.24363" lon="5.59135">
        <ele>1168.3919677734</ele>
        <time>2017-06-14T09:58:44Z</time>
      </trkpt>
      <trkpt lat="45.24377" lon="5.59102">
        <ele>1170.3919677734</ele>
        <time>2017-06-14T09:58:53Z</time>
      </trkpt>
      <trkpt lat="45.24391" lon="5.59093">
        <ele>1169.3919677734</ele>
        <time>2017-06-14T09:59:00Z</time>
      </trkpt>
      <trkpt lat="45.24402" lon="5.59083">
        <ele>1175.3919677734</ele>
        <time>2017-06-14T09:59:07Z</time>
      </trkpt>
      <trkpt lat="45.2442" lon="5.5907">
        <ele>1179.3919677734</ele>
        <time>2017-06-14T09:59:14Z</time>
      </trkpt>
      <trkpt lat="45.24426" lon="5.59075">
        <ele>1178.3919677734</ele>
        <time>2017-06-14T09:59:25Z</time>
      </trkpt>
      <trkpt lat="45.24429" lon="5.59065">
        <ele>1173.3919677734</ele>
        <time>2017-06-14T09:59:32Z</time>
      </trkpt>
      <trkpt lat="45.24433" lon="5.59051">
        <ele>1179.3919677734</ele>
        <time>2017-06-14T10:00:48Z</time>
      </trkpt>
      <trkpt lat="45.24436" lon="5.59026">
        <ele>1175.3919677734</ele>
        <time>2017-06-14T10:00:52Z</time>
      </trkpt>
      <trkpt lat="45.24444" lon="5.59023">
        <ele>1175.3919677734</ele>
        <time>2017-06-14T10:00:58Z</time>
      </trkpt>
      <trkpt lat="45.24453" lon="5.59002">
        <ele>1174.3919677734</ele>
        <time>2017-06-14T10:01:03Z</time>
      </trkpt>
      <trkpt lat="45.2446" lon="5.59001">
        <ele>1177.3919677734</ele>
        <time>2017-06-14T10:01:07Z</time>
      </trkpt>
      <trkpt lat="45.2447" lon="5.58999">
        <ele>1178.3919677734</ele>
        <time>2017-06-14T10:01:10Z</time>
      </trkpt>
      <trkpt lat="45.24477" lon="5.59002">
        <ele>1178.3919677734</ele>
        <time>2017-06-14T10:01:16Z</time>
      </trkpt>
      <trkpt lat="45.24477" lon="5.58987">
        <ele>1179.3919677734</ele>
        <time>2017-06-14T10:01:18Z</time>
      </trkpt>
      <trkpt lat="45.2449" lon="5.59">
        <ele>1182.3929443359</ele>
        <time>2017-06-14T10:01:24Z</time>
      </trkpt>
      <trkpt lat="45.24497" lon="5.59001">
        <ele>1183.3929443359</ele>
        <time>2017-06-14T10:01:26Z</time>
      </trkpt>
      <trkpt lat="45.24492" lon="5.58988">
        <ele>1186.3919677734</ele>
        <time>2017-06-14T10:01:32Z</time>
      </trkpt>
      <trkpt lat="45.24503" lon="5.58981">
        <ele>1185.3929443359</ele>
        <time>2017-06-14T10:01:34Z</time>
      </trkpt>
      <trkpt lat="45.24503" lon="5.58969">
        <ele>1189.3919677734</ele>
        <time>2017-06-14T10:01:38Z</time>
      </trkpt>
      <trkpt lat="45.24511" lon="5.58966">
        <ele>1187.3919677734</ele>
        <time>2017-06-14T10:01:44Z</time>
      </trkpt>
      <trkpt lat="45.24527" lon="5.58971">
        <ele>1196.3929443359</ele>
        <time>2017-06-14T10:05:09Z</time>
      </trkpt>
      <trkpt lat="45.24546" lon="5.58978">
        <ele>1196.3929443359</ele>
        <time>2017-06-14T10:05:18Z</time>
      </trkpt>
      <trkpt lat="45.24553" lon="5.58977">
        <ele>1198.3929443359</ele>
        <time>2017-06-14T10:05:23Z</time>
      </trkpt>
      <trkpt lat="45.24561" lon="5.58976">
        <ele>1205.3929443359</ele>
        <time>2017-06-14T10:05:28Z</time>
      </trkpt>
      <trkpt lat="45.24569" lon="5.58979">
        <ele>1210.3929443359</ele>
        <time>2017-06-14T10:05:36Z</time>
      </trkpt>
      <trkpt lat="45.24575" lon="5.58983">
        <ele>1210.3929443359</ele>
        <time>2017-06-14T10:06:12Z</time>
      </trkpt>
      <trkpt lat="45.24597" lon="5.58997">
        <ele>1209.3929443359</ele>
        <time>2017-06-14T10:06:19Z</time>
      </trkpt>
      <trkpt lat="45.24604" lon="5.59001">
        <ele>1207.3929443359</ele>
        <time>2017-06-14T10:06:23Z</time>
      </trkpt>
      <trkpt lat="45.2461" lon="5.5901">
        <ele>1220.3929443359</ele>
        <time>2017-06-14T10:06:30Z</time>
      </trkpt>
      <trkpt lat="45.24618" lon="5.59015">
        <ele>1224.3929443359</ele>
        <time>2017-06-14T10:06:35Z</time>
      </trkpt>
      <trkpt lat="45.24626" lon="5.59017">
        <ele>1233.3929443359</ele>
        <time>2017-06-14T10:06:39Z</time>
      </trkpt>
      <trkpt lat="45.2464" lon="5.59">
        <ele>1235.3929443359</ele>
        <time>2017-06-14T10:06:45Z</time>
      </trkpt>
      <trkpt lat="45.24655" lon="5.59001">
        <ele>1246.3929443359</ele>
        <time>2017-06-14T10:06:53Z</time>
      </trkpt>
      <trkpt lat="45.24662" lon="5.58994">
        <ele>1246.3929443359</ele>
        <time>2017-06-14T10:06:56Z</time>
      </trkpt>
      <trkpt lat="45.24668" lon="5.58998">
        <ele>1251.3929443359</ele>
        <time>2017-06-14T10:07:02Z</time>
      </trkpt>
      <trkpt lat="45.24676" lon="5.58996">
        <ele>1254.3929443359</ele>
        <time>2017-06-14T10:07:20Z</time>
      </trkpt>
      <trkpt lat="45.24685" lon="5.5899">
        <ele>1255.3929443359</ele>
        <time>2017-06-14T10:07:29Z</time>
      </trkpt>
      <trkpt lat="45.24699" lon="5.58975">
        <ele>1254.3929443359</ele>
        <time>2017-06-14T10:07:53Z</time>
      </trkpt>
      <trkpt lat="45.24706" lon="5.58971">
        <ele>1254.3929443359</ele>
        <time>2017-06-14T10:08:07Z</time>
      </trkpt>
      <trkpt lat="45.24709" lon="5.58961">
        <ele>1253.3929443359</ele>
        <time>2017-06-14T10:08:29Z</time>
      </trkpt>
      <trkpt lat="45.24701" lon="5.58933">
        <ele>1241.3929443359</ele>
        <time>2017-06-14T10:08:34Z</time>
      </trkpt>
      <trkpt lat="45.24704" lon="5.5891">
        <ele>1242.3929443359</ele>
        <time>2017-06-14T10:08:41Z</time>
      </trkpt>
      <trkpt lat="45.24717" lon="5.58893">
        <ele>1243.3929443359</ele>
        <time>2017-06-14T10:08:46Z</time>
      </trkpt>
      <trkpt lat="45.24726" lon="5.58876">
        <ele>1245.3929443359</ele>
        <time>2017-06-14T10:08:55Z</time>
      </trkpt>
      <trkpt lat="45.24728" lon="5.58865">
        <ele>1247.3929443359</ele>
        <time>2017-06-14T10:09:00Z</time>
      </trkpt>
      <trkpt lat="45.24733" lon="5.58854">
        <ele>1251.3929443359</ele>
        <time>2017-06-14T10:09:04Z</time>
      </trkpt>
      <trkpt lat="45.24741" lon="5.58831">
        <ele>1256.3929443359</ele>
        <time>2017-06-14T10:09:10Z</time>
      </trkpt>
      <trkpt lat="45.24732" lon="5.58824">
        <ele>1256.3929443359</ele>
        <time>2017-06-14T10:09:12Z</time>
      </trkpt>
      <trkpt lat="45.24726" lon="5.58818">
        <ele>1261.3929443359</ele>
        <time>2017-06-14T10:09:21Z</time>
      </trkpt>
      <trkpt lat="45.24731" lon="5.58807">
        <ele>1265.3929443359</ele>
        <time>2017-06-14T10:09:51Z</time>
      </trkpt>
      <trkpt lat="45.2474" lon="5.58794">
        <ele>1262.3929443359</ele>
        <time>2017-06-14T10:09:56Z</time>
      </trkpt>
      <trkpt lat="45.24752" lon="5.5878">
        <ele>1262.3929443359</ele>
        <time>2017-06-14T10:10:02Z</time>
      </trkpt>
      <trkpt lat="45.24752" lon="5.58769">
        <ele>1262.3929443359</ele>
        <time>2017-06-14T10:10:05Z</time>
      </trkpt>
      <trkpt lat="45.24754" lon="5.58754">
        <ele>1262.3929443359</ele>
        <time>2017-06-14T10:10:10Z</time>
      </trkpt>
      <trkpt lat="45.24757" lon="5.58744">
        <ele>1263.3929443359</ele>
        <time>2017-06-14T10:10:15Z</time>
      </trkpt>
      <trkpt lat="45.24744" lon="5.58741">
        <ele>1264.3929443359</ele>
        <time>2017-06-14T10:10:17Z</time>
      </trkpt>
      <trkpt lat="45.24748" lon="5.58719">
        <ele>1266.3929443359</ele>
        <time>2017-06-14T10:10:26Z</time>
      </trkpt>
      <trkpt lat="45.24741" lon="5.58715">
        <ele>1271.3929443359</ele>
        <time>2017-06-14T10:10:28Z</time>
      </trkpt>
      <trkpt lat="45.24739" lon="5.58693">
        <ele>1279.3929443359</ele>
        <time>2017-06-14T10:10:33Z</time>
      </trkpt>
      <trkpt lat="45.24732" lon="5.58684">
        <ele>1280.3929443359</ele>
        <time>2017-06-14T10:10:34Z</time>
      </trkpt>
      <trkpt lat="45.24726" lon="5.58677">
        <ele>1288.3929443359</ele>
        <time>2017-06-14T10:10:36Z</time>
      </trkpt>
      <trkpt lat="45.2472" lon="5.5867">
        <ele>1298.3929443359</ele>
        <time>2017-06-14T10:12:06Z</time>
      </trkpt>
      <trkpt lat="45.24707" lon="5.58676">
        <ele>1297.3929443359</ele>
        <time>2017-06-14T10:12:11Z</time>
      </trkpt>
      <trkpt lat="45.24698" lon="5.58679">
        <ele>1297.3929443359</ele>
        <time>2017-06-14T10:12:16Z</time>
      </trkpt>
      <trkpt lat="45.2468" lon="5.58689">
        <ele>1299.3919677734</ele>
        <time>2017-06-14T10:12:25Z</time>
      </trkpt>
      <trkpt lat="45.24674" lon="5.58696">
        <ele>1301.3919677734</ele>
        <time>2017-06-14T10:12:31Z</time>
      </trkpt>
      <trkpt lat="45.2467" lon="5.5871">
        <ele>1301.3919677734</ele>
        <time>2017-06-14T10:12:39Z</time>
      </trkpt>
      <trkpt lat="45.24658" lon="5.58715">
        <ele>1306.3919677734</ele>
        <time>2017-06-14T10:12:47Z</time>
      </trkpt>
      <trkpt lat="45.24656" lon="5.58704">
        <ele>1309.3919677734</ele>
        <time>2017-06-14T10:12:48Z</time>
      </trkpt>
      <trkpt lat="45.24653" lon="5.58689">
        <ele>1322.3919677734</ele>
        <time>2017-06-14T10:13:18Z</time>
      </trkpt>
      <trkpt lat="45.24629" lon="5.5867">
        <ele>1321.3919677734</ele>
        <time>2017-06-14T10:13:24Z</time>
      </trkpt>
      <trkpt lat="45.24621" lon="5.58648">
        <ele>1325.3919677734</ele>
        <time>2017-06-14T10:13:30Z</time>
      </trkpt>
      <trkpt lat="45.24625" lon="5.58636">
        <ele>1326.3919677734</ele>
        <time>2017-06-14T10:13:33Z</time>
      </trkpt>
      <trkpt lat="45.24605" lon="5.58613">
        <ele>1325.3919677734</ele>
        <time>2017-06-14T10:13:40Z</time>
      </trkpt>
      <trkpt lat="45.24599" lon="5.58604">
        <ele>1325.3919677734</ele>
        <time>2017-06-14T10:13:43Z</time>
      </trkpt>
      <trkpt lat="45.24608" lon="5.58588">
        <ele>1323.3919677734</ele>
        <time>2017-06-14T10:13:47Z</time>
      </trkpt>
      <trkpt lat="45.24608" lon="5.58577">
        <ele>1323.3919677734</ele>
        <time>2017-06-14T10:13:50Z</time>
      </trkpt>
      <trkpt lat="45.24605" lon="5.58554">
        <ele>1323.3919677734</ele>
        <time>2017-06-14T10:13:56Z</time>
      </trkpt>
      <trkpt lat="45.24598" lon="5.58534">
        <ele>1323.3919677734</ele>
        <time>2017-06-14T10:14:02Z</time>
      </trkpt>
      <trkpt lat="45.24597" lon="5.58508">
        <ele>1323.3919677734</ele>
        <time>2017-06-14T10:14:09Z</time>
      </trkpt>
      <trkpt lat="45.24597" lon="5.58489">
        <ele>1320.3919677734</ele>
        <time>2017-06-14T10:14:15Z</time>
      </trkpt>
      <trkpt lat="45.24595" lon="5.5847">
        <ele>1319.3919677734</ele>
        <time>2017-06-14T10:14:20Z</time>
      </trkpt>
      <trkpt lat="45.24591" lon="5.58451">
        <ele>1318.3919677734</ele>
        <time>2017-06-14T10:14:27Z</time>
      </trkpt>
      <trkpt lat="45.24583" lon="5.58434">
        <ele>1317.3919677734</ele>
        <time>2017-06-14T10:14:33Z</time>
      </trkpt>
      <trkpt lat="45.24544" lon="5.58387">
        <ele>1302.3919677734</ele>
        <time>2017-06-14T10:14:55Z</time>
      </trkpt>
      <trkpt lat="45.24527" lon="5.58385">
        <ele>1299.3919677734</ele>
        <time>2017-06-14T10:15:05Z</time>
      </trkpt>
      <trkpt lat="45.24518" lon="5.58384">
        <ele>1299.3919677734</ele>
        <time>2017-06-14T10:15:15Z</time>
      </trkpt>
      <trkpt lat="45.24511" lon="5.58383">
        <ele>1299.3919677734</ele>
        <time>2017-06-14T10:15:20Z</time>
      </trkpt>
      <trkpt lat="45.24505" lon="5.58377">
        <ele>1294.3919677734</ele>
        <time>2017-06-14T10:15:36Z</time>
      </trkpt>
      <trkpt lat="45.24497" lon="5.58358">
        <ele>1288.3919677734</ele>
        <time>2017-06-14T10:15:43Z</time>
      </trkpt>
      <trkpt lat="45.24503" lon="5.58302">
        <ele>1291.3919677734</ele>
        <time>2017-06-14T10:15:57Z</time>
      </trkpt>
      <trkpt lat="45.24504" lon="5.58279">
        <ele>1292.3919677734</ele>
        <time>2017-06-14T10:16:03Z</time>
      </trkpt>
      <trkpt lat="45.24501" lon="5.58256">
        <ele>1292.3919677734</ele>
        <time>2017-06-14T10:16:10Z</time>
      </trkpt>
      <trkpt lat="45.24492" lon="5.58235">
        <ele>1292.3909912109</ele>
        <time>2017-06-14T10:16:16Z</time>
      </trkpt>
      <trkpt lat="45.24491" lon="5.58199">
        <ele>1293.3909912109</ele>
        <time>2017-06-14T10:16:25Z</time>
      </trkpt>
      <trkpt lat="45.2449" lon="5.5817">
        <ele>1293.3909912109</ele>
        <time>2017-06-14T10:16:32Z</time>
      </trkpt>
      <trkpt lat="45.24488" lon="5.58132">
        <ele>1295.3909912109</ele>
        <time>2017-06-14T10:16:42Z</time>
      </trkpt>
      <trkpt lat="45.24482" lon="5.58108">
        <ele>1293.3909912109</ele>
        <time>2017-06-14T10:16:48Z</time>
      </trkpt>
      <trkpt lat="45.24481" lon="5.58085">
        <ele>1295.3909912109</ele>
        <time>2017-06-14T10:16:55Z</time>
      </trkpt>
      <trkpt lat="45.24472" lon="5.58061">
        <ele>1290.3909912109</ele>
        <time>2017-06-14T10:17:04Z</time>
      </trkpt>
      <trkpt lat="45.24464" lon="5.58041">
        <ele>1289.3909912109</ele>
        <time>2017-06-14T10:17:11Z</time>
      </trkpt>
      <trkpt lat="45.24461" lon="5.58021">
        <ele>1289.3909912109</ele>
        <time>2017-06-14T10:17:16Z</time>
      </trkpt>
      <trkpt lat="45.24457" lon="5.57998">
        <ele>1288.3909912109</ele>
        <time>2017-06-14T10:17:28Z</time>
      </trkpt>
      <trkpt lat="45.24454" lon="5.57988">
        <ele>1287.3909912109</ele>
        <time>2017-06-14T10:17:34Z</time>
      </trkpt>
      <trkpt lat="45.24451" lon="5.57978">
        <ele>1286.3909912109</ele>
        <time>2017-06-14T10:17:42Z</time>
      </trkpt>
      <trkpt lat="45.24451" lon="5.57966">
        <ele>1287.3909912109</ele>
        <time>2017-06-14T10:17:49Z</time>
      </trkpt>
      <trkpt lat="45.24453" lon="5.57951">
        <ele>1285.3909912109</ele>
        <time>2017-06-14T10:17:56Z</time>
      </trkpt>
      <trkpt lat="45.24458" lon="5.57927">
        <ele>1286.3909912109</ele>
        <time>2017-06-14T10:18:03Z</time>
      </trkpt>
      <trkpt lat="45.24465" lon="5.57899">
        <ele>1289.3909912109</ele>
        <time>2017-06-14T10:18:11Z</time>
      </trkpt>
      <trkpt lat="45.24465" lon="5.57874">
        <ele>1291.3909912109</ele>
        <time>2017-06-14T10:18:17Z</time>
      </trkpt>
      <trkpt lat="45.24463" lon="5.57841">
        <ele>1291.3909912109</ele>
        <time>2017-06-14T10:18:25Z</time>
      </trkpt>
      <trkpt lat="45.2446" lon="5.57832">
        <ele>1290.3909912109</ele>
        <time>2017-06-14T10:18:28Z</time>
      </trkpt>
      <trkpt lat="45.24462" lon="5.57819">
        <ele>1290.3909912109</ele>
        <time>2017-06-14T10:18:33Z</time>
      </trkpt>
      <trkpt lat="45.24463" lon="5.57808">
        <ele>1288.3909912109</ele>
        <time>2017-06-14T10:18:38Z</time>
      </trkpt>
      <trkpt lat="45.2447" lon="5.57786">
        <ele>1292.3909912109</ele>
        <time>2017-06-14T10:18:43Z</time>
      </trkpt>
      <trkpt lat="45.24479" lon="5.57764">
        <ele>1294.3909912109</ele>
        <time>2017-06-14T10:18:50Z</time>
      </trkpt>
      <trkpt lat="45.24488" lon="5.57737">
        <ele>1300.3909912109</ele>
        <time>2017-06-14T10:18:56Z</time>
      </trkpt>
      <trkpt lat="45.24493" lon="5.57714">
        <ele>1302.3909912109</ele>
        <time>2017-06-14T10:19:05Z</time>
      </trkpt>
      <trkpt lat="45.245" lon="5.57709">
        <ele>1304.3909912109</ele>
        <time>2017-06-14T10:19:07Z</time>
      </trkpt>
      <trkpt lat="45.24507" lon="5.57704">
        <ele>1305.3909912109</ele>
        <time>2017-06-14T10:19:09Z</time>
      </trkpt>
      <trkpt lat="45.24519" lon="5.57685">
        <ele>1310.3909912109</ele>
        <time>2017-06-14T10:19:17Z</time>
      </trkpt>
      <trkpt lat="45.24539" lon="5.57674">
        <ele>1309.3909912109</ele>
        <time>2017-06-14T10:19:23Z</time>
      </trkpt>
      <trkpt lat="45.24576" lon="5.57671">
        <ele>1309.3909912109</ele>
        <time>2017-06-14T10:19:38Z</time>
      </trkpt>
      <trkpt lat="45.2459" lon="5.57691">
        <ele>1308.3909912109</ele>
        <time>2017-06-14T10:19:44Z</time>
      </trkpt>
      <trkpt lat="45.24597" lon="5.57692">
        <ele>1302.3909912109</ele>
        <time>2017-06-14T10:19:52Z</time>
      </trkpt>
      <trkpt lat="45.24607" lon="5.57687">
        <ele>1292.3909912109</ele>
        <time>2017-06-14T10:20:01Z</time>
      </trkpt>
      <trkpt lat="45.24623" lon="5.57681">
        <ele>1289.3909912109</ele>
        <time>2017-06-14T10:20:10Z</time>
      </trkpt>
      <trkpt lat="45.24635" lon="5.57669">
        <ele>1287.3909912109</ele>
        <time>2017-06-14T10:20:15Z</time>
      </trkpt>
      <trkpt lat="45.24639" lon="5.57647">
        <ele>1283.3909912109</ele>
        <time>2017-06-14T10:20:36Z</time>
      </trkpt>
      <trkpt lat="45.24635" lon="5.57623">
        <ele>1286.3909912109</ele>
        <time>2017-06-14T10:20:43Z</time>
      </trkpt>
      <trkpt lat="45.24632" lon="5.57614">
        <ele>1287.3909912109</ele>
        <time>2017-06-14T10:20:49Z</time>
      </trkpt>
      <trkpt lat="45.24627" lon="5.57606">
        <ele>1287.3909912109</ele>
        <time>2017-06-14T10:20:56Z</time>
      </trkpt>
      <trkpt lat="45.2462" lon="5.57599">
        <ele>1290.3909912109</ele>
        <time>2017-06-14T10:21:02Z</time>
      </trkpt>
      <trkpt lat="45.24615" lon="5.57591">
        <ele>1289.3909912109</ele>
        <time>2017-06-14T10:21:08Z</time>
      </trkpt>
      <trkpt lat="45.2461" lon="5.57582">
        <ele>1288.3909912109</ele>
        <time>2017-06-14T10:21:15Z</time>
      </trkpt>
      <trkpt lat="45.24601" lon="5.57578">
        <ele>1289.3909912109</ele>
        <time>2017-06-14T10:21:20Z</time>
      </trkpt>
      <trkpt lat="45.24589" lon="5.57562">
        <ele>1284.3909912109</ele>
        <time>2017-06-14T10:21:28Z</time>
      </trkpt>
      <trkpt lat="45.24573" lon="5.57565">
        <ele>1289.3909912109</ele>
        <time>2017-06-14T10:21:46Z</time>
      </trkpt>
      <trkpt lat="45.24587" lon="5.57559">
        <ele>1292.3909912109</ele>
        <time>2017-06-14T10:21:49Z</time>
      </trkpt>
      <trkpt lat="45.24582" lon="5.57552">
        <ele>1291.3909912109</ele>
        <time>2017-06-14T10:21:56Z</time>
      </trkpt>
      <trkpt lat="45.24578" lon="5.5754">
        <ele>1291.3909912109</ele>
        <time>2017-06-14T10:22:01Z</time>
      </trkpt>
      <trkpt lat="45.24571" lon="5.57531">
        <ele>1290.3909912109</ele>
        <time>2017-06-14T10:22:04Z</time>
      </trkpt>
      <trkpt lat="45.24559" lon="5.57514">
        <ele>1292.3909912109</ele>
        <time>2017-06-14T10:22:09Z</time>
      </trkpt>
      <trkpt lat="45.24543" lon="5.57497">
        <ele>1292.3909912109</ele>
        <time>2017-06-14T10:22:16Z</time>
      </trkpt>
      <trkpt lat="45.24528" lon="5.57523">
        <ele>1292.3909912109</ele>
        <time>2017-06-14T10:22:21Z</time>
      </trkpt>
      <trkpt lat="45.24509" lon="5.57556">
        <ele>1292.3909912109</ele>
        <time>2017-06-14T10:22:27Z</time>
      </trkpt>
      <trkpt lat="45.24503" lon="5.57522">
        <ele>1291.3900146484</ele>
        <time>2017-06-14T10:22:32Z</time>
      </trkpt>
      <trkpt lat="45.24495" lon="5.57509">
        <ele>1291.3900146484</ele>
        <time>2017-06-14T10:22:33Z</time>
      </trkpt>
      <trkpt lat="45.24481" lon="5.57527">
        <ele>1291.3900146484</ele>
        <time>2017-06-14T10:22:39Z</time>
      </trkpt>
      <trkpt lat="45.24478" lon="5.57508">
        <ele>1293.3900146484</ele>
        <time>2017-06-14T10:22:41Z</time>
      </trkpt>
      <trkpt lat="45.2448" lon="5.57498">
        <ele>1295.3900146484</ele>
        <time>2017-06-14T10:22:44Z</time>
      </trkpt>
      <trkpt lat="45.24474" lon="5.57485">
        <ele>1296.3900146484</ele>
        <time>2017-06-14T10:22:45Z</time>
      </trkpt>
      <trkpt lat="45.24468" lon="5.57479">
        <ele>1296.3900146484</ele>
        <time>2017-06-14T10:22:52Z</time>
      </trkpt>
      <trkpt lat="45.2446" lon="5.57482">
        <ele>1290.3900146484</ele>
        <time>2017-06-14T10:23:00Z</time>
      </trkpt>
      <trkpt lat="45.24447" lon="5.57482">
        <ele>1290.3900146484</ele>
        <time>2017-06-14T10:23:07Z</time>
      </trkpt>
      <trkpt lat="45.24419" lon="5.57462">
        <ele>1284.3900146484</ele>
        <time>2017-06-14T10:23:19Z</time>
      </trkpt>
      <trkpt lat="45.24391" lon="5.57437">
        <ele>1286.3900146484</ele>
        <time>2017-06-14T10:23:33Z</time>
      </trkpt>
      <trkpt lat="45.24368" lon="5.57427">
        <ele>1286.3900146484</ele>
        <time>2017-06-14T10:23:39Z</time>
      </trkpt>
      <trkpt lat="45.24344" lon="5.57412">
        <ele>1285.3900146484</ele>
        <time>2017-06-14T10:23:45Z</time>
      </trkpt>
      <trkpt lat="45.24336" lon="5.57415">
        <ele>1286.3900146484</ele>
        <time>2017-06-14T10:23:50Z</time>
      </trkpt>
      <trkpt lat="45.24328" lon="5.57417">
        <ele>1287.3900146484</ele>
        <time>2017-06-14T10:23:54Z</time>
      </trkpt>
      <trkpt lat="45.24318" lon="5.57416">
        <ele>1285.3900146484</ele>
        <time>2017-06-14T10:24:00Z</time>
      </trkpt>
      <trkpt lat="45.2428" lon="5.57412">
        <ele>1285.3900146484</ele>
        <time>2017-06-14T10:24:14Z</time>
      </trkpt>
      <trkpt lat="45.24257" lon="5.57366">
        <ele>1276.3900146484</ele>
        <time>2017-06-14T10:24:29Z</time>
      </trkpt>
      <trkpt lat="45.24235" lon="5.57332">
        <ele>1274.3900146484</ele>
        <time>2017-06-14T10:24:40Z</time>
      </trkpt>
      <trkpt lat="45.24231" lon="5.57323">
        <ele>1273.3900146484</ele>
        <time>2017-06-14T10:24:43Z</time>
      </trkpt>
      <trkpt lat="45.24222" lon="5.57305">
        <ele>1275.3900146484</ele>
        <time>2017-06-14T10:24:50Z</time>
      </trkpt>
      <trkpt lat="45.24217" lon="5.57294">
        <ele>1273.3900146484</ele>
        <time>2017-06-14T10:24:54Z</time>
      </trkpt>
      <trkpt lat="45.24212" lon="5.57274">
        <ele>1275.3900146484</ele>
        <time>2017-06-14T10:25:00Z</time>
      </trkpt>
      <trkpt lat="45.24207" lon="5.5725">
        <ele>1272.3890380859</ele>
        <time>2017-06-14T10:25:09Z</time>
      </trkpt>
      <trkpt lat="45.24206" lon="5.57227">
        <ele>1272.3890380859</ele>
        <time>2017-06-14T10:25:16Z</time>
      </trkpt>
      <trkpt lat="45.24208" lon="5.57202">
        <ele>1274.3890380859</ele>
        <time>2017-06-14T10:25:23Z</time>
      </trkpt>
      <trkpt lat="45.24201" lon="5.5718">
        <ele>1276.3890380859</ele>
        <time>2017-06-14T10:25:30Z</time>
      </trkpt>
      <trkpt lat="45.24201" lon="5.57169">
        <ele>1277.3890380859</ele>
        <time>2017-06-14T10:25:33Z</time>
      </trkpt>
      <trkpt lat="45.24197" lon="5.57147">
        <ele>1279.3890380859</ele>
        <time>2017-06-14T10:25:41Z</time>
      </trkpt>
      <trkpt lat="45.24198" lon="5.57137">
        <ele>1278.3890380859</ele>
        <time>2017-06-14T10:25:43Z</time>
      </trkpt>
      <trkpt lat="45.24203" lon="5.57128">
        <ele>1279.3890380859</ele>
        <time>2017-06-14T10:25:45Z</time>
      </trkpt>
      <trkpt lat="45.24201" lon="5.57105">
        <ele>1279.3890380859</ele>
        <time>2017-06-14T10:25:51Z</time>
      </trkpt>
      <trkpt lat="45.24202" lon="5.57079">
        <ele>1281.3890380859</ele>
        <time>2017-06-14T10:25:58Z</time>
      </trkpt>
      <trkpt lat="45.24195" lon="5.5707">
        <ele>1280.3890380859</ele>
        <time>2017-06-14T10:26:04Z</time>
      </trkpt>
      <trkpt lat="45.24189" lon="5.57062">
        <ele>1277.3890380859</ele>
        <time>2017-06-14T10:26:11Z</time>
      </trkpt>
      <trkpt lat="45.24188" lon="5.57052">
        <ele>1279.3890380859</ele>
        <time>2017-06-14T10:26:17Z</time>
      </trkpt>
      <trkpt lat="45.24207" lon="5.56998">
        <ele>1278.3890380859</ele>
        <time>2017-06-14T10:26:41Z</time>
      </trkpt>
      <trkpt lat="45.24208" lon="5.56987">
        <ele>1281.3890380859</ele>
        <time>2017-06-14T10:26:43Z</time>
      </trkpt>
      <trkpt lat="45.24206" lon="5.56973">
        <ele>1281.3890380859</ele>
        <time>2017-06-14T10:26:49Z</time>
      </trkpt>
      <trkpt lat="45.24205" lon="5.56949">
        <ele>1282.3890380859</ele>
        <time>2017-06-14T10:26:55Z</time>
      </trkpt>
      <trkpt lat="45.24233" lon="5.56921">
        <ele>1288.3890380859</ele>
        <time>2017-06-14T10:27:08Z</time>
      </trkpt>
      <trkpt lat="45.24251" lon="5.56924">
        <ele>1281.3890380859</ele>
        <time>2017-06-14T10:27:16Z</time>
      </trkpt>
      <trkpt lat="45.2426" lon="5.56924">
        <ele>1279.3890380859</ele>
        <time>2017-06-14T10:27:27Z</time>
      </trkpt>
      <trkpt lat="45.24268" lon="5.56926">
        <ele>1278.3890380859</ele>
        <time>2017-06-14T10:27:33Z</time>
      </trkpt>
      <trkpt lat="45.24284" lon="5.56926">
        <ele>1277.3890380859</ele>
        <time>2017-06-14T10:27:39Z</time>
      </trkpt>
      <trkpt lat="45.24291" lon="5.56918">
        <ele>1275.3890380859</ele>
        <time>2017-06-14T10:27:42Z</time>
      </trkpt>
      <trkpt lat="45.2431" lon="5.56912">
        <ele>1273.3890380859</ele>
        <time>2017-06-14T10:27:48Z</time>
      </trkpt>
      <trkpt lat="45.24332" lon="5.5693">
        <ele>1272.3890380859</ele>
        <time>2017-06-14T10:27:55Z</time>
      </trkpt>
      <trkpt lat="45.24341" lon="5.56925">
        <ele>1270.3890380859</ele>
        <time>2017-06-14T10:27:59Z</time>
      </trkpt>
      <trkpt lat="45.24348" lon="5.56921">
        <ele>1270.3890380859</ele>
        <time>2017-06-14T10:28:01Z</time>
      </trkpt>
      <trkpt lat="45.24356" lon="5.56916">
        <ele>1268.3890380859</ele>
        <time>2017-06-14T10:28:05Z</time>
      </trkpt>
      <trkpt lat="45.24364" lon="5.56917">
        <ele>1267.3890380859</ele>
        <time>2017-06-14T10:28:10Z</time>
      </trkpt>
      <trkpt lat="45.24377" lon="5.56904">
        <ele>1264.3890380859</ele>
        <time>2017-06-14T10:28:15Z</time>
      </trkpt>
      <trkpt lat="45.24383" lon="5.56883">
        <ele>1263.3890380859</ele>
        <time>2017-06-14T10:28:20Z</time>
      </trkpt>
      <trkpt lat="45.24382" lon="5.56861">
        <ele>1262.3890380859</ele>
        <time>2017-06-14T10:28:26Z</time>
      </trkpt>
      <trkpt lat="45.24385" lon="5.56838">
        <ele>1263.3890380859</ele>
        <time>2017-06-14T10:28:32Z</time>
      </trkpt>
      <trkpt lat="45.24386" lon="5.56828">
        <ele>1264.3890380859</ele>
        <time>2017-06-14T10:28:35Z</time>
      </trkpt>
      <trkpt lat="45.2439" lon="5.56806">
        <ele>1267.3890380859</ele>
        <time>2017-06-14T10:28:40Z</time>
      </trkpt>
      <trkpt lat="45.24406" lon="5.56786">
        <ele>1271.3890380859</ele>
        <time>2017-06-14T10:28:46Z</time>
      </trkpt>
      <trkpt lat="45.24417" lon="5.56791">
        <ele>1269.3890380859</ele>
        <time>2017-06-14T10:28:49Z</time>
      </trkpt>
      <trkpt lat="45.24431" lon="5.56776">
        <ele>1268.3890380859</ele>
        <time>2017-06-14T10:28:56Z</time>
      </trkpt>
      <trkpt lat="45.24424" lon="5.56766">
        <ele>1260.3890380859</ele>
        <time>2017-06-14T10:29:01Z</time>
      </trkpt>
      <trkpt lat="45.24424" lon="5.56742">
        <ele>1253.3890380859</ele>
        <time>2017-06-14T10:29:13Z</time>
      </trkpt>
      <trkpt lat="45.24422" lon="5.5673">
        <ele>1252.3890380859</ele>
        <time>2017-06-14T10:29:19Z</time>
      </trkpt>
      <trkpt lat="45.24423" lon="5.56713">
        <ele>1249.3890380859</ele>
        <time>2017-06-14T10:29:30Z</time>
      </trkpt>
      <trkpt lat="45.24429" lon="5.56699">
        <ele>1247.3890380859</ele>
        <time>2017-06-14T10:29:34Z</time>
      </trkpt>
      <trkpt lat="45.24435" lon="5.56669">
        <ele>1245.3890380859</ele>
        <time>2017-06-14T10:29:42Z</time>
      </trkpt>
      <trkpt lat="45.2444" lon="5.56649">
        <ele>1243.3890380859</ele>
        <time>2017-06-14T10:29:48Z</time>
      </trkpt>
      <trkpt lat="45.24439" lon="5.56627">
        <ele>1243.3890380859</ele>
        <time>2017-06-14T10:29:53Z</time>
      </trkpt>
      <trkpt lat="45.24445" lon="5.56607">
        <ele>1244.3890380859</ele>
        <time>2017-06-14T10:29:59Z</time>
      </trkpt>
      <trkpt lat="45.24451" lon="5.56594">
        <ele>1244.3890380859</ele>
        <time>2017-06-14T10:30:03Z</time>
      </trkpt>
      <trkpt lat="45.24461" lon="5.56562">
        <ele>1249.3890380859</ele>
        <time>2017-06-14T10:30:12Z</time>
      </trkpt>
      <trkpt lat="45.24474" lon="5.56523">
        <ele>1247.3890380859</ele>
        <time>2017-06-14T10:30:25Z</time>
      </trkpt>
      <trkpt lat="45.24489" lon="5.56512">
        <ele>1249.3890380859</ele>
        <time>2017-06-14T10:30:30Z</time>
      </trkpt>
      <trkpt lat="45.24483" lon="5.56474">
        <ele>1237.3890380859</ele>
        <time>2017-06-14T10:30:43Z</time>
      </trkpt>
      <trkpt lat="45.24478" lon="5.56458">
        <ele>1237.3890380859</ele>
        <time>2017-06-14T10:30:48Z</time>
      </trkpt>
      <trkpt lat="45.24456" lon="5.56456">
        <ele>1237.3890380859</ele>
        <time>2017-06-14T10:30:54Z</time>
      </trkpt>
      <trkpt lat="45.24438" lon="5.56479">
        <ele>1238.3890380859</ele>
        <time>2017-06-14T10:30:58Z</time>
      </trkpt>
      <trkpt lat="45.24425" lon="5.56475">
        <ele>1240.3890380859</ele>
        <time>2017-06-14T10:31:05Z</time>
      </trkpt>
      <trkpt lat="45.24427" lon="5.56485">
        <ele>1238.3890380859</ele>
        <time>2017-06-14T10:31:19Z</time>
      </trkpt>
      <trkpt lat="45.24435" lon="5.56486">
        <ele>1234.3890380859</ele>
        <time>2017-06-14T10:31:24Z</time>
      </trkpt>
      <trkpt lat="45.24425" lon="5.56467">
        <ele>1239.3890380859</ele>
        <time>2017-06-14T10:31:51Z</time>
      </trkpt>
      <trkpt lat="45.24417" lon="5.56465">
        <ele>1234.3890380859</ele>
        <time>2017-06-14T10:31:56Z</time>
      </trkpt>
      <trkpt lat="45.2441" lon="5.56458">
        <ele>1237.3890380859</ele>
        <time>2017-06-14T10:32:02Z</time>
      </trkpt>
      <trkpt lat="45.24402" lon="5.5646">
        <ele>1233.3890380859</ele>
        <time>2017-06-14T10:32:47Z</time>
      </trkpt>
      <trkpt lat="45.24385" lon="5.5646">
        <ele>1234.3890380859</ele>
        <time>2017-06-14T10:32:53Z</time>
      </trkpt>
      <trkpt lat="45.24372" lon="5.56462">
        <ele>1233.3890380859</ele>
        <time>2017-06-14T10:33:04Z</time>
      </trkpt>
      <trkpt lat="45.24358" lon="5.56464">
        <ele>1232.3890380859</ele>
        <time>2017-06-14T10:33:13Z</time>
      </trkpt>
      <trkpt lat="45.24342" lon="5.56472">
        <ele>1233.3890380859</ele>
        <time>2017-06-14T10:33:26Z</time>
      </trkpt>
      <trkpt lat="45.24334" lon="5.56473">
        <ele>1238.3890380859</ele>
        <time>2017-06-14T10:33:36Z</time>
      </trkpt>
      <trkpt lat="45.24327" lon="5.56474">
        <ele>1242.3890380859</ele>
        <time>2017-06-14T10:33:51Z</time>
      </trkpt>
      <trkpt lat="45.24322" lon="5.56466">
        <ele>1242.3890380859</ele>
        <time>2017-06-14T10:33:57Z</time>
      </trkpt>
      <trkpt lat="45.24309" lon="5.56463">
        <ele>1242.3890380859</ele>
        <time>2017-06-14T10:34:10Z</time>
      </trkpt>
      <trkpt lat="45.24307" lon="5.56473">
        <ele>1252.3890380859</ele>
        <time>2017-06-14T10:34:18Z</time>
      </trkpt>
      <trkpt lat="45.24309" lon="5.56483">
        <ele>1252.3890380859</ele>
        <time>2017-06-14T10:34:29Z</time>
      </trkpt>
      <trkpt lat="45.24303" lon="5.5649">
        <ele>1262.3890380859</ele>
        <time>2017-06-14T10:34:41Z</time>
      </trkpt>
      <trkpt lat="45.24296" lon="5.56498">
        <ele>1261.3890380859</ele>
        <time>2017-06-14T10:35:00Z</time>
      </trkpt>
      <trkpt lat="45.24283" lon="5.56514">
        <ele>1259.3890380859</ele>
        <time>2017-06-14T10:35:07Z</time>
      </trkpt>
      <trkpt lat="45.24276" lon="5.5652">
        <ele>1258.3890380859</ele>
        <time>2017-06-14T10:35:12Z</time>
      </trkpt>
      <trkpt lat="45.24264" lon="5.56541">
        <ele>1266.3890380859</ele>
        <time>2017-06-14T10:35:25Z</time>
      </trkpt>
      <trkpt lat="45.24257" lon="5.56547">
        <ele>1275.3890380859</ele>
        <time>2017-06-14T10:35:32Z</time>
      </trkpt>
      <trkpt lat="45.2425" lon="5.56541">
        <ele>1277.3890380859</ele>
        <time>2017-06-14T10:35:41Z</time>
      </trkpt>
      <trkpt lat="45.24242" lon="5.56537">
        <ele>1276.3890380859</ele>
        <time>2017-06-14T10:35:47Z</time>
      </trkpt>
      <trkpt lat="45.2423" lon="5.56524">
        <ele>1277.3890380859</ele>
        <time>2017-06-14T10:35:55Z</time>
      </trkpt>
      <trkpt lat="45.24217" lon="5.5652">
        <ele>1280.3879394531</ele>
        <time>2017-06-14T10:36:07Z</time>
      </trkpt>
      <trkpt lat="45.24207" lon="5.56525">
        <ele>1282.3879394531</ele>
        <time>2017-06-14T10:36:17Z</time>
      </trkpt>
      <trkpt lat="45.24204" lon="5.56535">
        <ele>1283.3879394531</ele>
        <time>2017-06-14T10:36:23Z</time>
      </trkpt>
      <trkpt lat="45.242" lon="5.56544">
        <ele>1285.3879394531</ele>
        <time>2017-06-14T10:36:28Z</time>
      </trkpt>
      <trkpt lat="45.24197" lon="5.56553">
        <ele>1288.3879394531</ele>
        <time>2017-06-14T10:36:39Z</time>
      </trkpt>
      <trkpt lat="45.24188" lon="5.56568">
        <ele>1291.3879394531</ele>
        <time>2017-06-14T10:36:49Z</time>
      </trkpt>
      <trkpt lat="45.2418" lon="5.56568">
        <ele>1291.3879394531</ele>
        <time>2017-06-14T10:36:59Z</time>
      </trkpt>
      <trkpt lat="45.24174" lon="5.56576">
        <ele>1291.3879394531</ele>
        <time>2017-06-14T10:37:07Z</time>
      </trkpt>
      <trkpt lat="45.24167" lon="5.56586">
        <ele>1294.3879394531</ele>
        <time>2017-06-14T10:37:32Z</time>
      </trkpt>
      <trkpt lat="45.2414" lon="5.56594">
        <ele>1297.3879394531</ele>
        <time>2017-06-14T10:37:43Z</time>
      </trkpt>
      <trkpt lat="45.24135" lon="5.56602">
        <ele>1300.3879394531</ele>
        <time>2017-06-14T10:37:47Z</time>
      </trkpt>
      <trkpt lat="45.24127" lon="5.56603">
        <ele>1301.3879394531</ele>
        <time>2017-06-14T10:38:02Z</time>
      </trkpt>
      <trkpt lat="45.24121" lon="5.56598">
        <ele>1307.3879394531</ele>
        <time>2017-06-14T10:38:13Z</time>
      </trkpt>
      <trkpt lat="45.24107" lon="5.56598">
        <ele>1309.3879394531</ele>
        <time>2017-06-14T10:38:29Z</time>
      </trkpt>
      <trkpt lat="45.241" lon="5.56591">
        <ele>1309.3879394531</ele>
        <time>2017-06-14T10:38:37Z</time>
      </trkpt>
      <trkpt lat="45.24092" lon="5.56589">
        <ele>1310.3879394531</ele>
        <time>2017-06-14T10:38:43Z</time>
      </trkpt>
      <trkpt lat="45.24085" lon="5.56592">
        <ele>1315.3879394531</ele>
        <time>2017-06-14T10:38:54Z</time>
      </trkpt>
      <trkpt lat="45.24078" lon="5.56589">
        <ele>1314.3879394531</ele>
        <time>2017-06-14T10:39:00Z</time>
      </trkpt>
      <trkpt lat="45.2407" lon="5.56579">
        <ele>1323.3879394531</ele>
        <time>2017-06-14T10:40:34Z</time>
      </trkpt>
      <trkpt lat="45.24055" lon="5.56569">
        <ele>1329.3879394531</ele>
        <time>2017-06-14T10:40:43Z</time>
      </trkpt>
      <trkpt lat="45.24046" lon="5.56569">
        <ele>1335.3879394531</ele>
        <time>2017-06-14T10:40:45Z</time>
      </trkpt>
      <trkpt lat="45.24038" lon="5.56565">
        <ele>1341.3879394531</ele>
        <time>2017-06-14T10:40:52Z</time>
      </trkpt>
      <trkpt lat="45.24032" lon="5.56573">
        <ele>1346.3879394531</ele>
        <time>2017-06-14T10:40:58Z</time>
      </trkpt>
      <trkpt lat="45.24025" lon="5.56578">
        <ele>1347.3879394531</ele>
        <time>2017-06-14T10:41:04Z</time>
      </trkpt>
      <trkpt lat="45.24018" lon="5.56587">
        <ele>1346.3879394531</ele>
        <time>2017-06-14T10:41:13Z</time>
      </trkpt>
      <trkpt lat="45.24017" lon="5.56597">
        <ele>1349.3879394531</ele>
        <time>2017-06-14T10:42:00Z</time>
      </trkpt>
      <trkpt lat="45.24017" lon="5.56633">
        <ele>1357.3879394531</ele>
        <time>2017-06-14T10:42:26Z</time>
      </trkpt>
      <trkpt lat="45.2401" lon="5.56652">
        <ele>1364.3879394531</ele>
        <time>2017-06-14T10:42:37Z</time>
      </trkpt>
      <trkpt lat="45.24005" lon="5.5666">
        <ele>1364.3879394531</ele>
        <time>2017-06-14T10:42:42Z</time>
      </trkpt>
      <trkpt lat="45.24" lon="5.56674">
        <ele>1369.3879394531</ele>
        <time>2017-06-14T10:42:54Z</time>
      </trkpt>
      <trkpt lat="45.24004" lon="5.56683">
        <ele>1369.3879394531</ele>
        <time>2017-06-14T10:42:59Z</time>
      </trkpt>
      <trkpt lat="45.23995" lon="5.56701">
        <ele>1377.3879394531</ele>
        <time>2017-06-14T10:43:17Z</time>
      </trkpt>
      <trkpt lat="45.23995" lon="5.56712">
        <ele>1376.3879394531</ele>
        <time>2017-06-14T10:43:24Z</time>
      </trkpt>
      <trkpt lat="45.23981" lon="5.56727">
        <ele>1395.3879394531</ele>
        <time>2017-06-14T10:44:26Z</time>
      </trkpt>
      <trkpt lat="45.23976" lon="5.56737">
        <ele>1398.3879394531</ele>
        <time>2017-06-14T10:44:41Z</time>
      </trkpt>
      <trkpt lat="45.23979" lon="5.56746">
        <ele>1401.3879394531</ele>
        <time>2017-06-14T10:44:51Z</time>
      </trkpt>
      <trkpt lat="45.23974" lon="5.56753">
        <ele>1408.3879394531</ele>
        <time>2017-06-14T10:45:52Z</time>
      </trkpt>
      <trkpt lat="45.23963" lon="5.56755">
        <ele>1406.3879394531</ele>
        <time>2017-06-14T10:46:02Z</time>
      </trkpt>
      <trkpt lat="45.2392" lon="5.5674">
        <ele>1419.3879394531</ele>
        <time>2017-06-14T10:46:26Z</time>
      </trkpt>
      <trkpt lat="45.23919" lon="5.56723">
        <ele>1431.3879394531</ele>
        <time>2017-06-14T10:46:45Z</time>
      </trkpt>
      <trkpt lat="45.23906" lon="5.56709">
        <ele>1429.3879394531</ele>
        <time>2017-06-14T10:46:51Z</time>
      </trkpt>
      <trkpt lat="45.23901" lon="5.567">
        <ele>1430.3879394531</ele>
        <time>2017-06-14T10:46:58Z</time>
      </trkpt>
      <trkpt lat="45.23895" lon="5.56707">
        <ele>1435.3879394531</ele>
        <time>2017-06-14T10:47:09Z</time>
      </trkpt>
      <trkpt lat="45.23897" lon="5.56697">
        <ele>1437.3879394531</ele>
        <time>2017-06-14T10:47:14Z</time>
      </trkpt>
      <trkpt lat="45.23899" lon="5.56687">
        <ele>1439.3879394531</ele>
        <time>2017-06-14T10:47:23Z</time>
      </trkpt>
      <trkpt lat="45.23896" lon="5.56677">
        <ele>1442.3879394531</ele>
        <time>2017-06-14T10:47:28Z</time>
      </trkpt>
      <trkpt lat="45.23889" lon="5.5667">
        <ele>1437.3879394531</ele>
        <time>2017-06-14T10:47:42Z</time>
      </trkpt>
      <trkpt lat="45.23885" lon="5.5666">
        <ele>1443.3879394531</ele>
        <time>2017-06-14T10:47:52Z</time>
      </trkpt>
      <trkpt lat="45.23882" lon="5.5665">
        <ele>1447.3879394531</ele>
        <time>2017-06-14T10:48:06Z</time>
      </trkpt>
      <trkpt lat="45.2388" lon="5.56639">
        <ele>1453.3879394531</ele>
        <time>2017-06-14T10:48:15Z</time>
      </trkpt>
      <trkpt lat="45.23878" lon="5.56629">
        <ele>1458.3879394531</ele>
        <time>2017-06-14T10:48:37Z</time>
      </trkpt>
      <trkpt lat="45.23872" lon="5.56617">
        <ele>1456.3879394531</ele>
        <time>2017-06-14T10:49:32Z</time>
      </trkpt>
      <trkpt lat="45.23873" lon="5.56604">
        <ele>1457.3879394531</ele>
        <time>2017-06-14T10:49:42Z</time>
      </trkpt>
      <trkpt lat="45.23881" lon="5.56576">
        <ele>1461.3879394531</ele>
        <time>2017-06-14T10:50:00Z</time>
      </trkpt>
      <trkpt lat="45.23875" lon="5.56569">
        <ele>1461.3879394531</ele>
        <time>2017-06-14T10:50:09Z</time>
      </trkpt>
      <trkpt lat="45.23869" lon="5.56562">
        <ele>1468.3879394531</ele>
        <time>2017-06-14T10:50:26Z</time>
      </trkpt>
      <trkpt lat="45.23864" lon="5.56555">
        <ele>1475.3879394531</ele>
        <time>2017-06-14T10:50:49Z</time>
      </trkpt>
      <trkpt lat="45.23855" lon="5.5654">
        <ele>1475.3879394531</ele>
        <time>2017-06-14T10:52:21Z</time>
      </trkpt>
      <trkpt lat="45.2385" lon="5.56517">
        <ele>1488.3879394531</ele>
        <time>2017-06-14T10:52:36Z</time>
      </trkpt>
      <trkpt lat="45.23844" lon="5.56509">
        <ele>1493.3879394531</ele>
        <time>2017-06-14T10:52:44Z</time>
      </trkpt>
      <trkpt lat="45.23846" lon="5.56498">
        <ele>1503.3879394531</ele>
        <time>2017-06-14T10:52:53Z</time>
      </trkpt>
      <trkpt lat="45.23847" lon="5.56509">
        <ele>1504.3879394531</ele>
        <time>2017-06-14T10:53:02Z</time>
      </trkpt>
      <trkpt lat="45.2384" lon="5.56508">
        <ele>1510.3879394531</ele>
        <time>2017-06-14T10:53:12Z</time>
      </trkpt>
      <trkpt lat="45.23833" lon="5.56501">
        <ele>1510.3879394531</ele>
        <time>2017-06-14T10:55:32Z</time>
      </trkpt>
      <trkpt lat="45.23824" lon="5.56491">
        <ele>1508.3879394531</ele>
        <time>2017-06-14T10:55:41Z</time>
      </trkpt>
      <trkpt lat="45.23817" lon="5.56485">
        <ele>1507.3879394531</ele>
        <time>2017-06-14T10:55:48Z</time>
      </trkpt>
      <trkpt lat="45.23818" lon="5.56496">
        <ele>1511.3879394531</ele>
        <time>2017-06-14T10:55:56Z</time>
      </trkpt>
      <trkpt lat="45.23818" lon="5.56506">
        <ele>1511.3879394531</ele>
        <time>2017-06-14T10:56:02Z</time>
      </trkpt>
      <trkpt lat="45.23816" lon="5.56519">
        <ele>1509.3879394531</ele>
        <time>2017-06-14T10:56:07Z</time>
      </trkpt>
      <trkpt lat="45.23813" lon="5.56528">
        <ele>1508.3879394531</ele>
        <time>2017-06-14T10:56:13Z</time>
      </trkpt>
      <trkpt lat="45.23803" lon="5.56529">
        <ele>1508.3879394531</ele>
        <time>2017-06-14T10:56:24Z</time>
      </trkpt>
      <trkpt lat="45.238" lon="5.56539">
        <ele>1511.3879394531</ele>
        <time>2017-06-14T10:56:31Z</time>
      </trkpt>
      <trkpt lat="45.23793" lon="5.56547">
        <ele>1511.3879394531</ele>
        <time>2017-06-14T10:56:35Z</time>
      </trkpt>
      <trkpt lat="45.23788" lon="5.56554">
        <ele>1517.3879394531</ele>
        <time>2017-06-14T10:56:40Z</time>
      </trkpt>
      <trkpt lat="45.23776" lon="5.56569">
        <ele>1524.3879394531</ele>
        <time>2017-06-14T10:56:47Z</time>
      </trkpt>
      <trkpt lat="45.23768" lon="5.56571">
        <ele>1525.3879394531</ele>
        <time>2017-06-14T10:56:51Z</time>
      </trkpt>
      <trkpt lat="45.23763" lon="5.5658">
        <ele>1522.3879394531</ele>
        <time>2017-06-14T10:57:00Z</time>
      </trkpt>
      <trkpt lat="45.23756" lon="5.56585">
        <ele>1524.3879394531</ele>
        <time>2017-06-14T10:57:10Z</time>
      </trkpt>
      <trkpt lat="45.23742" lon="5.56598">
        <ele>1528.3879394531</ele>
        <time>2017-06-14T10:57:17Z</time>
      </trkpt>
      <trkpt lat="45.23733" lon="5.56604">
        <ele>1527.3879394531</ele>
        <time>2017-06-14T10:57:23Z</time>
      </trkpt>
      <trkpt lat="45.23728" lon="5.56622">
        <ele>1529.3879394531</ele>
        <time>2017-06-14T10:57:31Z</time>
      </trkpt>
      <trkpt lat="45.23709" lon="5.5662">
        <ele>1528.3869628906</ele>
        <time>2017-06-14T10:57:36Z</time>
      </trkpt>
      <trkpt lat="45.23699" lon="5.56636">
        <ele>1531.3869628906</ele>
        <time>2017-06-14T10:57:43Z</time>
      </trkpt>
      <trkpt lat="45.23696" lon="5.56646">
        <ele>1531.3869628906</ele>
        <time>2017-06-14T10:57:49Z</time>
      </trkpt>
      <trkpt lat="45.23693" lon="5.56666">
        <ele>1531.3879394531</ele>
        <time>2017-06-14T10:57:56Z</time>
      </trkpt>
      <trkpt lat="45.23677" lon="5.56671">
        <ele>1532.3869628906</ele>
        <time>2017-06-14T10:58:02Z</time>
      </trkpt>
      <trkpt lat="45.23658" lon="5.56675">
        <ele>1532.3869628906</ele>
        <time>2017-06-14T10:58:11Z</time>
      </trkpt>
      <trkpt lat="45.23645" lon="5.56687">
        <ele>1531.3869628906</ele>
        <time>2017-06-14T10:58:21Z</time>
      </trkpt>
      <trkpt lat="45.23638" lon="5.56681">
        <ele>1525.3869628906</ele>
        <time>2017-06-14T10:58:29Z</time>
      </trkpt>
      <trkpt lat="45.2363" lon="5.5668">
        <ele>1524.3869628906</ele>
        <time>2017-06-14T10:58:33Z</time>
      </trkpt>
      <trkpt lat="45.23622" lon="5.56676">
        <ele>1524.3869628906</ele>
        <time>2017-06-14T10:58:38Z</time>
      </trkpt>
      <trkpt lat="45.23616" lon="5.56681">
        <ele>1523.3869628906</ele>
        <time>2017-06-14T10:58:41Z</time>
      </trkpt>
      <trkpt lat="45.236" lon="5.56691">
        <ele>1522.3869628906</ele>
        <time>2017-06-14T10:58:50Z</time>
      </trkpt>
      <trkpt lat="45.23591" lon="5.56688">
        <ele>1518.3869628906</ele>
        <time>2017-06-14T10:58:55Z</time>
      </trkpt>
      <trkpt lat="45.23581" lon="5.56688">
        <ele>1519.3869628906</ele>
        <time>2017-06-14T10:59:00Z</time>
      </trkpt>
      <trkpt lat="45.23575" lon="5.56696">
        <ele>1517.3869628906</ele>
        <time>2017-06-14T10:59:06Z</time>
      </trkpt>
      <trkpt lat="45.23567" lon="5.567">
        <ele>1518.3869628906</ele>
        <time>2017-06-14T10:59:11Z</time>
      </trkpt>
      <trkpt lat="45.23547" lon="5.56703">
        <ele>1513.3869628906</ele>
        <time>2017-06-14T10:59:21Z</time>
      </trkpt>
      <trkpt lat="45.23542" lon="5.56714">
        <ele>1511.3869628906</ele>
        <time>2017-06-14T10:59:26Z</time>
      </trkpt>
      <trkpt lat="45.23534" lon="5.56714">
        <ele>1512.3869628906</ele>
        <time>2017-06-14T10:59:31Z</time>
      </trkpt>
      <trkpt lat="45.23518" lon="5.56708">
        <ele>1506.3869628906</ele>
        <time>2017-06-14T10:59:39Z</time>
      </trkpt>
      <trkpt lat="45.23508" lon="5.56707">
        <ele>1507.3869628906</ele>
        <time>2017-06-14T10:59:47Z</time>
      </trkpt>
      <trkpt lat="45.23492" lon="5.56709">
        <ele>1505.3869628906</ele>
        <time>2017-06-14T10:59:57Z</time>
      </trkpt>
      <trkpt lat="45.23486" lon="5.56717">
        <ele>1507.3869628906</ele>
        <time>2017-06-14T11:00:05Z</time>
      </trkpt>
      <trkpt lat="45.23479" lon="5.56729">
        <ele>1500.3869628906</ele>
        <time>2017-06-14T11:00:41Z</time>
      </trkpt>
      <trkpt lat="45.2345" lon="5.56764">
        <ele>1493.3869628906</ele>
        <time>2017-06-14T11:01:00Z</time>
      </trkpt>
      <trkpt lat="45.23442" lon="5.56766">
        <ele>1494.3869628906</ele>
        <time>2017-06-14T11:01:08Z</time>
      </trkpt>
      <trkpt lat="45.23417" lon="5.56751">
        <ele>1489.3869628906</ele>
        <time>2017-06-14T11:01:15Z</time>
      </trkpt>
      <trkpt lat="45.2341" lon="5.56755">
        <ele>1488.3869628906</ele>
        <time>2017-06-14T11:01:18Z</time>
      </trkpt>
      <trkpt lat="45.23406" lon="5.56742">
        <ele>1486.3869628906</ele>
        <time>2017-06-14T11:01:21Z</time>
      </trkpt>
      <trkpt lat="45.23396" lon="5.56739">
        <ele>1484.3869628906</ele>
        <time>2017-06-14T11:01:29Z</time>
      </trkpt>
      <trkpt lat="45.23391" lon="5.56721">
        <ele>1481.3869628906</ele>
        <time>2017-06-14T11:01:34Z</time>
      </trkpt>
      <trkpt lat="45.2339" lon="5.56732">
        <ele>1480.3869628906</ele>
        <time>2017-06-14T11:01:36Z</time>
      </trkpt>
      <trkpt lat="45.23389" lon="5.56719">
        <ele>1479.3869628906</ele>
        <time>2017-06-14T11:01:39Z</time>
      </trkpt>
      <trkpt lat="45.23373" lon="5.56703">
        <ele>1475.3869628906</ele>
        <time>2017-06-14T11:01:45Z</time>
      </trkpt>
      <trkpt lat="45.23371" lon="5.56693">
        <ele>1473.3869628906</ele>
        <time>2017-06-14T11:01:49Z</time>
      </trkpt>
      <trkpt lat="45.23359" lon="5.56678">
        <ele>1471.3869628906</ele>
        <time>2017-06-14T11:02:03Z</time>
      </trkpt>
      <trkpt lat="45.2335" lon="5.56667">
        <ele>1468.3869628906</ele>
        <time>2017-06-14T11:02:45Z</time>
      </trkpt>
      <trkpt lat="45.23339" lon="5.56653">
        <ele>1468.3869628906</ele>
        <time>2017-06-14T11:02:46Z</time>
      </trkpt>
      <trkpt lat="45.23325" lon="5.56638">
        <ele>1466.3869628906</ele>
        <time>2017-06-14T11:02:47Z</time>
      </trkpt>
      <trkpt lat="45.23333" lon="5.56636">
        <ele>1468.3869628906</ele>
        <time>2017-06-14T11:02:49Z</time>
      </trkpt>
      <trkpt lat="45.23327" lon="5.56627">
        <ele>1468.3869628906</ele>
        <time>2017-06-14T11:02:51Z</time>
      </trkpt>
      <trkpt lat="45.23321" lon="5.56619">
        <ele>1468.3869628906</ele>
        <time>2017-06-14T11:02:55Z</time>
      </trkpt>
      <trkpt lat="45.23315" lon="5.56614">
        <ele>1465.3869628906</ele>
        <time>2017-06-14T11:03:00Z</time>
      </trkpt>
      <trkpt lat="45.23312" lon="5.56604">
        <ele>1462.3869628906</ele>
        <time>2017-06-14T11:03:05Z</time>
      </trkpt>
      <trkpt lat="45.23307" lon="5.56596">
        <ele>1461.3869628906</ele>
        <time>2017-06-14T11:03:08Z</time>
      </trkpt>
      <trkpt lat="45.233" lon="5.5659">
        <ele>1464.3869628906</ele>
        <time>2017-06-14T11:03:12Z</time>
      </trkpt>
      <trkpt lat="45.23292" lon="5.56579">
        <ele>1460.3869628906</ele>
        <time>2017-06-14T11:03:36Z</time>
      </trkpt>
      <trkpt lat="45.23275" lon="5.56561">
        <ele>1457.3859863281</ele>
        <time>2017-06-14T11:03:42Z</time>
      </trkpt>
      <trkpt lat="45.23263" lon="5.56545">
        <ele>1457.3859863281</ele>
        <time>2017-06-14T11:03:46Z</time>
      </trkpt>
      <trkpt lat="45.2326" lon="5.56535">
        <ele>1457.3859863281</ele>
        <time>2017-06-14T11:03:49Z</time>
      </trkpt>
      <trkpt lat="45.23248" lon="5.56518">
        <ele>1456.3859863281</ele>
        <time>2017-06-14T11:03:55Z</time>
      </trkpt>
      <trkpt lat="45.23236" lon="5.56514">
        <ele>1452.3859863281</ele>
        <time>2017-06-14T11:03:58Z</time>
      </trkpt>
      <trkpt lat="45.23231" lon="5.56522">
        <ele>1444.3859863281</ele>
        <time>2017-06-14T11:03:59Z</time>
      </trkpt>
      <trkpt lat="45.23223" lon="5.56519">
        <ele>1445.3859863281</ele>
        <time>2017-06-14T11:04:15Z</time>
      </trkpt>
      <trkpt lat="45.23219" lon="5.5651">
        <ele>1444.3859863281</ele>
        <time>2017-06-14T11:04:23Z</time>
      </trkpt>
      <trkpt lat="45.23211" lon="5.56495">
        <ele>1439.3859863281</ele>
        <time>2017-06-14T11:04:35Z</time>
      </trkpt>
      <trkpt lat="45.2319" lon="5.56462">
        <ele>1435.3859863281</ele>
        <time>2017-06-14T11:04:44Z</time>
      </trkpt>
      <trkpt lat="45.23208" lon="5.56457">
        <ele>1435.3859863281</ele>
        <time>2017-06-14T11:05:03Z</time>
      </trkpt>
      <trkpt lat="45.23214" lon="5.56447">
        <ele>1440.3859863281</ele>
        <time>2017-06-14T11:05:08Z</time>
      </trkpt>
      <trkpt lat="45.23213" lon="5.56459">
        <ele>1441.3859863281</ele>
        <time>2017-06-14T11:05:21Z</time>
      </trkpt>
      <trkpt lat="45.23226" lon="5.56457">
        <ele>1435.3859863281</ele>
        <time>2017-06-14T11:05:28Z</time>
      </trkpt>
      <trkpt lat="45.23235" lon="5.56454">
        <ele>1433.3859863281</ele>
        <time>2017-06-14T11:05:31Z</time>
      </trkpt>
      <trkpt lat="45.23249" lon="5.56448">
        <ele>1435.3859863281</ele>
        <time>2017-06-14T11:05:44Z</time>
      </trkpt>
      <trkpt lat="45.23258" lon="5.5643">
        <ele>1434.3859863281</ele>
        <time>2017-06-14T11:05:52Z</time>
      </trkpt>
      <trkpt lat="45.2327" lon="5.5642">
        <ele>1434.3859863281</ele>
        <time>2017-06-14T11:05:59Z</time>
      </trkpt>
      <trkpt lat="45.23278" lon="5.56414">
        <ele>1436.3859863281</ele>
        <time>2017-06-14T11:06:05Z</time>
      </trkpt>
      <trkpt lat="45.23294" lon="5.56409">
        <ele>1434.3859863281</ele>
        <time>2017-06-14T11:06:13Z</time>
      </trkpt>
      <trkpt lat="45.23294" lon="5.56398">
        <ele>1431.3859863281</ele>
        <time>2017-06-14T11:06:19Z</time>
      </trkpt>
      <trkpt lat="45.23302" lon="5.56394">
        <ele>1435.3859863281</ele>
        <time>2017-06-14T11:06:24Z</time>
      </trkpt>
      <trkpt lat="45.2331" lon="5.56393">
        <ele>1436.3859863281</ele>
        <time>2017-06-14T11:06:33Z</time>
      </trkpt>
      <trkpt lat="45.23316" lon="5.56386">
        <ele>1436.3859863281</ele>
        <time>2017-06-14T11:06:41Z</time>
      </trkpt>
      <trkpt lat="45.23323" lon="5.56379">
        <ele>1435.3859863281</ele>
        <time>2017-06-14T11:06:47Z</time>
      </trkpt>
      <trkpt lat="45.23338" lon="5.56371">
        <ele>1433.3859863281</ele>
        <time>2017-06-14T11:06:54Z</time>
      </trkpt>
      <trkpt lat="45.23347" lon="5.56365">
        <ele>1435.3859863281</ele>
        <time>2017-06-14T11:07:00Z</time>
      </trkpt>
      <trkpt lat="45.23361" lon="5.56351">
        <ele>1436.3859863281</ele>
        <time>2017-06-14T11:07:05Z</time>
      </trkpt>
      <trkpt lat="45.23376" lon="5.56339">
        <ele>1435.3859863281</ele>
        <time>2017-06-14T11:07:13Z</time>
      </trkpt>
      <trkpt lat="45.23411" lon="5.56303">
        <ele>1432.3859863281</ele>
        <time>2017-06-14T11:07:35Z</time>
      </trkpt>
      <trkpt lat="45.23422" lon="5.5629">
        <ele>1433.3859863281</ele>
        <time>2017-06-14T11:07:41Z</time>
      </trkpt>
      <trkpt lat="45.23436" lon="5.56278">
        <ele>1434.3859863281</ele>
        <time>2017-06-14T11:07:46Z</time>
      </trkpt>
      <trkpt lat="45.2345" lon="5.56265">
        <ele>1427.3859863281</ele>
        <time>2017-06-14T11:07:53Z</time>
      </trkpt>
      <trkpt lat="45.23458" lon="5.56257">
        <ele>1430.3859863281</ele>
        <time>2017-06-14T11:07:58Z</time>
      </trkpt>
      <trkpt lat="45.23465" lon="5.56251">
        <ele>1428.3859863281</ele>
        <time>2017-06-14T11:08:04Z</time>
      </trkpt>
      <trkpt lat="45.23471" lon="5.56242">
        <ele>1436.3859863281</ele>
        <time>2017-06-14T11:08:08Z</time>
      </trkpt>
      <trkpt lat="45.23478" lon="5.56236">
        <ele>1440.3859863281</ele>
        <time>2017-06-14T11:08:17Z</time>
      </trkpt>
      <trkpt lat="45.23486" lon="5.56228">
        <ele>1438.3859863281</ele>
        <time>2017-06-14T11:08:24Z</time>
      </trkpt>
      <trkpt lat="45.23498" lon="5.56213">
        <ele>1437.3859863281</ele>
        <time>2017-06-14T11:08:29Z</time>
      </trkpt>
      <trkpt lat="45.23508" lon="5.56198">
        <ele>1440.3859863281</ele>
        <time>2017-06-14T11:08:43Z</time>
      </trkpt>
      <trkpt lat="45.23507" lon="5.56187">
        <ele>1436.3859863281</ele>
        <time>2017-06-14T11:08:51Z</time>
      </trkpt>
      <trkpt lat="45.23502" lon="5.56178">
        <ele>1434.3859863281</ele>
        <time>2017-06-14T11:09:00Z</time>
      </trkpt>
      <trkpt lat="45.23494" lon="5.56172">
        <ele>1432.3859863281</ele>
        <time>2017-06-14T11:09:05Z</time>
      </trkpt>
      <trkpt lat="45.23487" lon="5.56169">
        <ele>1431.3859863281</ele>
        <time>2017-06-14T11:09:10Z</time>
      </trkpt>
      <trkpt lat="45.23483" lon="5.5616">
        <ele>1432.3859863281</ele>
        <time>2017-06-14T11:09:21Z</time>
      </trkpt>
      <trkpt lat="45.23478" lon="5.56149">
        <ele>1430.3859863281</ele>
        <time>2017-06-14T11:09:42Z</time>
      </trkpt>
      <trkpt lat="45.23471" lon="5.56122">
        <ele>1425.3859863281</ele>
        <time>2017-06-14T11:09:50Z</time>
      </trkpt>
      <trkpt lat="45.23455" lon="5.56102">
        <ele>1422.3859863281</ele>
        <time>2017-06-14T11:10:00Z</time>
      </trkpt>
      <trkpt lat="45.2344" lon="5.56095">
        <ele>1422.3859863281</ele>
        <time>2017-06-14T11:10:08Z</time>
      </trkpt>
      <trkpt lat="45.23435" lon="5.56088">
        <ele>1422.3859863281</ele>
        <time>2017-06-14T11:10:30Z</time>
      </trkpt>
      <trkpt lat="45.23428" lon="5.56086">
        <ele>1424.3859863281</ele>
        <time>2017-06-14T11:10:48Z</time>
      </trkpt>
      <trkpt lat="45.23418" lon="5.56094">
        <ele>1425.3859863281</ele>
        <time>2017-06-14T11:10:55Z</time>
      </trkpt>
      <trkpt lat="45.23408" lon="5.56103">
        <ele>1426.3859863281</ele>
        <time>2017-06-14T11:10:57Z</time>
      </trkpt>
      <trkpt lat="45.23414" lon="5.56095">
        <ele>1425.3859863281</ele>
        <time>2017-06-14T11:10:58Z</time>
      </trkpt>
      <trkpt lat="45.23413" lon="5.56076">
        <ele>1431.3859863281</ele>
        <time>2017-06-14T11:11:04Z</time>
      </trkpt>
      <trkpt lat="45.23406" lon="5.56067">
        <ele>1431.3859863281</ele>
        <time>2017-06-14T11:13:01Z</time>
      </trkpt>
      <trkpt lat="45.23399" lon="5.56051">
        <ele>1441.3859863281</ele>
        <time>2017-06-14T11:13:11Z</time>
      </trkpt>
      <trkpt lat="45.23394" lon="5.56066">
        <ele>1440.3859863281</ele>
        <time>2017-06-14T11:15:33Z</time>
      </trkpt>
      <trkpt lat="45.23404" lon="5.56079">
        <ele>1433.3859863281</ele>
        <time>2017-06-14T11:15:39Z</time>
      </trkpt>
      <trkpt lat="45.23412" lon="5.56083">
        <ele>1429.3859863281</ele>
        <time>2017-06-14T11:15:45Z</time>
      </trkpt>
      <trkpt lat="45.23432" lon="5.56084">
        <ele>1431.3859863281</ele>
        <time>2017-06-14T11:15:53Z</time>
      </trkpt>
      <trkpt lat="45.23439" lon="5.56088">
        <ele>1430.3859863281</ele>
        <time>2017-06-14T11:16:03Z</time>
      </trkpt>
      <trkpt lat="45.23446" lon="5.561">
        <ele>1433.3859863281</ele>
        <time>2017-06-14T11:16:38Z</time>
      </trkpt>
      <trkpt lat="45.23458" lon="5.56105">
        <ele>1432.3859863281</ele>
        <time>2017-06-14T11:16:47Z</time>
      </trkpt>
      <trkpt lat="45.23456" lon="5.56128">
        <ele>1431.3859863281</ele>
        <time>2017-06-14T11:16:53Z</time>
      </trkpt>
      <trkpt lat="45.23465" lon="5.56135">
        <ele>1434.3859863281</ele>
        <time>2017-06-14T11:16:58Z</time>
      </trkpt>
      <trkpt lat="45.23471" lon="5.56141">
        <ele>1435.3859863281</ele>
        <time>2017-06-14T11:17:06Z</time>
      </trkpt>
      <trkpt lat="45.2348" lon="5.56148">
        <ele>1437.3859863281</ele>
        <time>2017-06-14T11:17:26Z</time>
      </trkpt>
      <trkpt lat="45.23495" lon="5.56177">
        <ele>1446.3859863281</ele>
        <time>2017-06-14T11:17:32Z</time>
      </trkpt>
      <trkpt lat="45.23505" lon="5.56177">
        <ele>1445.3859863281</ele>
        <time>2017-06-14T11:18:35Z</time>
      </trkpt>
      <trkpt lat="45.2352" lon="5.56164">
        <ele>1444.3859863281</ele>
        <time>2017-06-14T11:18:40Z</time>
      </trkpt>
      <trkpt lat="45.23523" lon="5.5615">
        <ele>1447.3859863281</ele>
        <time>2017-06-14T11:18:52Z</time>
      </trkpt>
      <trkpt lat="45.23525" lon="5.56139">
        <ele>1445.3859863281</ele>
        <time>2017-06-14T11:19:00Z</time>
      </trkpt>
      <trkpt lat="45.23531" lon="5.5613">
        <ele>1444.3859863281</ele>
        <time>2017-06-14T11:20:06Z</time>
      </trkpt>
      <trkpt lat="45.23538" lon="5.5613">
        <ele>1445.3859863281</ele>
        <time>2017-06-14T11:20:18Z</time>
      </trkpt>
      <trkpt lat="45.23546" lon="5.56127">
        <ele>1447.3859863281</ele>
        <time>2017-06-14T11:20:45Z</time>
      </trkpt>
      <trkpt lat="45.23552" lon="5.56122">
        <ele>1451.3859863281</ele>
        <time>2017-06-14T11:20:47Z</time>
      </trkpt>
      <trkpt lat="45.23562" lon="5.5612">
        <ele>1459.3859863281</ele>
        <time>2017-06-14T11:20:53Z</time>
      </trkpt>
      <trkpt lat="45.23572" lon="5.56118">
        <ele>1460.3859863281</ele>
        <time>2017-06-14T11:22:06Z</time>
      </trkpt>
      <trkpt lat="45.23579" lon="5.56117">
        <ele>1462.3869628906</ele>
        <time>2017-06-14T11:22:16Z</time>
      </trkpt>
      <trkpt lat="45.23583" lon="5.56107">
        <ele>1456.3869628906</ele>
        <time>2017-06-14T11:22:22Z</time>
      </trkpt>
      <trkpt lat="45.23587" lon="5.56097">
        <ele>1458.3859863281</ele>
        <time>2017-06-14T11:22:35Z</time>
      </trkpt>
      <trkpt lat="45.23599" lon="5.56096">
        <ele>1459.3869628906</ele>
        <time>2017-06-14T11:23:12Z</time>
      </trkpt>
      <trkpt lat="45.23606" lon="5.56111">
        <ele>1460.3869628906</ele>
        <time>2017-06-14T11:23:15Z</time>
      </trkpt>
      <trkpt lat="45.23615" lon="5.56132">
        <ele>1461.3869628906</ele>
        <time>2017-06-14T11:23:24Z</time>
      </trkpt>
      <trkpt lat="45.23624" lon="5.56149">
        <ele>1461.3869628906</ele>
        <time>2017-06-14T11:23:32Z</time>
      </trkpt>
      <trkpt lat="45.23641" lon="5.56163">
        <ele>1462.3869628906</ele>
        <time>2017-06-14T11:23:39Z</time>
      </trkpt>
      <trkpt lat="45.23635" lon="5.56173">
        <ele>1462.3869628906</ele>
        <time>2017-06-14T11:23:40Z</time>
      </trkpt>
      <trkpt lat="45.23647" lon="5.56189">
        <ele>1466.3869628906</ele>
        <time>2017-06-14T11:23:45Z</time>
      </trkpt>
      <trkpt lat="45.23641" lon="5.56195">
        <ele>1466.3869628906</ele>
        <time>2017-06-14T11:23:47Z</time>
      </trkpt>
      <trkpt lat="45.23646" lon="5.56203">
        <ele>1465.3869628906</ele>
        <time>2017-06-14T11:23:55Z</time>
      </trkpt>
      <trkpt lat="45.23652" lon="5.56213">
        <ele>1464.3869628906</ele>
        <time>2017-06-14T11:23:59Z</time>
      </trkpt>
      <trkpt lat="45.23668" lon="5.56212">
        <ele>1467.3869628906</ele>
        <time>2017-06-14T11:24:06Z</time>
      </trkpt>
      <trkpt lat="45.23663" lon="5.56223">
        <ele>1466.3869628906</ele>
        <time>2017-06-14T11:24:13Z</time>
      </trkpt>
      <trkpt lat="45.23666" lon="5.56234">
        <ele>1469.3869628906</ele>
        <time>2017-06-14T11:24:19Z</time>
      </trkpt>
      <trkpt lat="45.23668" lon="5.56252">
        <ele>1469.3869628906</ele>
        <time>2017-06-14T11:24:28Z</time>
      </trkpt>
      <trkpt lat="45.23675" lon="5.56256">
        <ele>1468.3869628906</ele>
        <time>2017-06-14T11:24:36Z</time>
      </trkpt>
      <trkpt lat="45.23697" lon="5.56274">
        <ele>1473.3869628906</ele>
        <time>2017-06-14T11:24:53Z</time>
      </trkpt>
      <trkpt lat="45.23698" lon="5.56284">
        <ele>1474.3869628906</ele>
        <time>2017-06-14T11:25:06Z</time>
      </trkpt>
      <trkpt lat="45.23703" lon="5.56292">
        <ele>1474.3869628906</ele>
        <time>2017-06-14T11:25:37Z</time>
      </trkpt>
      <trkpt lat="45.23713" lon="5.56313">
        <ele>1475.3869628906</ele>
        <time>2017-06-14T11:25:43Z</time>
      </trkpt>
      <trkpt lat="45.23715" lon="5.56333">
        <ele>1477.3869628906</ele>
        <time>2017-06-14T11:25:52Z</time>
      </trkpt>
      <trkpt lat="45.23723" lon="5.56339">
        <ele>1478.3869628906</ele>
        <time>2017-06-14T11:25:55Z</time>
      </trkpt>
      <trkpt lat="45.23725" lon="5.56363">
        <ele>1477.3869628906</ele>
        <time>2017-06-14T11:26:05Z</time>
      </trkpt>
      <trkpt lat="45.23732" lon="5.56371">
        <ele>1476.3869628906</ele>
        <time>2017-06-14T11:26:10Z</time>
      </trkpt>
      <trkpt lat="45.23738" lon="5.56381">
        <ele>1479.3869628906</ele>
        <time>2017-06-14T11:26:15Z</time>
      </trkpt>
      <trkpt lat="45.2374" lon="5.56393">
        <ele>1478.3869628906</ele>
        <time>2017-06-14T11:26:21Z</time>
      </trkpt>
      <trkpt lat="45.2374" lon="5.56405">
        <ele>1477.3869628906</ele>
        <time>2017-06-14T11:26:26Z</time>
      </trkpt>
      <trkpt lat="45.2373" lon="5.56424">
        <ele>1485.3869628906</ele>
        <time>2017-06-14T11:26:34Z</time>
      </trkpt>
      <trkpt lat="45.23725" lon="5.56432">
        <ele>1484.3869628906</ele>
        <time>2017-06-14T11:26:39Z</time>
      </trkpt>
      <trkpt lat="45.23738" lon="5.56454">
        <ele>1489.3869628906</ele>
        <time>2017-06-14T11:26:59Z</time>
      </trkpt>
      <trkpt lat="45.23748" lon="5.56457">
        <ele>1488.3869628906</ele>
        <time>2017-06-14T11:27:03Z</time>
      </trkpt>
      <trkpt lat="45.23756" lon="5.56461">
        <ele>1495.3869628906</ele>
        <time>2017-06-14T11:27:09Z</time>
      </trkpt>
      <trkpt lat="45.23761" lon="5.56454">
        <ele>1491.3869628906</ele>
        <time>2017-06-14T11:27:22Z</time>
      </trkpt>
      <trkpt lat="45.23776" lon="5.56448">
        <ele>1498.3869628906</ele>
        <time>2017-06-14T11:27:35Z</time>
      </trkpt>
      <trkpt lat="45.23783" lon="5.56444">
        <ele>1496.3869628906</ele>
        <time>2017-06-14T11:27:42Z</time>
      </trkpt>
      <trkpt lat="45.23795" lon="5.56452">
        <ele>1500.3869628906</ele>
        <time>2017-06-14T11:27:56Z</time>
      </trkpt>
      <trkpt lat="45.23804" lon="5.56454">
        <ele>1502.3869628906</ele>
        <time>2017-06-14T11:28:03Z</time>
      </trkpt>
      <trkpt lat="45.2381" lon="5.56464">
        <ele>1507.3869628906</ele>
        <time>2017-06-14T11:28:09Z</time>
      </trkpt>
      <trkpt lat="45.23816" lon="5.5647">
        <ele>1511.3879394531</ele>
        <time>2017-06-14T11:28:17Z</time>
      </trkpt>
      <trkpt lat="45.23819" lon="5.56482">
        <ele>1510.3879394531</ele>
        <time>2017-06-14T11:28:25Z</time>
      </trkpt>
      <trkpt lat="45.23817" lon="5.56492">
        <ele>1508.3879394531</ele>
        <time>2017-06-14T11:28:30Z</time>
      </trkpt>
      <trkpt lat="45.23815" lon="5.56509">
        <ele>1510.3879394531</ele>
        <time>2017-06-14T11:28:39Z</time>
      </trkpt>
      <trkpt lat="45.23815" lon="5.56519">
        <ele>1512.3879394531</ele>
        <time>2017-06-14T11:28:47Z</time>
      </trkpt>
      <trkpt lat="45.23808" lon="5.56526">
        <ele>1514.3879394531</ele>
        <time>2017-06-14T11:29:09Z</time>
      </trkpt>
      <trkpt lat="45.23803" lon="5.56532">
        <ele>1516.3879394531</ele>
        <time>2017-06-14T11:29:19Z</time>
      </trkpt>
      <trkpt lat="45.23798" lon="5.56541">
        <ele>1517.3879394531</ele>
        <time>2017-06-14T11:29:25Z</time>
      </trkpt>
      <trkpt lat="45.23791" lon="5.56545">
        <ele>1518.3879394531</ele>
        <time>2017-06-14T11:29:35Z</time>
      </trkpt>
      <trkpt lat="45.23798" lon="5.56545">
        <ele>1517.3879394531</ele>
        <time>2017-06-14T11:29:53Z</time>
      </trkpt>
      <trkpt lat="45.23803" lon="5.56554">
        <ele>1517.3879394531</ele>
        <time>2017-06-14T11:30:01Z</time>
      </trkpt>
      <trkpt lat="45.23808" lon="5.56563">
        <ele>1516.3879394531</ele>
        <time>2017-06-14T11:30:13Z</time>
      </trkpt>
      <trkpt lat="45.23808" lon="5.56574">
        <ele>1516.3879394531</ele>
        <time>2017-06-14T11:30:20Z</time>
      </trkpt>
      <trkpt lat="45.2381" lon="5.56592">
        <ele>1522.3879394531</ele>
        <time>2017-06-14T11:30:29Z</time>
      </trkpt>
      <trkpt lat="45.23808" lon="5.56616">
        <ele>1526.3879394531</ele>
        <time>2017-06-14T11:30:41Z</time>
      </trkpt>
      <trkpt lat="45.238" lon="5.56644">
        <ele>1525.3879394531</ele>
        <time>2017-06-14T11:31:00Z</time>
      </trkpt>
      <trkpt lat="45.23801" lon="5.56655">
        <ele>1524.3879394531</ele>
        <time>2017-06-14T11:31:10Z</time>
      </trkpt>
      <trkpt lat="45.23809" lon="5.56687">
        <ele>1540.3879394531</ele>
        <time>2017-06-14T11:31:34Z</time>
      </trkpt>
      <trkpt lat="45.23816" lon="5.56691">
        <ele>1542.3879394531</ele>
        <time>2017-06-14T11:31:38Z</time>
      </trkpt>
      <trkpt lat="45.23813" lon="5.56702">
        <ele>1541.3879394531</ele>
        <time>2017-06-14T11:31:46Z</time>
      </trkpt>
      <trkpt lat="45.23805" lon="5.56705">
        <ele>1542.3879394531</ele>
        <time>2017-06-14T11:31:51Z</time>
      </trkpt>
      <trkpt lat="45.23811" lon="5.56712">
        <ele>1543.3879394531</ele>
        <time>2017-06-14T11:31:59Z</time>
      </trkpt>
      <trkpt lat="45.23818" lon="5.56728">
        <ele>1547.3879394531</ele>
        <time>2017-06-14T11:32:11Z</time>
      </trkpt>
      <trkpt lat="45.23815" lon="5.56738">
        <ele>1547.3879394531</ele>
        <time>2017-06-14T11:32:18Z</time>
      </trkpt>
      <trkpt lat="45.23821" lon="5.56745">
        <ele>1549.3879394531</ele>
        <time>2017-06-14T11:32:25Z</time>
      </trkpt>
      <trkpt lat="45.23825" lon="5.5676">
        <ele>1554.3879394531</ele>
        <time>2017-06-14T11:32:37Z</time>
      </trkpt>
      <trkpt lat="45.23817" lon="5.5677">
        <ele>1550.3879394531</ele>
        <time>2017-06-14T11:32:44Z</time>
      </trkpt>
      <trkpt lat="45.23816" lon="5.56782">
        <ele>1554.3879394531</ele>
        <time>2017-06-14T11:32:51Z</time>
      </trkpt>
      <trkpt lat="45.2382" lon="5.56791">
        <ele>1557.3879394531</ele>
        <time>2017-06-14T11:32:56Z</time>
      </trkpt>
      <trkpt lat="45.23815" lon="5.56799">
        <ele>1557.3879394531</ele>
        <time>2017-06-14T11:33:03Z</time>
      </trkpt>
      <trkpt lat="45.23819" lon="5.56809">
        <ele>1561.3879394531</ele>
        <time>2017-06-14T11:33:08Z</time>
      </trkpt>
      <trkpt lat="45.2382" lon="5.5682">
        <ele>1563.3879394531</ele>
        <time>2017-06-14T11:33:17Z</time>
      </trkpt>
      <trkpt lat="45.23826" lon="5.56828">
        <ele>1566.3879394531</ele>
        <time>2017-06-14T11:33:22Z</time>
      </trkpt>
      <trkpt lat="45.23831" lon="5.5684">
        <ele>1569.3879394531</ele>
        <time>2017-06-14T11:33:29Z</time>
      </trkpt>
      <trkpt lat="45.23837" lon="5.5685">
        <ele>1572.3879394531</ele>
        <time>2017-06-14T11:33:36Z</time>
      </trkpt>
      <trkpt lat="45.2383" lon="5.56854">
        <ele>1571.3879394531</ele>
        <time>2017-06-14T11:33:39Z</time>
      </trkpt>
      <trkpt lat="45.23835" lon="5.56863">
        <ele>1569.3879394531</ele>
        <time>2017-06-14T11:33:45Z</time>
      </trkpt>
      <trkpt lat="45.23833" lon="5.56873">
        <ele>1578.3879394531</ele>
        <time>2017-06-14T11:34:20Z</time>
      </trkpt>
      <trkpt lat="45.23847" lon="5.5689">
        <ele>1583.3879394531</ele>
        <time>2017-06-14T11:34:37Z</time>
      </trkpt>
      <trkpt lat="45.23845" lon="5.56901">
        <ele>1583.3879394531</ele>
        <time>2017-06-14T11:35:08Z</time>
      </trkpt>
      <trkpt lat="45.23846" lon="5.56912">
        <ele>1584.3879394531</ele>
        <time>2017-06-14T11:35:17Z</time>
      </trkpt>
      <trkpt lat="45.23843" lon="5.5693">
        <ele>1583.3879394531</ele>
        <time>2017-06-14T11:35:33Z</time>
      </trkpt>
      <trkpt lat="45.23851" lon="5.56934">
        <ele>1586.3879394531</ele>
        <time>2017-06-14T11:35:40Z</time>
      </trkpt>
      <trkpt lat="45.23855" lon="5.56946">
        <ele>1588.3879394531</ele>
        <time>2017-06-14T11:35:45Z</time>
      </trkpt>
      <trkpt lat="45.23855" lon="5.56957">
        <ele>1591.3879394531</ele>
        <time>2017-06-14T11:35:56Z</time>
      </trkpt>
      <trkpt lat="45.23854" lon="5.56971">
        <ele>1592.3879394531</ele>
        <time>2017-06-14T11:36:20Z</time>
      </trkpt>
      <trkpt lat="45.23853" lon="5.56996">
        <ele>1594.3879394531</ele>
        <time>2017-06-14T11:36:27Z</time>
      </trkpt>
      <trkpt lat="45.2384" lon="5.5702">
        <ele>1596.3879394531</ele>
        <time>2017-06-14T11:36:36Z</time>
      </trkpt>
      <trkpt lat="45.23835" lon="5.57032">
        <ele>1598.3879394531</ele>
        <time>2017-06-14T11:36:41Z</time>
      </trkpt>
      <trkpt lat="45.23826" lon="5.57046">
        <ele>1597.3879394531</ele>
        <time>2017-06-14T11:36:47Z</time>
      </trkpt>
      <trkpt lat="45.23821" lon="5.57053">
        <ele>1597.3879394531</ele>
        <time>2017-06-14T11:36:48Z</time>
      </trkpt>
      <trkpt lat="45.23823" lon="5.57076">
        <ele>1598.3879394531</ele>
        <time>2017-06-14T11:36:57Z</time>
      </trkpt>
      <trkpt lat="45.23824" lon="5.57087">
        <ele>1603.3879394531</ele>
        <time>2017-06-14T11:37:02Z</time>
      </trkpt>
      <trkpt lat="45.23826" lon="5.57098">
        <ele>1603.3879394531</ele>
        <time>2017-06-14T11:37:08Z</time>
      </trkpt>
      <trkpt lat="45.23832" lon="5.57107">
        <ele>1604.3879394531</ele>
        <time>2017-06-14T11:37:14Z</time>
      </trkpt>
      <trkpt lat="45.23835" lon="5.57117">
        <ele>1602.3879394531</ele>
        <time>2017-06-14T11:37:21Z</time>
      </trkpt>
      <trkpt lat="45.23834" lon="5.5713">
        <ele>1604.3879394531</ele>
        <time>2017-06-14T11:37:27Z</time>
      </trkpt>
      <trkpt lat="45.23841" lon="5.57126">
        <ele>1603.3879394531</ele>
        <time>2017-06-14T11:37:32Z</time>
      </trkpt>
      <trkpt lat="45.23845" lon="5.57136">
        <ele>1599.3890380859</ele>
        <time>2017-06-14T11:37:48Z</time>
      </trkpt>
      <trkpt lat="45.23855" lon="5.57137">
        <ele>1601.3890380859</ele>
        <time>2017-06-14T11:37:51Z</time>
      </trkpt>
      <trkpt lat="45.23863" lon="5.57142">
        <ele>1603.3890380859</ele>
        <time>2017-06-14T11:37:53Z</time>
      </trkpt>
      <trkpt lat="45.23873" lon="5.57149">
        <ele>1604.3890380859</ele>
        <time>2017-06-14T11:37:59Z</time>
      </trkpt>
      <trkpt lat="45.23866" lon="5.57149">
        <ele>1603.3890380859</ele>
        <time>2017-06-14T11:38:05Z</time>
      </trkpt>
      <trkpt lat="45.23868" lon="5.57159">
        <ele>1616.3890380859</ele>
        <time>2017-06-14T11:38:21Z</time>
      </trkpt>
      <trkpt lat="45.23874" lon="5.57166">
        <ele>1620.3890380859</ele>
        <time>2017-06-14T11:39:00Z</time>
      </trkpt>
      <trkpt lat="45.23879" lon="5.57173">
        <ele>1621.3890380859</ele>
        <time>2017-06-14T11:39:05Z</time>
      </trkpt>
      <trkpt lat="45.23888" lon="5.57176">
        <ele>1619.3890380859</ele>
        <time>2017-06-14T11:39:13Z</time>
      </trkpt>
      <trkpt lat="45.23898" lon="5.57177">
        <ele>1619.3890380859</ele>
        <time>2017-06-14T11:39:18Z</time>
      </trkpt>
      <trkpt lat="45.23907" lon="5.57178">
        <ele>1620.3890380859</ele>
        <time>2017-06-14T11:39:25Z</time>
      </trkpt>
      <trkpt lat="45.23914" lon="5.57184">
        <ele>1614.3890380859</ele>
        <time>2017-06-14T11:39:47Z</time>
      </trkpt>
      <trkpt lat="45.23915" lon="5.57194">
        <ele>1613.3890380859</ele>
        <time>2017-06-14T11:39:58Z</time>
      </trkpt>
      <trkpt lat="45.23909" lon="5.572">
        <ele>1615.3890380859</ele>
        <time>2017-06-14T11:40:00Z</time>
      </trkpt>
      <trkpt lat="45.23907" lon="5.57209">
        <ele>1620.3890380859</ele>
        <time>2017-06-14T11:40:06Z</time>
      </trkpt>
      <trkpt lat="45.23917" lon="5.57224">
        <ele>1626.3890380859</ele>
        <time>2017-06-14T11:40:14Z</time>
      </trkpt>
      <trkpt lat="45.23922" lon="5.57231">
        <ele>1631.3890380859</ele>
        <time>2017-06-14T11:40:38Z</time>
      </trkpt>
      <trkpt lat="45.23926" lon="5.5724">
        <ele>1629.3890380859</ele>
        <time>2017-06-14T11:40:47Z</time>
      </trkpt>
      <trkpt lat="45.23931" lon="5.57248">
        <ele>1627.3890380859</ele>
        <time>2017-06-14T11:40:57Z</time>
      </trkpt>
      <trkpt lat="45.23937" lon="5.57253">
        <ele>1627.3890380859</ele>
        <time>2017-06-14T11:41:04Z</time>
      </trkpt>
      <trkpt lat="45.23947" lon="5.57257">
        <ele>1627.3890380859</ele>
        <time>2017-06-14T11:41:13Z</time>
      </trkpt>
      <trkpt lat="45.23952" lon="5.57265">
        <ele>1629.3890380859</ele>
        <time>2017-06-14T11:41:32Z</time>
      </trkpt>
      <trkpt lat="45.23959" lon="5.57264">
        <ele>1635.3890380859</ele>
        <time>2017-06-14T11:41:36Z</time>
      </trkpt>
      <trkpt lat="45.23957" lon="5.57275">
        <ele>1634.3890380859</ele>
        <time>2017-06-14T11:42:15Z</time>
      </trkpt>
      <trkpt lat="45.23955" lon="5.57285">
        <ele>1637.3890380859</ele>
        <time>2017-06-14T11:42:21Z</time>
      </trkpt>
      <trkpt lat="45.23955" lon="5.57296">
        <ele>1634.3890380859</ele>
        <time>2017-06-14T11:42:26Z</time>
      </trkpt>
      <trkpt lat="45.23956" lon="5.57306">
        <ele>1635.3890380859</ele>
        <time>2017-06-14T11:42:39Z</time>
      </trkpt>
      <trkpt lat="45.23951" lon="5.57315">
        <ele>1635.3890380859</ele>
        <time>2017-06-14T11:42:45Z</time>
      </trkpt>
      <trkpt lat="45.23946" lon="5.57338">
        <ele>1631.3890380859</ele>
        <time>2017-06-14T11:43:20Z</time>
      </trkpt>
      <trkpt lat="45.23952" lon="5.57358">
        <ele>1630.3890380859</ele>
        <time>2017-06-14T11:43:25Z</time>
      </trkpt>
      <trkpt lat="45.23957" lon="5.57368">
        <ele>1630.3890380859</ele>
        <time>2017-06-14T11:43:51Z</time>
      </trkpt>
      <trkpt lat="45.23964" lon="5.57365">
        <ele>1624.3890380859</ele>
        <time>2017-06-14T11:43:58Z</time>
      </trkpt>
      <trkpt lat="45.23971" lon="5.57368">
        <ele>1628.3890380859</ele>
        <time>2017-06-14T11:44:02Z</time>
      </trkpt>
      <trkpt lat="45.23979" lon="5.57369">
        <ele>1626.3890380859</ele>
        <time>2017-06-14T11:44:14Z</time>
      </trkpt>
      <trkpt lat="45.23989" lon="5.57372">
        <ele>1626.3890380859</ele>
        <time>2017-06-14T11:44:20Z</time>
      </trkpt>
      <trkpt lat="45.23995" lon="5.5738">
        <ele>1621.3890380859</ele>
        <time>2017-06-14T11:44:30Z</time>
      </trkpt>
      <trkpt lat="45.24001" lon="5.57387">
        <ele>1623.3890380859</ele>
        <time>2017-06-14T11:44:38Z</time>
      </trkpt>
      <trkpt lat="45.24006" lon="5.57397">
        <ele>1623.3890380859</ele>
        <time>2017-06-14T11:44:46Z</time>
      </trkpt>
      <trkpt lat="45.24008" lon="5.57409">
        <ele>1624.3890380859</ele>
        <time>2017-06-14T11:44:51Z</time>
      </trkpt>
      <trkpt lat="45.24014" lon="5.57417">
        <ele>1621.3890380859</ele>
        <time>2017-06-14T11:44:59Z</time>
      </trkpt>
      <trkpt lat="45.24019" lon="5.57427">
        <ele>1617.3890380859</ele>
        <time>2017-06-14T11:45:11Z</time>
      </trkpt>
      <trkpt lat="45.24029" lon="5.57446">
        <ele>1618.3890380859</ele>
        <time>2017-06-14T11:45:18Z</time>
      </trkpt>
      <trkpt lat="45.24027" lon="5.57447">
        <ele>1611.3890380859</ele>
        <time>2017-06-14T11:45:41Z</time>
      </trkpt>
      <trkpt lat="45.24022" lon="5.57455">
        <ele>1613.3890380859</ele>
        <time>2017-06-14T11:46:20Z</time>
      </trkpt>
      <trkpt lat="45.24018" lon="5.57464">
        <ele>1616.3890380859</ele>
        <time>2017-06-14T11:46:25Z</time>
      </trkpt>
      <trkpt lat="45.24026" lon="5.57479">
        <ele>1606.3890380859</ele>
        <time>2017-06-14T11:46:47Z</time>
      </trkpt>
      <trkpt lat="45.24025" lon="5.57494">
        <ele>1606.3890380859</ele>
        <time>2017-06-14T11:46:56Z</time>
      </trkpt>
      <trkpt lat="45.24028" lon="5.57503">
        <ele>1598.3890380859</ele>
        <time>2017-06-14T11:47:30Z</time>
      </trkpt>
      <trkpt lat="45.24032" lon="5.57527">
        <ele>1591.3890380859</ele>
        <time>2017-06-14T11:47:39Z</time>
      </trkpt>
      <trkpt lat="45.24035" lon="5.57549">
        <ele>1591.3890380859</ele>
        <time>2017-06-14T11:47:46Z</time>
      </trkpt>
      <trkpt lat="45.24028" lon="5.57553">
        <ele>1583.3890380859</ele>
        <time>2017-06-14T11:47:58Z</time>
      </trkpt>
      <trkpt lat="45.24033" lon="5.57562">
        <ele>1580.3900146484</ele>
        <time>2017-06-14T11:48:18Z</time>
      </trkpt>
      <trkpt lat="45.24037" lon="5.57574">
        <ele>1583.3900146484</ele>
        <time>2017-06-14T11:48:24Z</time>
      </trkpt>
      <trkpt lat="45.24043" lon="5.57591">
        <ele>1583.3900146484</ele>
        <time>2017-06-14T11:48:28Z</time>
      </trkpt>
      <trkpt lat="45.24035" lon="5.57589">
        <ele>1581.3900146484</ele>
        <time>2017-06-14T11:48:32Z</time>
      </trkpt>
      <trkpt lat="45.2403" lon="5.5758">
        <ele>1570.3900146484</ele>
        <time>2017-06-14T11:49:23Z</time>
      </trkpt>
      <trkpt lat="45.24017" lon="5.57603">
        <ele>1575.3900146484</ele>
        <time>2017-06-14T11:49:30Z</time>
      </trkpt>
      <trkpt lat="45.24015" lon="5.57613">
        <ele>1573.3900146484</ele>
        <time>2017-06-14T11:49:34Z</time>
      </trkpt>
      <trkpt lat="45.24024" lon="5.57611">
        <ele>1572.3900146484</ele>
        <time>2017-06-14T11:49:43Z</time>
      </trkpt>
      <trkpt lat="45.24035" lon="5.57629">
        <ele>1566.3900146484</ele>
        <time>2017-06-14T11:49:52Z</time>
      </trkpt>
      <trkpt lat="45.24042" lon="5.57635">
        <ele>1565.3900146484</ele>
        <time>2017-06-14T11:49:56Z</time>
      </trkpt>
      <trkpt lat="45.24051" lon="5.57653">
        <ele>1565.3900146484</ele>
        <time>2017-06-14T11:50:03Z</time>
      </trkpt>
      <trkpt lat="45.24058" lon="5.57661">
        <ele>1559.3900146484</ele>
        <time>2017-06-14T11:50:10Z</time>
      </trkpt>
      <trkpt lat="45.24067" lon="5.57666">
        <ele>1559.3900146484</ele>
        <time>2017-06-14T11:50:15Z</time>
      </trkpt>
      <trkpt lat="45.24074" lon="5.5767">
        <ele>1556.3900146484</ele>
        <time>2017-06-14T11:50:20Z</time>
      </trkpt>
      <trkpt lat="45.24081" lon="5.57677">
        <ele>1551.3900146484</ele>
        <time>2017-06-14T11:50:26Z</time>
      </trkpt>
      <trkpt lat="45.24085" lon="5.57686">
        <ele>1549.3900146484</ele>
        <time>2017-06-14T11:50:32Z</time>
      </trkpt>
      <trkpt lat="45.24098" lon="5.57698">
        <ele>1542.3900146484</ele>
        <time>2017-06-14T11:50:46Z</time>
      </trkpt>
      <trkpt lat="45.24106" lon="5.57697">
        <ele>1541.3900146484</ele>
        <time>2017-06-14T11:50:53Z</time>
      </trkpt>
      <trkpt lat="45.2412" lon="5.577">
        <ele>1540.3900146484</ele>
        <time>2017-06-14T11:51:04Z</time>
      </trkpt>
      <trkpt lat="45.24127" lon="5.57695">
        <ele>1538.3900146484</ele>
        <time>2017-06-14T11:51:14Z</time>
      </trkpt>
      <trkpt lat="45.24144" lon="5.57691">
        <ele>1537.3900146484</ele>
        <time>2017-06-14T11:51:23Z</time>
      </trkpt>
      <trkpt lat="45.24154" lon="5.57692">
        <ele>1540.3900146484</ele>
        <time>2017-06-14T11:51:33Z</time>
      </trkpt>
      <trkpt lat="45.24163" lon="5.57692">
        <ele>1540.3900146484</ele>
        <time>2017-06-14T11:51:37Z</time>
      </trkpt>
      <trkpt lat="45.24181" lon="5.57691">
        <ele>1543.3900146484</ele>
        <time>2017-06-14T11:51:57Z</time>
      </trkpt>
      <trkpt lat="45.24189" lon="5.57689">
        <ele>1550.3900146484</ele>
        <time>2017-06-14T11:52:05Z</time>
      </trkpt>
      <trkpt lat="45.24195" lon="5.57694">
        <ele>1553.3900146484</ele>
        <time>2017-06-14T11:52:13Z</time>
      </trkpt>
      <trkpt lat="45.24205" lon="5.5769">
        <ele>1552.3900146484</ele>
        <time>2017-06-14T11:52:25Z</time>
      </trkpt>
      <trkpt lat="45.24216" lon="5.57693">
        <ele>1559.3900146484</ele>
        <time>2017-06-14T11:54:03Z</time>
      </trkpt>
      <trkpt lat="45.24231" lon="5.57693">
        <ele>1565.3900146484</ele>
        <time>2017-06-14T11:54:10Z</time>
      </trkpt>
      <trkpt lat="45.24241" lon="5.57695">
        <ele>1571.3900146484</ele>
        <time>2017-06-14T11:54:15Z</time>
      </trkpt>
      <trkpt lat="45.2425" lon="5.57699">
        <ele>1574.3900146484</ele>
        <time>2017-06-14T11:54:21Z</time>
      </trkpt>
      <trkpt lat="45.24265" lon="5.57703">
        <ele>1577.3900146484</ele>
        <time>2017-06-14T11:54:29Z</time>
      </trkpt>
      <trkpt lat="45.24274" lon="5.57704">
        <ele>1571.3900146484</ele>
        <time>2017-06-14T11:54:41Z</time>
      </trkpt>
      <trkpt lat="45.24282" lon="5.57706">
        <ele>1572.3900146484</ele>
        <time>2017-06-14T11:54:48Z</time>
      </trkpt>
      <trkpt lat="45.24287" lon="5.57714">
        <ele>1572.3900146484</ele>
        <time>2017-06-14T11:54:55Z</time>
      </trkpt>
      <trkpt lat="45.24289" lon="5.57724">
        <ele>1574.3900146484</ele>
        <time>2017-06-14T11:55:00Z</time>
      </trkpt>
      <trkpt lat="45.24282" lon="5.57729">
        <ele>1572.3900146484</ele>
        <time>2017-06-14T11:55:13Z</time>
      </trkpt>
      <trkpt lat="45.24293" lon="5.57733">
        <ele>1571.3900146484</ele>
        <time>2017-06-14T11:55:16Z</time>
      </trkpt>
      <trkpt lat="45.24308" lon="5.57752">
        <ele>1570.3900146484</ele>
        <time>2017-06-14T11:55:25Z</time>
      </trkpt>
      <trkpt lat="45.243" lon="5.57752">
        <ele>1570.3900146484</ele>
        <time>2017-06-14T11:55:30Z</time>
      </trkpt>
      <trkpt lat="45.24304" lon="5.57763">
        <ele>1568.3900146484</ele>
        <time>2017-06-14T11:55:34Z</time>
      </trkpt>
      <trkpt lat="45.24312" lon="5.57768">
        <ele>1566.3900146484</ele>
        <time>2017-06-14T11:55:37Z</time>
      </trkpt>
      <trkpt lat="45.24316" lon="5.57786">
        <ele>1564.3900146484</ele>
        <time>2017-06-14T11:55:43Z</time>
      </trkpt>
      <trkpt lat="45.24301" lon="5.57789">
        <ele>1569.3900146484</ele>
        <time>2017-06-14T11:55:52Z</time>
      </trkpt>
      <trkpt lat="45.24307" lon="5.57798">
        <ele>1564.3900146484</ele>
        <time>2017-06-14T11:56:15Z</time>
      </trkpt>
      <trkpt lat="45.24314" lon="5.57803">
        <ele>1556.3900146484</ele>
        <time>2017-06-14T11:56:23Z</time>
      </trkpt>
      <trkpt lat="45.24322" lon="5.57824">
        <ele>1555.3909912109</ele>
        <time>2017-06-14T11:56:28Z</time>
      </trkpt>
      <trkpt lat="45.24317" lon="5.57836">
        <ele>1555.3909912109</ele>
        <time>2017-06-14T11:56:31Z</time>
      </trkpt>
      <trkpt lat="45.2431" lon="5.57829">
        <ele>1549.3900146484</ele>
        <time>2017-06-14T11:56:36Z</time>
      </trkpt>
      <trkpt lat="45.243" lon="5.57828">
        <ele>1545.3900146484</ele>
        <time>2017-06-14T11:57:51Z</time>
      </trkpt>
      <trkpt lat="45.24293" lon="5.57832">
        <ele>1546.3900146484</ele>
        <time>2017-06-14T11:57:55Z</time>
      </trkpt>
      <trkpt lat="45.24288" lon="5.5784">
        <ele>1541.3900146484</ele>
        <time>2017-06-14T11:58:05Z</time>
      </trkpt>
      <trkpt lat="45.24279" lon="5.57843">
        <ele>1539.3900146484</ele>
        <time>2017-06-14T11:58:25Z</time>
      </trkpt>
      <trkpt lat="45.24273" lon="5.5785">
        <ele>1538.3900146484</ele>
        <time>2017-06-14T11:58:30Z</time>
      </trkpt>
      <trkpt lat="45.24264" lon="5.57869">
        <ele>1526.3900146484</ele>
        <time>2017-06-14T11:58:37Z</time>
      </trkpt>
      <trkpt lat="45.24248" lon="5.57878">
        <ele>1528.3900146484</ele>
        <time>2017-06-14T11:58:43Z</time>
      </trkpt>
      <trkpt lat="45.24232" lon="5.57892">
        <ele>1530.3900146484</ele>
        <time>2017-06-14T11:58:47Z</time>
      </trkpt>
      <trkpt lat="45.24215" lon="5.57903">
        <ele>1532.3900146484</ele>
        <time>2017-06-14T11:58:51Z</time>
      </trkpt>
      <trkpt lat="45.24211" lon="5.57912">
        <ele>1530.3900146484</ele>
        <time>2017-06-14T11:58:56Z</time>
      </trkpt>
      <trkpt lat="45.24208" lon="5.57922">
        <ele>1533.3900146484</ele>
        <time>2017-06-14T11:58:59Z</time>
      </trkpt>
      <trkpt lat="45.24191" lon="5.5791">
        <ele>1532.3900146484</ele>
        <time>2017-06-14T11:59:04Z</time>
      </trkpt>
      <trkpt lat="45.24195" lon="5.57924">
        <ele>1532.3900146484</ele>
        <time>2017-06-14T11:59:05Z</time>
      </trkpt>
      <trkpt lat="45.24188" lon="5.57929">
        <ele>1533.3900146484</ele>
        <time>2017-06-14T11:59:11Z</time>
      </trkpt>
      <trkpt lat="45.24185" lon="5.57919">
        <ele>1530.3900146484</ele>
        <time>2017-06-14T11:59:16Z</time>
      </trkpt>
      <trkpt lat="45.24173" lon="5.57918">
        <ele>1531.3900146484</ele>
        <time>2017-06-14T11:59:25Z</time>
      </trkpt>
      <trkpt lat="45.24163" lon="5.57939">
        <ele>1535.3900146484</ele>
        <time>2017-06-14T11:59:32Z</time>
      </trkpt>
      <trkpt lat="45.24171" lon="5.57934">
        <ele>1525.3900146484</ele>
        <time>2017-06-14T11:59:43Z</time>
      </trkpt>
      <trkpt lat="45.24149" lon="5.57926">
        <ele>1525.3900146484</ele>
        <time>2017-06-14T12:00:26Z</time>
      </trkpt>
      <trkpt lat="45.24123" lon="5.57907">
        <ele>1512.3900146484</ele>
        <time>2017-06-14T12:00:38Z</time>
      </trkpt>
      <trkpt lat="45.24114" lon="5.57904">
        <ele>1517.3900146484</ele>
        <time>2017-06-14T12:00:43Z</time>
      </trkpt>
      <trkpt lat="45.241" lon="5.57903">
        <ele>1517.3900146484</ele>
        <time>2017-06-14T12:00:53Z</time>
      </trkpt>
      <trkpt lat="45.24098" lon="5.57914">
        <ele>1499.3900146484</ele>
        <time>2017-06-14T12:01:07Z</time>
      </trkpt>
      <trkpt lat="45.24092" lon="5.57923">
        <ele>1493.3900146484</ele>
        <time>2017-06-14T12:02:00Z</time>
      </trkpt>
      <trkpt lat="45.24077" lon="5.5793">
        <ele>1482.3900146484</ele>
        <time>2017-06-14T12:02:07Z</time>
      </trkpt>
      <trkpt lat="45.24066" lon="5.57933">
        <ele>1479.3900146484</ele>
        <time>2017-06-14T12:02:13Z</time>
      </trkpt>
      <trkpt lat="45.24034" lon="5.57971">
        <ele>1475.3900146484</ele>
        <time>2017-06-14T12:02:18Z</time>
      </trkpt>
      <trkpt lat="45.24026" lon="5.57983">
        <ele>1465.3900146484</ele>
        <time>2017-06-14T12:02:28Z</time>
      </trkpt>
      <trkpt lat="45.24024" lon="5.57993">
        <ele>1464.3900146484</ele>
        <time>2017-06-14T12:02:30Z</time>
      </trkpt>
      <trkpt lat="45.24016" lon="5.57991">
        <ele>1464.3900146484</ele>
        <time>2017-06-14T12:02:34Z</time>
      </trkpt>
      <trkpt lat="45.24009" lon="5.57995">
        <ele>1465.3900146484</ele>
        <time>2017-06-14T12:02:40Z</time>
      </trkpt>
      <trkpt lat="45.24003" lon="5.58">
        <ele>1461.3900146484</ele>
        <time>2017-06-14T12:02:47Z</time>
      </trkpt>
      <trkpt lat="45.24002" lon="5.58011">
        <ele>1456.3900146484</ele>
        <time>2017-06-14T12:02:56Z</time>
      </trkpt>
      <trkpt lat="45.23997" lon="5.58021">
        <ele>1451.3900146484</ele>
        <time>2017-06-14T12:03:00Z</time>
      </trkpt>
      <trkpt lat="45.23991" lon="5.58029">
        <ele>1450.3900146484</ele>
        <time>2017-06-14T12:03:06Z</time>
      </trkpt>
      <trkpt lat="45.23982" lon="5.58045">
        <ele>1449.3900146484</ele>
        <time>2017-06-14T12:03:13Z</time>
      </trkpt>
      <trkpt lat="45.23975" lon="5.58048">
        <ele>1447.3900146484</ele>
        <time>2017-06-14T12:03:20Z</time>
      </trkpt>
      <trkpt lat="45.23952" lon="5.58057">
        <ele>1447.3900146484</ele>
        <time>2017-06-14T12:03:29Z</time>
      </trkpt>
      <trkpt lat="45.23945" lon="5.58054">
        <ele>1448.3900146484</ele>
        <time>2017-06-14T12:03:35Z</time>
      </trkpt>
      <trkpt lat="45.23938" lon="5.58058">
        <ele>1441.3900146484</ele>
        <time>2017-06-14T12:03:49Z</time>
      </trkpt>
      <trkpt lat="45.23929" lon="5.58058">
        <ele>1432.3900146484</ele>
        <time>2017-06-14T12:03:59Z</time>
      </trkpt>
      <trkpt lat="45.23917" lon="5.58069">
        <ele>1427.3900146484</ele>
        <time>2017-06-14T12:04:06Z</time>
      </trkpt>
      <trkpt lat="45.2391" lon="5.58076">
        <ele>1428.3900146484</ele>
        <time>2017-06-14T12:04:10Z</time>
      </trkpt>
      <trkpt lat="45.23895" lon="5.58071">
        <ele>1431.3900146484</ele>
        <time>2017-06-14T12:04:19Z</time>
      </trkpt>
      <trkpt lat="45.23879" lon="5.58067">
        <ele>1435.3900146484</ele>
        <time>2017-06-14T12:04:26Z</time>
      </trkpt>
      <trkpt lat="45.2387" lon="5.58063">
        <ele>1434.3900146484</ele>
        <time>2017-06-14T12:04:32Z</time>
      </trkpt>
      <trkpt lat="45.23863" lon="5.58065">
        <ele>1427.3900146484</ele>
        <time>2017-06-14T12:04:42Z</time>
      </trkpt>
      <trkpt lat="45.23856" lon="5.58062">
        <ele>1426.3900146484</ele>
        <time>2017-06-14T12:04:47Z</time>
      </trkpt>
      <trkpt lat="45.23849" lon="5.58068">
        <ele>1424.3900146484</ele>
        <time>2017-06-14T12:04:52Z</time>
      </trkpt>
      <trkpt lat="45.23842" lon="5.58069">
        <ele>1421.3900146484</ele>
        <time>2017-06-14T12:04:59Z</time>
      </trkpt>
      <trkpt lat="45.23833" lon="5.58078">
        <ele>1416.3900146484</ele>
        <time>2017-06-14T12:05:11Z</time>
      </trkpt>
      <trkpt lat="45.23825" lon="5.58078">
        <ele>1413.3900146484</ele>
        <time>2017-06-14T12:05:16Z</time>
      </trkpt>
      <trkpt lat="45.23818" lon="5.58084">
        <ele>1414.3900146484</ele>
        <time>2017-06-14T12:05:41Z</time>
      </trkpt>
      <trkpt lat="45.23816" lon="5.58108">
        <ele>1415.3900146484</ele>
        <time>2017-06-14T12:05:45Z</time>
      </trkpt>
      <trkpt lat="45.23808" lon="5.5811">
        <ele>1410.3900146484</ele>
        <time>2017-06-14T12:05:52Z</time>
      </trkpt>
      <trkpt lat="45.23801" lon="5.58113">
        <ele>1406.3900146484</ele>
        <time>2017-06-14T12:05:57Z</time>
      </trkpt>
      <trkpt lat="45.23793" lon="5.58115">
        <ele>1402.3900146484</ele>
        <time>2017-06-14T12:06:03Z</time>
      </trkpt>
      <trkpt lat="45.23788" lon="5.58123">
        <ele>1401.3900146484</ele>
        <time>2017-06-14T12:06:09Z</time>
      </trkpt>
      <trkpt lat="45.23782" lon="5.58129">
        <ele>1398.3900146484</ele>
        <time>2017-06-14T12:06:15Z</time>
      </trkpt>
      <trkpt lat="45.23774" lon="5.58127">
        <ele>1399.3900146484</ele>
        <time>2017-06-14T12:06:20Z</time>
      </trkpt>
      <trkpt lat="45.23772" lon="5.58138">
        <ele>1399.3900146484</ele>
        <time>2017-06-14T12:07:01Z</time>
      </trkpt>
      <trkpt lat="45.23776" lon="5.58147">
        <ele>1389.3900146484</ele>
        <time>2017-06-14T12:07:11Z</time>
      </trkpt>
      <trkpt lat="45.23779" lon="5.58169">
        <ele>1392.3900146484</ele>
        <time>2017-06-14T12:07:16Z</time>
      </trkpt>
      <trkpt lat="45.23793" lon="5.58208">
        <ele>1392.3900146484</ele>
        <time>2017-06-14T12:07:27Z</time>
      </trkpt>
      <trkpt lat="45.238" lon="5.58235">
        <ele>1391.3900146484</ele>
        <time>2017-06-14T12:07:35Z</time>
      </trkpt>
      <trkpt lat="45.23817" lon="5.58251">
        <ele>1395.3900146484</ele>
        <time>2017-06-14T12:07:40Z</time>
      </trkpt>
      <trkpt lat="45.23847" lon="5.58253">
        <ele>1396.3900146484</ele>
        <time>2017-06-14T12:07:47Z</time>
      </trkpt>
      <trkpt lat="45.2384" lon="5.58282">
        <ele>1401.3900146484</ele>
        <time>2017-06-14T12:07:54Z</time>
      </trkpt>
      <trkpt lat="45.23851" lon="5.58291">
        <ele>1404.3900146484</ele>
        <time>2017-06-14T12:07:56Z</time>
      </trkpt>
      <trkpt lat="45.23849" lon="5.58298">
        <ele>1406.3900146484</ele>
        <time>2017-06-14T12:07:58Z</time>
      </trkpt>
      <trkpt lat="45.23852" lon="5.58309">
        <ele>1407.3900146484</ele>
        <time>2017-06-14T12:08:04Z</time>
      </trkpt>
      <trkpt lat="45.24085" lon="5.58848">
        <ele>1375.3909912109</ele>
        <time>2017-06-14T12:11:24Z</time>
      </trkpt>
      <trkpt lat="45.24096" lon="5.58849">
        <ele>1376.3909912109</ele>
        <time>2017-06-14T12:11:29Z</time>
      </trkpt>
      <trkpt lat="45.24102" lon="5.58854">
        <ele>1375.3909912109</ele>
        <time>2017-06-14T12:11:36Z</time>
      </trkpt>
      <trkpt lat="45.2411" lon="5.58853">
        <ele>1376.3909912109</ele>
        <time>2017-06-14T12:11:43Z</time>
      </trkpt>
      <trkpt lat="45.24117" lon="5.58852">
        <ele>1375.3909912109</ele>
        <time>2017-06-14T12:11:50Z</time>
      </trkpt>
      <trkpt lat="45.24129" lon="5.58853">
        <ele>1373.3919677734</ele>
        <time>2017-06-14T12:12:00Z</time>
      </trkpt>
      <trkpt lat="45.2415" lon="5.58855">
        <ele>1370.3919677734</ele>
        <time>2017-06-14T12:12:07Z</time>
      </trkpt>
      <trkpt lat="45.24168" lon="5.58854">
        <ele>1364.3919677734</ele>
        <time>2017-06-14T12:12:16Z</time>
      </trkpt>
      <trkpt lat="45.24183" lon="5.58853">
        <ele>1368.3919677734</ele>
        <time>2017-06-14T12:12:22Z</time>
      </trkpt>
      <trkpt lat="45.242" lon="5.58847">
        <ele>1368.3919677734</ele>
        <time>2017-06-14T12:12:29Z</time>
      </trkpt>
      <trkpt lat="45.24216" lon="5.5884">
        <ele>1365.3919677734</ele>
        <time>2017-06-14T12:12:37Z</time>
      </trkpt>
      <trkpt lat="45.2423" lon="5.5883">
        <ele>1365.3919677734</ele>
        <time>2017-06-14T12:12:44Z</time>
      </trkpt>
      <trkpt lat="45.24243" lon="5.58817">
        <ele>1361.3919677734</ele>
        <time>2017-06-14T12:12:50Z</time>
      </trkpt>
      <trkpt lat="45.24252" lon="5.58814">
        <ele>1360.3919677734</ele>
        <time>2017-06-14T12:12:55Z</time>
      </trkpt>
      <trkpt lat="45.2426" lon="5.58812">
        <ele>1362.3919677734</ele>
        <time>2017-06-14T12:12:57Z</time>
      </trkpt>
      <trkpt lat="45.24283" lon="5.58801">
        <ele>1360.3919677734</ele>
        <time>2017-06-14T12:13:06Z</time>
      </trkpt>
      <trkpt lat="45.24299" lon="5.58791">
        <ele>1362.3919677734</ele>
        <time>2017-06-14T12:13:13Z</time>
      </trkpt>
      <trkpt lat="45.24316" lon="5.58783">
        <ele>1361.3919677734</ele>
        <time>2017-06-14T12:13:19Z</time>
      </trkpt>
      <trkpt lat="45.2433" lon="5.58773">
        <ele>1355.3919677734</ele>
        <time>2017-06-14T12:13:26Z</time>
      </trkpt>
      <trkpt lat="45.2435" lon="5.58752">
        <ele>1355.3919677734</ele>
        <time>2017-06-14T12:13:35Z</time>
      </trkpt>
      <trkpt lat="45.24369" lon="5.58736">
        <ele>1359.3919677734</ele>
        <time>2017-06-14T12:13:44Z</time>
      </trkpt>
      <trkpt lat="45.24377" lon="5.58733">
        <ele>1356.3919677734</ele>
        <time>2017-06-14T12:13:48Z</time>
      </trkpt>
      <trkpt lat="45.24388" lon="5.58732">
        <ele>1353.3919677734</ele>
        <time>2017-06-14T12:13:55Z</time>
      </trkpt>
      <trkpt lat="45.24404" lon="5.58722">
        <ele>1347.3919677734</ele>
        <time>2017-06-14T12:14:02Z</time>
      </trkpt>
      <trkpt lat="45.24423" lon="5.58712">
        <ele>1346.3919677734</ele>
        <time>2017-06-14T12:14:08Z</time>
      </trkpt>
      <trkpt lat="45.24444" lon="5.58703">
        <ele>1352.3919677734</ele>
        <time>2017-06-14T12:14:16Z</time>
      </trkpt>
      <trkpt lat="45.24452" lon="5.58699">
        <ele>1350.3919677734</ele>
        <time>2017-06-14T12:14:19Z</time>
      </trkpt>
      <trkpt lat="45.2446" lon="5.58702">
        <ele>1352.3919677734</ele>
        <time>2017-06-14T12:14:21Z</time>
      </trkpt>
      <trkpt lat="45.24468" lon="5.58708">
        <ele>1355.3919677734</ele>
        <time>2017-06-14T12:14:24Z</time>
      </trkpt>
      <trkpt lat="45.24475" lon="5.58714">
        <ele>1352.3919677734</ele>
        <time>2017-06-14T12:14:31Z</time>
      </trkpt>
      <trkpt lat="45.24482" lon="5.5872">
        <ele>1353.3919677734</ele>
        <time>2017-06-14T12:14:34Z</time>
      </trkpt>
      <trkpt lat="45.24497" lon="5.5873">
        <ele>1349.3919677734</ele>
        <time>2017-06-14T12:14:41Z</time>
      </trkpt>
      <trkpt lat="45.24513" lon="5.58739">
        <ele>1347.3919677734</ele>
        <time>2017-06-14T12:14:48Z</time>
      </trkpt>
      <trkpt lat="45.24529" lon="5.58749">
        <ele>1345.3919677734</ele>
        <time>2017-06-14T12:14:55Z</time>
      </trkpt>
      <trkpt lat="45.24549" lon="5.58753">
        <ele>1344.3919677734</ele>
        <time>2017-06-14T12:15:03Z</time>
      </trkpt>
      <trkpt lat="45.24571" lon="5.58755">
        <ele>1346.3919677734</ele>
        <time>2017-06-14T12:15:09Z</time>
      </trkpt>
      <trkpt lat="45.24579" lon="5.58758">
        <ele>1344.3919677734</ele>
        <time>2017-06-14T12:15:16Z</time>
      </trkpt>
      <trkpt lat="45.24596" lon="5.58756">
        <ele>1340.3919677734</ele>
        <time>2017-06-14T12:15:22Z</time>
      </trkpt>
      <trkpt lat="45.24615" lon="5.58753">
        <ele>1339.3919677734</ele>
        <time>2017-06-14T12:15:31Z</time>
      </trkpt>
      <trkpt lat="45.24622" lon="5.58748">
        <ele>1337.3919677734</ele>
        <time>2017-06-14T12:15:39Z</time>
      </trkpt>
      <trkpt lat="45.24629" lon="5.5874">
        <ele>1333.3919677734</ele>
        <time>2017-06-14T12:16:01Z</time>
      </trkpt>
      <trkpt lat="45.24636" lon="5.58724">
        <ele>1331.3919677734</ele>
        <time>2017-06-14T12:16:14Z</time>
      </trkpt>
      <trkpt lat="45.24642" lon="5.58705">
        <ele>1329.3919677734</ele>
        <time>2017-06-14T12:16:23Z</time>
      </trkpt>
      <trkpt lat="45.24653" lon="5.58705">
        <ele>1329.3919677734</ele>
        <time>2017-06-14T12:16:39Z</time>
      </trkpt>
      <trkpt lat="45.24655" lon="5.58695">
        <ele>1327.3919677734</ele>
        <time>2017-06-14T12:17:02Z</time>
      </trkpt>
      <trkpt lat="45.24661" lon="5.58688">
        <ele>1324.3919677734</ele>
        <time>2017-06-14T12:17:09Z</time>
      </trkpt>
      <trkpt lat="45.24668" lon="5.58686">
        <ele>1323.3919677734</ele>
        <time>2017-06-14T12:17:34Z</time>
      </trkpt>
      <trkpt lat="45.24675" lon="5.58686">
        <ele>1325.3919677734</ele>
        <time>2017-06-14T12:17:47Z</time>
      </trkpt>
      <trkpt lat="45.2469" lon="5.58673">
        <ele>1316.3919677734</ele>
        <time>2017-06-14T12:17:55Z</time>
      </trkpt>
      <trkpt lat="45.247" lon="5.58666">
        <ele>1305.3929443359</ele>
        <time>2017-06-14T12:18:07Z</time>
      </trkpt>
      <trkpt lat="45.24701" lon="5.58655">
        <ele>1293.3919677734</ele>
        <time>2017-06-14T12:18:15Z</time>
      </trkpt>
      <trkpt lat="45.24717" lon="5.58631">
        <ele>1289.3919677734</ele>
        <time>2017-06-14T12:18:21Z</time>
      </trkpt>
      <trkpt lat="45.24724" lon="5.58633">
        <ele>1289.3929443359</ele>
        <time>2017-06-14T12:18:23Z</time>
      </trkpt>
      <trkpt lat="45.24728" lon="5.58621">
        <ele>1290.3929443359</ele>
        <time>2017-06-14T12:18:27Z</time>
      </trkpt>
      <trkpt lat="45.24734" lon="5.58607">
        <ele>1286.3919677734</ele>
        <time>2017-06-14T12:18:32Z</time>
      </trkpt>
      <trkpt lat="45.24748" lon="5.58592">
        <ele>1285.3929443359</ele>
        <time>2017-06-14T12:18:41Z</time>
      </trkpt>
      <trkpt lat="45.24757" lon="5.58584">
        <ele>1285.3929443359</ele>
        <time>2017-06-14T12:18:47Z</time>
      </trkpt>
      <trkpt lat="45.24774" lon="5.58578">
        <ele>1280.3929443359</ele>
        <time>2017-06-14T12:18:55Z</time>
      </trkpt>
      <trkpt lat="45.24767" lon="5.58573">
        <ele>1280.3929443359</ele>
        <time>2017-06-14T12:18:57Z</time>
      </trkpt>
      <trkpt lat="45.24788" lon="5.58569">
        <ele>1278.3929443359</ele>
        <time>2017-06-14T12:19:04Z</time>
      </trkpt>
      <trkpt lat="45.24804" lon="5.58565">
        <ele>1277.3929443359</ele>
        <time>2017-06-14T12:19:14Z</time>
      </trkpt>
      <trkpt lat="45.24815" lon="5.58562">
        <ele>1278.3929443359</ele>
        <time>2017-06-14T12:19:19Z</time>
      </trkpt>
      <trkpt lat="45.2482" lon="5.58554">
        <ele>1279.3929443359</ele>
        <time>2017-06-14T12:19:25Z</time>
      </trkpt>
      <trkpt lat="45.24828" lon="5.58552">
        <ele>1280.3929443359</ele>
        <time>2017-06-14T12:19:33Z</time>
      </trkpt>
      <trkpt lat="45.2485" lon="5.58548">
        <ele>1282.3929443359</ele>
        <time>2017-06-14T12:19:39Z</time>
      </trkpt>
      <trkpt lat="45.24847" lon="5.58537">
        <ele>1283.3929443359</ele>
        <time>2017-06-14T12:19:46Z</time>
      </trkpt>
      <trkpt lat="45.24861" lon="5.58531">
        <ele>1290.3929443359</ele>
        <time>2017-06-14T12:19:52Z</time>
      </trkpt>
      <trkpt lat="45.24857" lon="5.58518">
        <ele>1286.3929443359</ele>
        <time>2017-06-14T12:19:58Z</time>
      </trkpt>
      <trkpt lat="45.24865" lon="5.58522">
        <ele>1286.3929443359</ele>
        <time>2017-06-14T12:20:00Z</time>
      </trkpt>
      <trkpt lat="45.24882" lon="5.58527">
        <ele>1278.3929443359</ele>
        <time>2017-06-14T12:20:09Z</time>
      </trkpt>
      <trkpt lat="45.24889" lon="5.58525">
        <ele>1271.3929443359</ele>
        <time>2017-06-14T12:20:20Z</time>
      </trkpt>
      <trkpt lat="45.24898" lon="5.58527">
        <ele>1270.3929443359</ele>
        <time>2017-06-14T12:20:24Z</time>
      </trkpt>
      <trkpt lat="45.24914" lon="5.58524">
        <ele>1266.3929443359</ele>
        <time>2017-06-14T12:20:33Z</time>
      </trkpt>
      <trkpt lat="45.24915" lon="5.58513">
        <ele>1263.3929443359</ele>
        <time>2017-06-14T12:20:44Z</time>
      </trkpt>
      <trkpt lat="45.24922" lon="5.58508">
        <ele>1259.3929443359</ele>
        <time>2017-06-14T12:21:31Z</time>
      </trkpt>
      <trkpt lat="45.24935" lon="5.58516">
        <ele>1257.3929443359</ele>
        <time>2017-06-14T12:21:40Z</time>
      </trkpt>
      <trkpt lat="45.2494" lon="5.58523">
        <ele>1250.3929443359</ele>
        <time>2017-06-14T12:21:55Z</time>
      </trkpt>
      <trkpt lat="45.2495" lon="5.58539">
        <ele>1252.3929443359</ele>
        <time>2017-06-14T12:22:44Z</time>
      </trkpt>
      <trkpt lat="45.24966" lon="5.58552">
        <ele>1256.3929443359</ele>
        <time>2017-06-14T12:22:50Z</time>
      </trkpt>
      <trkpt lat="45.24972" lon="5.58559">
        <ele>1256.3929443359</ele>
        <time>2017-06-14T12:22:55Z</time>
      </trkpt>
      <trkpt lat="45.24976" lon="5.58571">
        <ele>1256.3929443359</ele>
        <time>2017-06-14T12:23:06Z</time>
      </trkpt>
      <trkpt lat="45.24983" lon="5.58573">
        <ele>1257.3929443359</ele>
        <time>2017-06-14T12:23:11Z</time>
      </trkpt>
      <trkpt lat="45.24997" lon="5.58566">
        <ele>1248.3929443359</ele>
        <time>2017-06-14T12:23:34Z</time>
      </trkpt>
      <trkpt lat="45.25012" lon="5.58562">
        <ele>1239.3929443359</ele>
        <time>2017-06-14T12:26:10Z</time>
      </trkpt>
      <trkpt lat="45.25031" lon="5.58561">
        <ele>1239.3929443359</ele>
        <time>2017-06-14T12:26:17Z</time>
      </trkpt>
      <trkpt lat="45.25036" lon="5.58554">
        <ele>1234.3929443359</ele>
        <time>2017-06-14T12:26:25Z</time>
      </trkpt>
      <trkpt lat="45.25043" lon="5.58542">
        <ele>1216.3929443359</ele>
        <time>2017-06-14T12:27:39Z</time>
      </trkpt>
      <trkpt lat="45.25055" lon="5.58529">
        <ele>1204.3929443359</ele>
        <time>2017-06-14T12:27:48Z</time>
      </trkpt>
      <trkpt lat="45.25068" lon="5.5853">
        <ele>1202.3929443359</ele>
        <time>2017-06-14T12:27:53Z</time>
      </trkpt>
      <trkpt lat="45.25077" lon="5.58533">
        <ele>1199.3929443359</ele>
        <time>2017-06-14T12:27:57Z</time>
      </trkpt>
      <trkpt lat="45.25086" lon="5.58554">
        <ele>1182.3929443359</ele>
        <time>2017-06-14T12:28:17Z</time>
      </trkpt>
      <trkpt lat="45.25086" lon="5.58568">
        <ele>1171.3929443359</ele>
        <time>2017-06-14T12:28:33Z</time>
      </trkpt>
      <trkpt lat="45.2509" lon="5.58577">
        <ele>1171.3929443359</ele>
        <time>2017-06-14T12:29:03Z</time>
      </trkpt>
      <trkpt lat="45.25086" lon="5.58592">
        <ele>1158.3929443359</ele>
        <time>2017-06-14T12:29:14Z</time>
      </trkpt>
      <trkpt lat="45.25093" lon="5.58595">
        <ele>1152.3929443359</ele>
        <time>2017-06-14T12:29:17Z</time>
      </trkpt>
      <trkpt lat="45.25101" lon="5.58596">
        <ele>1146.3929443359</ele>
        <time>2017-06-14T12:29:27Z</time>
      </trkpt>
      <trkpt lat="45.25107" lon="5.58603">
        <ele>1142.3929443359</ele>
        <time>2017-06-14T12:30:51Z</time>
      </trkpt>
      <trkpt lat="45.2511" lon="5.58615">
        <ele>1137.3929443359</ele>
        <time>2017-06-14T12:30:56Z</time>
      </trkpt>
      <trkpt lat="45.25113" lon="5.58625">
        <ele>1128.3929443359</ele>
        <time>2017-06-14T12:31:02Z</time>
      </trkpt>
      <trkpt lat="45.25119" lon="5.58633">
        <ele>1120.3929443359</ele>
        <time>2017-06-14T12:31:08Z</time>
      </trkpt>
      <trkpt lat="45.25126" lon="5.5864">
        <ele>1116.3929443359</ele>
        <time>2017-06-14T12:31:22Z</time>
      </trkpt>
      <trkpt lat="45.25129" lon="5.58651">
        <ele>1101.3929443359</ele>
        <time>2017-06-14T12:31:53Z</time>
      </trkpt>
      <trkpt lat="45.25133" lon="5.58661">
        <ele>1098.3929443359</ele>
        <time>2017-06-14T12:31:58Z</time>
      </trkpt>
      <trkpt lat="45.25141" lon="5.58683">
        <ele>1093.3929443359</ele>
        <time>2017-06-14T12:32:04Z</time>
      </trkpt>
      <trkpt lat="45.25145" lon="5.58692">
        <ele>1093.3940429688</ele>
        <time>2017-06-14T12:32:07Z</time>
      </trkpt>
      <trkpt lat="45.25139" lon="5.58703">
        <ele>1085.3940429688</ele>
        <time>2017-06-14T12:32:12Z</time>
      </trkpt>
      <trkpt lat="45.25137" lon="5.58713">
        <ele>1081.3940429688</ele>
        <time>2017-06-14T12:32:16Z</time>
      </trkpt>
      <trkpt lat="45.25141" lon="5.58734">
        <ele>1074.3940429688</ele>
        <time>2017-06-14T12:32:23Z</time>
      </trkpt>
      <trkpt lat="45.25145" lon="5.58757">
        <ele>1076.3940429688</ele>
        <time>2017-06-14T12:32:30Z</time>
      </trkpt>
      <trkpt lat="45.25145" lon="5.58769">
        <ele>1076.3940429688</ele>
        <time>2017-06-14T12:32:34Z</time>
      </trkpt>
      <trkpt lat="45.25139" lon="5.58774">
        <ele>1070.3940429688</ele>
        <time>2017-06-14T12:32:40Z</time>
      </trkpt>
      <trkpt lat="45.25141" lon="5.58784">
        <ele>1064.3940429688</ele>
        <time>2017-06-14T12:32:47Z</time>
      </trkpt>
      <trkpt lat="45.25135" lon="5.58791">
        <ele>1060.3940429688</ele>
        <time>2017-06-14T12:32:56Z</time>
      </trkpt>
      <trkpt lat="45.25139" lon="5.588">
        <ele>1055.3940429688</ele>
        <time>2017-06-14T12:33:08Z</time>
      </trkpt>
      <trkpt lat="45.25147" lon="5.58808">
        <ele>1052.3940429688</ele>
        <time>2017-06-14T12:33:27Z</time>
      </trkpt>
      <trkpt lat="45.25159" lon="5.58823">
        <ele>1054.3940429688</ele>
        <time>2017-06-14T12:33:33Z</time>
      </trkpt>
      <trkpt lat="45.25175" lon="5.58838">
        <ele>1053.3940429688</ele>
        <time>2017-06-14T12:33:39Z</time>
      </trkpt>
      <trkpt lat="45.25183" lon="5.58845">
        <ele>1047.3940429688</ele>
        <time>2017-06-14T12:33:44Z</time>
      </trkpt>
      <trkpt lat="45.25189" lon="5.58839">
        <ele>1033.3940429688</ele>
        <time>2017-06-14T12:33:56Z</time>
      </trkpt>
      <trkpt lat="45.25199" lon="5.58836">
        <ele>1029.3940429688</ele>
        <time>2017-06-14T12:34:13Z</time>
      </trkpt>
      <trkpt lat="45.25207" lon="5.58833">
        <ele>1031.3940429688</ele>
        <time>2017-06-14T12:34:20Z</time>
      </trkpt>
      <trkpt lat="45.25214" lon="5.58828">
        <ele>1024.3940429688</ele>
        <time>2017-06-14T12:34:27Z</time>
      </trkpt>
      <trkpt lat="45.25222" lon="5.58827">
        <ele>1023.3939819336</ele>
        <time>2017-06-14T12:34:34Z</time>
      </trkpt>
      <trkpt lat="45.25231" lon="5.58824">
        <ele>1020.3939819336</ele>
        <time>2017-06-14T12:34:42Z</time>
      </trkpt>
      <trkpt lat="45.25237" lon="5.58817">
        <ele>1011.3939819336</ele>
        <time>2017-06-14T12:34:51Z</time>
      </trkpt>
      <trkpt lat="45.25245" lon="5.58813">
        <ele>1008.3939819336</ele>
        <time>2017-06-14T12:34:58Z</time>
      </trkpt>
      <trkpt lat="45.25252" lon="5.58808">
        <ele>1007.3939819336</ele>
        <time>2017-06-14T12:35:03Z</time>
      </trkpt>
      <trkpt lat="45.25261" lon="5.58805">
        <ele>1007.3939819336</ele>
        <time>2017-06-14T12:35:08Z</time>
      </trkpt>
      <trkpt lat="45.25264" lon="5.58795">
        <ele>1008.3939819336</ele>
        <time>2017-06-14T12:35:17Z</time>
      </trkpt>
      <trkpt lat="45.25272" lon="5.58792">
        <ele>1001.3939819336</ele>
        <time>2017-06-14T12:35:24Z</time>
      </trkpt>
      <trkpt lat="45.2528" lon="5.58789">
        <ele>1002.3939819336</ele>
        <time>2017-06-14T12:35:27Z</time>
      </trkpt>
      <trkpt lat="45.25288" lon="5.58786">
        <ele>999.39398193359</ele>
        <time>2017-06-14T12:35:31Z</time>
      </trkpt>
      <trkpt lat="45.25296" lon="5.58772">
        <ele>993.39398193359</ele>
        <time>2017-06-14T12:36:31Z</time>
      </trkpt>
      <trkpt lat="45.25304" lon="5.58764">
        <ele>987.39398193359</ele>
        <time>2017-06-14T12:36:32Z</time>
      </trkpt>
      <trkpt lat="45.25311" lon="5.58759">
        <ele>983.39398193359</ele>
        <time>2017-06-14T12:36:34Z</time>
      </trkpt>
      <trkpt lat="45.25318" lon="5.58757">
        <ele>982.39398193359</ele>
        <time>2017-06-14T12:36:41Z</time>
      </trkpt>
      <trkpt lat="45.25326" lon="5.58761">
        <ele>978.39398193359</ele>
        <time>2017-06-14T12:37:34Z</time>
      </trkpt>
      <trkpt lat="45.25333" lon="5.58766">
        <ele>973.39398193359</ele>
        <time>2017-06-14T12:37:36Z</time>
      </trkpt>
      <trkpt lat="45.25338" lon="5.58773">
        <ele>971.39398193359</ele>
        <time>2017-06-14T12:37:41Z</time>
      </trkpt>
      <trkpt lat="45.25356" lon="5.58779">
        <ele>968.39398193359</ele>
        <time>2017-06-14T12:37:46Z</time>
      </trkpt>
      <trkpt lat="45.25374" lon="5.5881">
        <ele>962.39398193359</ele>
        <time>2017-06-14T12:37:51Z</time>
      </trkpt>
      <trkpt lat="45.25379" lon="5.58818">
        <ele>962.39398193359</ele>
        <time>2017-06-14T12:37:52Z</time>
      </trkpt>
      <trkpt lat="45.25385" lon="5.58826">
        <ele>955.39398193359</ele>
        <time>2017-06-14T12:38:03Z</time>
      </trkpt>
      <trkpt lat="45.25392" lon="5.58831">
        <ele>958.39398193359</ele>
        <time>2017-06-14T12:38:08Z</time>
      </trkpt>
      <trkpt lat="45.25398" lon="5.58822">
        <ele>957.39398193359</ele>
        <time>2017-06-14T12:38:16Z</time>
      </trkpt>
      <trkpt lat="45.25413" lon="5.58823">
        <ele>949.39398193359</ele>
        <time>2017-06-14T12:38:23Z</time>
      </trkpt>
      <trkpt lat="45.25419" lon="5.5883">
        <ele>951.39398193359</ele>
        <time>2017-06-14T12:38:27Z</time>
      </trkpt>
      <trkpt lat="45.2543" lon="5.58832">
        <ele>944.39398193359</ele>
        <time>2017-06-14T12:38:32Z</time>
      </trkpt>
      <trkpt lat="45.25438" lon="5.58829">
        <ele>941.39398193359</ele>
        <time>2017-06-14T12:38:42Z</time>
      </trkpt>
      <trkpt lat="45.25453" lon="5.58822">
        <ele>939.39398193359</ele>
        <time>2017-06-14T12:38:57Z</time>
      </trkpt>
      <trkpt lat="45.25462" lon="5.5882">
        <ele>938.39398193359</ele>
        <time>2017-06-14T12:39:02Z</time>
      </trkpt>
      <trkpt lat="45.25477" lon="5.58814">
        <ele>930.39398193359</ele>
        <time>2017-06-14T12:39:13Z</time>
      </trkpt>
      <trkpt lat="45.25484" lon="5.58819">
        <ele>933.39398193359</ele>
        <time>2017-06-14T12:39:21Z</time>
      </trkpt>
      <trkpt lat="45.25493" lon="5.58819">
        <ele>932.39398193359</ele>
        <time>2017-06-14T12:39:25Z</time>
      </trkpt>
      <trkpt lat="45.25501" lon="5.58823">
        <ele>927.39398193359</ele>
        <time>2017-06-14T12:39:36Z</time>
      </trkpt>
      <trkpt lat="45.25509" lon="5.5882">
        <ele>923.39501953125</ele>
        <time>2017-06-14T12:39:41Z</time>
      </trkpt>
      <trkpt lat="45.2552" lon="5.58812">
        <ele>922.39501953125</ele>
        <time>2017-06-14T12:39:59Z</time>
      </trkpt>
      <trkpt lat="45.2553" lon="5.58813">
        <ele>920.39501953125</ele>
        <time>2017-06-14T12:40:24Z</time>
      </trkpt>
      <trkpt lat="45.25548" lon="5.58814">
        <ele>913.39501953125</ele>
        <time>2017-06-14T12:40:30Z</time>
      </trkpt>
      <trkpt lat="45.25557" lon="5.5883">
        <ele>915.39501953125</ele>
        <time>2017-06-14T12:40:35Z</time>
      </trkpt>
      <trkpt lat="45.25557" lon="5.5884">
        <ele>917.39501953125</ele>
        <time>2017-06-14T12:40:40Z</time>
      </trkpt>
      <trkpt lat="45.25566" lon="5.58839">
        <ele>920.39501953125</ele>
        <time>2017-06-14T12:40:45Z</time>
      </trkpt>
      <trkpt lat="45.25573" lon="5.58847">
        <ele>919.39501953125</ele>
        <time>2017-06-14T12:40:53Z</time>
      </trkpt>
      <trkpt lat="45.25588" lon="5.58865">
        <ele>921.39501953125</ele>
        <time>2017-06-14T12:41:00Z</time>
      </trkpt>
      <trkpt lat="45.25595" lon="5.58869">
        <ele>919.39501953125</ele>
        <time>2017-06-14T12:41:04Z</time>
      </trkpt>
      <trkpt lat="45.256" lon="5.58877">
        <ele>912.39501953125</ele>
        <time>2017-06-14T12:41:09Z</time>
      </trkpt>
      <trkpt lat="45.25604" lon="5.58887">
        <ele>914.39501953125</ele>
        <time>2017-06-14T12:41:14Z</time>
      </trkpt>
      <trkpt lat="45.25598" lon="5.5891">
        <ele>909.39501953125</ele>
        <time>2017-06-14T12:41:20Z</time>
      </trkpt>
      <trkpt lat="45.25605" lon="5.58917">
        <ele>902.39501953125</ele>
        <time>2017-06-14T12:41:24Z</time>
      </trkpt>
      <trkpt lat="45.256" lon="5.58939">
        <ele>899.39501953125</ele>
        <time>2017-06-14T12:41:32Z</time>
      </trkpt>
      <trkpt lat="45.25606" lon="5.58957">
        <ele>899.39501953125</ele>
        <time>2017-06-14T12:41:38Z</time>
      </trkpt>
      <trkpt lat="45.25611" lon="5.58966">
        <ele>901.39501953125</ele>
        <time>2017-06-14T12:41:41Z</time>
      </trkpt>
      <trkpt lat="45.25618" lon="5.58993">
        <ele>899.39501953125</ele>
        <time>2017-06-14T12:41:49Z</time>
      </trkpt>
      <trkpt lat="45.25625" lon="5.59023">
        <ele>898.39501953125</ele>
        <time>2017-06-14T12:41:56Z</time>
      </trkpt>
      <trkpt lat="45.25615" lon="5.59044">
        <ele>898.39501953125</ele>
        <time>2017-06-14T12:42:02Z</time>
      </trkpt>
      <trkpt lat="45.25611" lon="5.59057">
        <ele>897.39501953125</ele>
        <time>2017-06-14T12:42:04Z</time>
      </trkpt>
      <trkpt lat="45.25617" lon="5.59064">
        <ele>895.39501953125</ele>
        <time>2017-06-14T12:42:11Z</time>
      </trkpt>
      <trkpt lat="45.25612" lon="5.59073">
        <ele>898.39501953125</ele>
        <time>2017-06-14T12:42:19Z</time>
      </trkpt>
      <trkpt lat="45.25606" lon="5.5908">
        <ele>895.39501953125</ele>
        <time>2017-06-14T12:42:30Z</time>
      </trkpt>
      <trkpt lat="45.25604" lon="5.59091">
        <ele>895.39501953125</ele>
        <time>2017-06-14T12:42:36Z</time>
      </trkpt>
      <trkpt lat="45.25592" lon="5.59104">
        <ele>896.39501953125</ele>
        <time>2017-06-14T12:42:52Z</time>
      </trkpt>
      <trkpt lat="45.25587" lon="5.59111">
        <ele>888.39501953125</ele>
        <time>2017-06-14T12:43:05Z</time>
      </trkpt>
      <trkpt lat="45.25581" lon="5.59118">
        <ele>885.39501953125</ele>
        <time>2017-06-14T12:43:10Z</time>
      </trkpt>
      <trkpt lat="45.25568" lon="5.59133">
        <ele>878.39501953125</ele>
        <time>2017-06-14T12:43:19Z</time>
      </trkpt>
      <trkpt lat="45.25554" lon="5.59146">
        <ele>878.39501953125</ele>
        <time>2017-06-14T12:43:25Z</time>
      </trkpt>
      <trkpt lat="45.25548" lon="5.59154">
        <ele>877.39501953125</ele>
        <time>2017-06-14T12:43:27Z</time>
      </trkpt>
      <trkpt lat="45.25543" lon="5.59178">
        <ele>875.39501953125</ele>
        <time>2017-06-14T12:43:35Z</time>
      </trkpt>
      <trkpt lat="45.2554" lon="5.59192">
        <ele>878.39501953125</ele>
        <time>2017-06-14T12:43:37Z</time>
      </trkpt>
      <trkpt lat="45.25537" lon="5.59201">
        <ele>879.39501953125</ele>
        <time>2017-06-14T12:43:40Z</time>
      </trkpt>
      <trkpt lat="45.2553" lon="5.59209">
        <ele>871.39501953125</ele>
        <time>2017-06-14T12:43:52Z</time>
      </trkpt>
      <trkpt lat="45.25523" lon="5.59214">
        <ele>869.39501953125</ele>
        <time>2017-06-14T12:43:57Z</time>
      </trkpt>
      <trkpt lat="45.25517" lon="5.59221">
        <ele>869.39501953125</ele>
        <time>2017-06-14T12:44:04Z</time>
      </trkpt>
      <trkpt lat="45.25513" lon="5.59229">
        <ele>871.39501953125</ele>
        <time>2017-06-14T12:44:09Z</time>
      </trkpt>
      <trkpt lat="45.25509" lon="5.59238">
        <ele>871.39501953125</ele>
        <time>2017-06-14T12:44:16Z</time>
      </trkpt>
      <trkpt lat="45.25503" lon="5.59246">
        <ele>871.39501953125</ele>
        <time>2017-06-14T12:44:25Z</time>
      </trkpt>
      <trkpt lat="45.25497" lon="5.59254">
        <ele>871.39501953125</ele>
        <time>2017-06-14T12:44:41Z</time>
      </trkpt>
      <trkpt lat="45.25492" lon="5.5926">
        <ele>871.39501953125</ele>
        <time>2017-06-14T12:45:00Z</time>
      </trkpt>
      <trkpt lat="45.25485" lon="5.59266">
        <ele>870.39501953125</ele>
        <time>2017-06-14T12:45:11Z</time>
      </trkpt>
      <trkpt lat="45.2548" lon="5.59274">
        <ele>869.39501953125</ele>
        <time>2017-06-14T12:45:17Z</time>
      </trkpt>
      <trkpt lat="45.25477" lon="5.59284">
        <ele>869.39501953125</ele>
        <time>2017-06-14T12:45:23Z</time>
      </trkpt>
      <trkpt lat="45.25475" lon="5.59293">
        <ele>867.39501953125</ele>
        <time>2017-06-14T12:45:30Z</time>
      </trkpt>
      <trkpt lat="45.25468" lon="5.59307">
        <ele>866.39501953125</ele>
        <time>2017-06-14T12:45:38Z</time>
      </trkpt>
      <trkpt lat="45.25465" lon="5.59317">
        <ele>866.39501953125</ele>
        <time>2017-06-14T12:45:44Z</time>
      </trkpt>
      <trkpt lat="45.25459" lon="5.59325">
        <ele>866.39501953125</ele>
        <time>2017-06-14T12:45:50Z</time>
      </trkpt>
      <trkpt lat="45.25453" lon="5.59332">
        <ele>867.39501953125</ele>
        <time>2017-06-14T12:45:57Z</time>
      </trkpt>
      <trkpt lat="45.25446" lon="5.5934">
        <ele>867.39501953125</ele>
        <time>2017-06-14T12:46:03Z</time>
      </trkpt>
      <trkpt lat="45.25437" lon="5.59344">
        <ele>866.39501953125</ele>
        <time>2017-06-14T12:46:08Z</time>
      </trkpt>
      <trkpt lat="45.25428" lon="5.59352">
        <ele>866.39501953125</ele>
        <time>2017-06-14T12:46:11Z</time>
      </trkpt>
      <trkpt lat="45.25409" lon="5.5936">
        <ele>867.39501953125</ele>
        <time>2017-06-14T12:46:19Z</time>
      </trkpt>
      <trkpt lat="45.25401" lon="5.59366">
        <ele>864.39501953125</ele>
        <time>2017-06-14T12:46:26Z</time>
      </trkpt>
      <trkpt lat="45.25395" lon="5.59377">
        <ele>860.39501953125</ele>
        <time>2017-06-14T12:46:29Z</time>
      </trkpt>
      <trkpt lat="45.2538" lon="5.59395">
        <ele>858.39501953125</ele>
        <time>2017-06-14T12:46:37Z</time>
      </trkpt>
      <trkpt lat="45.25374" lon="5.59402">
        <ele>856.39501953125</ele>
        <time>2017-06-14T12:46:42Z</time>
      </trkpt>
      <trkpt lat="45.25368" lon="5.59408">
        <ele>857.39501953125</ele>
        <time>2017-06-14T12:46:45Z</time>
      </trkpt>
      <trkpt lat="45.25357" lon="5.59409">
        <ele>857.39501953125</ele>
        <time>2017-06-14T12:46:50Z</time>
      </trkpt>
      <trkpt lat="45.25339" lon="5.59417">
        <ele>856.39501953125</ele>
        <time>2017-06-14T12:46:57Z</time>
      </trkpt>
      <trkpt lat="45.25324" lon="5.59421">
        <ele>857.39501953125</ele>
        <time>2017-06-14T12:47:06Z</time>
      </trkpt>
      <trkpt lat="45.25307" lon="5.59423">
        <ele>857.39501953125</ele>
        <time>2017-06-14T12:47:13Z</time>
      </trkpt>
      <trkpt lat="45.25287" lon="5.59444">
        <ele>856.39501953125</ele>
        <time>2017-06-14T12:47:20Z</time>
      </trkpt>
      <trkpt lat="45.25272" lon="5.59454">
        <ele>857.39501953125</ele>
        <time>2017-06-14T12:47:29Z</time>
      </trkpt>
      <trkpt lat="45.25265" lon="5.5946">
        <ele>854.39501953125</ele>
        <time>2017-06-14T12:47:34Z</time>
      </trkpt>
      <trkpt lat="45.25249" lon="5.59465">
        <ele>849.39501953125</ele>
        <time>2017-06-14T12:47:39Z</time>
      </trkpt>
      <trkpt lat="45.25233" lon="5.59486">
        <ele>849.39501953125</ele>
        <time>2017-06-14T12:47:46Z</time>
      </trkpt>
      <trkpt lat="45.25237" lon="5.59497">
        <ele>851.39501953125</ele>
        <time>2017-06-14T12:47:49Z</time>
      </trkpt>
      <trkpt lat="45.25242" lon="5.5952">
        <ele>848.39501953125</ele>
        <time>2017-06-14T12:47:57Z</time>
      </trkpt>
      <trkpt lat="45.25247" lon="5.5953">
        <ele>847.39501953125</ele>
        <time>2017-06-14T12:48:02Z</time>
      </trkpt>
      <trkpt lat="45.25248" lon="5.5954">
        <ele>852.39501953125</ele>
        <time>2017-06-14T12:48:42Z</time>
      </trkpt>
      <trkpt lat="45.25249" lon="5.59553">
        <ele>850.39501953125</ele>
        <time>2017-06-14T12:48:50Z</time>
      </trkpt>
      <trkpt lat="45.25243" lon="5.59558">
        <ele>849.39501953125</ele>
        <time>2017-06-14T12:48:52Z</time>
      </trkpt>
      <trkpt lat="45.25237" lon="5.59567">
        <ele>845.39501953125</ele>
        <time>2017-06-14T12:48:59Z</time>
      </trkpt>
      <trkpt lat="45.25231" lon="5.59573">
        <ele>845.39501953125</ele>
        <time>2017-06-14T12:49:03Z</time>
      </trkpt>
      <trkpt lat="45.25223" lon="5.59581">
        <ele>844.39501953125</ele>
        <time>2017-06-14T12:49:08Z</time>
      </trkpt>
      <trkpt lat="45.25217" lon="5.5959">
        <ele>842.39501953125</ele>
        <time>2017-06-14T12:49:16Z</time>
      </trkpt>
      <trkpt lat="45.25206" lon="5.59598">
        <ele>841.39501953125</ele>
        <time>2017-06-14T12:49:21Z</time>
      </trkpt>
      <trkpt lat="45.25207" lon="5.5961">
        <ele>834.39501953125</ele>
        <time>2017-06-14T12:49:28Z</time>
      </trkpt>
      <trkpt lat="45.25202" lon="5.59624">
        <ele>829.39501953125</ele>
        <time>2017-06-14T12:49:38Z</time>
      </trkpt>
      <trkpt lat="45.25201" lon="5.59648">
        <ele>824.39501953125</ele>
        <time>2017-06-14T12:49:51Z</time>
      </trkpt>
      <trkpt lat="45.25194" lon="5.59643">
        <ele>824.39501953125</ele>
        <time>2017-06-14T12:50:28Z</time>
      </trkpt>
      <trkpt lat="45.25186" lon="5.59644">
        <ele>825.39501953125</ele>
        <time>2017-06-14T12:50:35Z</time>
      </trkpt>
      <trkpt lat="45.2517" lon="5.59646">
        <ele>824.39501953125</ele>
        <time>2017-06-14T12:51:19Z</time>
      </trkpt>
      <trkpt lat="45.25159" lon="5.59639">
        <ele>822.39501953125</ele>
        <time>2017-06-14T12:51:27Z</time>
      </trkpt>
      <trkpt lat="45.25145" lon="5.59635">
        <ele>822.39501953125</ele>
        <time>2017-06-14T12:51:29Z</time>
      </trkpt>
      <trkpt lat="45.25133" lon="5.59627">
        <ele>823.39501953125</ele>
        <time>2017-06-14T12:51:31Z</time>
      </trkpt>
      <trkpt lat="45.25125" lon="5.59626">
        <ele>823.39501953125</ele>
        <time>2017-06-14T12:51:32Z</time>
      </trkpt>
      <trkpt lat="45.25117" lon="5.59626">
        <ele>827.39501953125</ele>
        <time>2017-06-14T12:51:33Z</time>
      </trkpt>
      <trkpt lat="45.2511" lon="5.59622">
        <ele>828.39501953125</ele>
        <time>2017-06-14T12:51:35Z</time>
      </trkpt>
      <trkpt lat="45.25095" lon="5.59612">
        <ele>829.39501953125</ele>
        <time>2017-06-14T12:51:43Z</time>
      </trkpt>
      <trkpt lat="45.25076" lon="5.59613">
        <ele>831.39501953125</ele>
        <time>2017-06-14T12:51:54Z</time>
      </trkpt>
      <trkpt lat="45.25058" lon="5.5963">
        <ele>835.39501953125</ele>
        <time>2017-06-14T12:52:02Z</time>
      </trkpt>
      <trkpt lat="45.25057" lon="5.59653">
        <ele>834.39501953125</ele>
        <time>2017-06-14T12:52:08Z</time>
      </trkpt>
      <trkpt lat="45.25056" lon="5.59665">
        <ele>833.39501953125</ele>
        <time>2017-06-14T12:52:11Z</time>
      </trkpt>
      <trkpt lat="45.25054" lon="5.59677">
        <ele>830.39501953125</ele>
        <time>2017-06-14T12:52:15Z</time>
      </trkpt>
      <trkpt lat="45.25041" lon="5.59694">
        <ele>826.39501953125</ele>
        <time>2017-06-14T12:52:22Z</time>
      </trkpt>
      <trkpt lat="45.25035" lon="5.59704">
        <ele>824.39501953125</ele>
        <time>2017-06-14T12:52:27Z</time>
      </trkpt>
      <trkpt lat="45.25028" lon="5.59709">
        <ele>824.39501953125</ele>
        <time>2017-06-14T12:52:32Z</time>
      </trkpt>
      <trkpt lat="45.25026" lon="5.59719">
        <ele>822.39501953125</ele>
        <time>2017-06-14T12:52:35Z</time>
      </trkpt>
      <trkpt lat="45.25019" lon="5.59736">
        <ele>741.39501953125</ele>
        <time>2017-06-14T12:52:41Z</time>
      </trkpt>
      <trkpt lat="45.25012" lon="5.59742">
        <ele>796.39501953125</ele>
        <time>2017-06-14T12:53:00Z</time>
      </trkpt>
      <trkpt lat="45.25001" lon="5.59741">
        <ele>361.39498901367</ele>
        <time>2017-06-14T12:53:06Z</time>
      </trkpt>
      <trkpt lat="45.24991" lon="5.59766">
        <ele>689.39501953125</ele>
        <time>2017-06-14T12:53:14Z</time>
      </trkpt>
      <trkpt lat="45.24983" lon="5.59772">
        <ele>755.39501953125</ele>
        <time>2017-06-14T12:53:20Z</time>
      </trkpt>
      <trkpt lat="45.24978" lon="5.59782">
        <ele>778.39501953125</ele>
        <time>2017-06-14T12:53:27Z</time>
      </trkpt>
      <trkpt lat="45.24968" lon="5.59806">
        <ele>785.39501953125</ele>
        <time>2017-06-14T12:53:38Z</time>
      </trkpt>
      <trkpt lat="45.24962" lon="5.59812">
        <ele>789.39501953125</ele>
        <time>2017-06-14T12:53:43Z</time>
      </trkpt>
      <trkpt lat="45.24958" lon="5.59822">
        <ele>793.39501953125</ele>
        <time>2017-06-14T12:53:50Z</time>
      </trkpt>
      <trkpt lat="45.2495" lon="5.59822">
        <ele>788.39501953125</ele>
        <time>2017-06-14T12:53:56Z</time>
      </trkpt>
      <trkpt lat="45.24943" lon="5.59824">
        <ele>791.39501953125</ele>
        <time>2017-06-14T12:54:01Z</time>
      </trkpt>
      <trkpt lat="45.24936" lon="5.59827">
        <ele>789.39501953125</ele>
        <time>2017-06-14T12:54:07Z</time>
      </trkpt>
      <trkpt lat="45.24926" lon="5.59833">
        <ele>790.39501953125</ele>
        <time>2017-06-14T12:54:17Z</time>
      </trkpt>
      <trkpt lat="45.24921" lon="5.5984">
        <ele>789.39501953125</ele>
        <time>2017-06-14T12:54:25Z</time>
      </trkpt>
      <trkpt lat="45.24914" lon="5.59844">
        <ele>791.39501953125</ele>
        <time>2017-06-14T12:54:34Z</time>
      </trkpt>
      <trkpt lat="45.24908" lon="5.5985">
        <ele>793.39501953125</ele>
        <time>2017-06-14T12:54:41Z</time>
      </trkpt>
      <trkpt lat="45.24895" lon="5.59862">
        <ele>796.39501953125</ele>
        <time>2017-06-14T12:54:47Z</time>
      </trkpt>
      <trkpt lat="45.24883" lon="5.59878">
        <ele>789.39501953125</ele>
        <time>2017-06-14T12:54:56Z</time>
      </trkpt>
      <trkpt lat="45.24867" lon="5.59888">
        <ele>786.39501953125</ele>
        <time>2017-06-14T12:55:06Z</time>
      </trkpt>
      <trkpt lat="45.2486" lon="5.5989">
        <ele>784.39501953125</ele>
        <time>2017-06-14T12:55:11Z</time>
      </trkpt>
      <trkpt lat="45.24843" lon="5.59907">
        <ele>778.39501953125</ele>
        <time>2017-06-14T12:55:18Z</time>
      </trkpt>
      <trkpt lat="45.24829" lon="5.59921">
        <ele>773.39501953125</ele>
        <time>2017-06-14T12:55:25Z</time>
      </trkpt>
      <trkpt lat="45.24824" lon="5.59933">
        <ele>770.39501953125</ele>
        <time>2017-06-14T12:55:35Z</time>
      </trkpt>
      <trkpt lat="45.24809" lon="5.59935">
        <ele>770.39398193359</ele>
        <time>2017-06-14T12:55:43Z</time>
      </trkpt>
      <trkpt lat="45.24801" lon="5.59932">
        <ele>759.39398193359</ele>
        <time>2017-06-14T12:56:09Z</time>
      </trkpt>
      <trkpt lat="45.24797" lon="5.59942">
        <ele>754.39398193359</ele>
        <time>2017-06-14T12:56:12Z</time>
      </trkpt>
      <trkpt lat="45.2479" lon="5.59948">
        <ele>751.39398193359</ele>
        <time>2017-06-14T12:56:18Z</time>
      </trkpt>
      <trkpt lat="45.24777" lon="5.59959">
        <ele>749.39398193359</ele>
        <time>2017-06-14T12:56:26Z</time>
      </trkpt>
      <trkpt lat="45.24762" lon="5.5996">
        <ele>748.39398193359</ele>
        <time>2017-06-14T12:56:36Z</time>
      </trkpt>
      <trkpt lat="45.24757" lon="5.59949">
        <ele>745.39398193359</ele>
        <time>2017-06-14T12:56:39Z</time>
      </trkpt>
      <trkpt lat="45.24747" lon="5.59945">
        <ele>743.39398193359</ele>
        <time>2017-06-14T12:56:45Z</time>
      </trkpt>
      <trkpt lat="45.2474" lon="5.59942">
        <ele>743.39398193359</ele>
        <time>2017-06-14T12:56:47Z</time>
      </trkpt>
      <trkpt lat="45.24733" lon="5.5994">
        <ele>744.39398193359</ele>
        <time>2017-06-14T12:56:51Z</time>
      </trkpt>
      <trkpt lat="45.24713" lon="5.59939">
        <ele>743.39398193359</ele>
        <time>2017-06-14T12:56:59Z</time>
      </trkpt>
      <trkpt lat="45.24689" lon="5.5994">
        <ele>745.39398193359</ele>
        <time>2017-06-14T12:57:13Z</time>
      </trkpt>
      <trkpt lat="45.24673" lon="5.59934">
        <ele>746.39398193359</ele>
        <time>2017-06-14T12:57:18Z</time>
      </trkpt>
      <trkpt lat="45.24661" lon="5.59948">
        <ele>747.39398193359</ele>
        <time>2017-06-14T12:57:24Z</time>
      </trkpt>
      <trkpt lat="45.24656" lon="5.59959">
        <ele>741.39398193359</ele>
        <time>2017-06-14T12:57:30Z</time>
      </trkpt>
      <trkpt lat="45.2466" lon="5.59977">
        <ele>731.39398193359</ele>
        <time>2017-06-14T12:57:39Z</time>
      </trkpt>
      <trkpt lat="45.24674" lon="5.59998">
        <ele>731.39398193359</ele>
        <time>2017-06-14T12:57:45Z</time>
      </trkpt>
      <trkpt lat="45.24694" lon="5.60026">
        <ele>730.39398193359</ele>
        <time>2017-06-14T12:57:54Z</time>
      </trkpt>
      <trkpt lat="45.24696" lon="5.60036">
        <ele>730.39398193359</ele>
        <time>2017-06-14T12:57:56Z</time>
      </trkpt>
      <trkpt lat="45.24701" lon="5.60045">
        <ele>726.39398193359</ele>
        <time>2017-06-14T12:58:02Z</time>
      </trkpt>
      <trkpt lat="45.24706" lon="5.60051">
        <ele>723.39398193359</ele>
        <time>2017-06-14T12:58:07Z</time>
      </trkpt>
      <trkpt lat="45.24716" lon="5.60064">
        <ele>723.39398193359</ele>
        <time>2017-06-14T12:58:13Z</time>
      </trkpt>
      <trkpt lat="45.24723" lon="5.60069">
        <ele>722.39398193359</ele>
        <time>2017-06-14T12:58:18Z</time>
      </trkpt>
      <trkpt lat="45.24734" lon="5.60089">
        <ele>722.39501953125</ele>
        <time>2017-06-14T12:58:26Z</time>
      </trkpt>
      <trkpt lat="45.24743" lon="5.60121">
        <ele>721.39501953125</ele>
        <time>2017-06-14T12:58:47Z</time>
      </trkpt>
      <trkpt lat="45.24744" lon="5.60134">
        <ele>719.39501953125</ele>
        <time>2017-06-14T12:58:54Z</time>
      </trkpt>
      <trkpt lat="45.24746" lon="5.60147">
        <ele>716.39501953125</ele>
        <time>2017-06-14T12:59:00Z</time>
      </trkpt>
      <trkpt lat="45.24736" lon="5.60164">
        <ele>707.39501953125</ele>
        <time>2017-06-14T12:59:09Z</time>
      </trkpt>
      <trkpt lat="45.24736" lon="5.60182">
        <ele>704.39501953125</ele>
        <time>2017-06-14T12:59:18Z</time>
      </trkpt>
      <trkpt lat="45.24742" lon="5.60205">
        <ele>705.39501953125</ele>
        <time>2017-06-14T12:59:30Z</time>
      </trkpt>
      <trkpt lat="45.24744" lon="5.60216">
        <ele>699.39501953125</ele>
        <time>2017-06-14T12:59:39Z</time>
      </trkpt>
      <trkpt lat="45.24748" lon="5.60226">
        <ele>694.39501953125</ele>
        <time>2017-06-14T12:59:47Z</time>
      </trkpt>
      <trkpt lat="45.24754" lon="5.60249">
        <ele>693.39501953125</ele>
        <time>2017-06-14T12:59:58Z</time>
      </trkpt>
      <trkpt lat="45.24749" lon="5.60269">
        <ele>695.39501953125</ele>
        <time>2017-06-14T13:00:11Z</time>
      </trkpt>
      <trkpt lat="45.24746" lon="5.60279">
        <ele>696.39501953125</ele>
        <time>2017-06-14T13:00:17Z</time>
      </trkpt>
      <trkpt lat="45.24741" lon="5.60287">
        <ele>697.39501953125</ele>
        <time>2017-06-14T13:00:23Z</time>
      </trkpt>
      <trkpt lat="45.24734" lon="5.60294">
        <ele>691.39501953125</ele>
        <time>2017-06-14T13:00:28Z</time>
      </trkpt>
      <trkpt lat="45.24731" lon="5.60304">
        <ele>687.39501953125</ele>
        <time>2017-06-14T13:00:33Z</time>
      </trkpt>
      <trkpt lat="45.24732" lon="5.60315">
        <ele>685.39501953125</ele>
        <time>2017-06-14T13:00:42Z</time>
      </trkpt>
      <trkpt lat="45.24728" lon="5.60335">
        <ele>684.39501953125</ele>
        <time>2017-06-14T13:00:50Z</time>
      </trkpt>
      <trkpt lat="45.24737" lon="5.60357">
        <ele>685.39501953125</ele>
        <time>2017-06-14T13:00:59Z</time>
      </trkpt>
      <trkpt lat="45.2474" lon="5.60369">
        <ele>682.39501953125</ele>
        <time>2017-06-14T13:01:08Z</time>
      </trkpt>
      <trkpt lat="45.24747" lon="5.6037">
        <ele>676.39501953125</ele>
        <time>2017-06-14T13:01:14Z</time>
      </trkpt>
      <trkpt lat="45.24753" lon="5.60377">
        <ele>679.39501953125</ele>
        <time>2017-06-14T13:01:20Z</time>
      </trkpt>
      <trkpt lat="45.24756" lon="5.60388">
        <ele>676.39501953125</ele>
        <time>2017-06-14T13:01:27Z</time>
      </trkpt>
      <trkpt lat="45.2476" lon="5.604">
        <ele>674.39501953125</ele>
        <time>2017-06-14T13:01:53Z</time>
      </trkpt>
      <trkpt lat="45.24774" lon="5.60432">
        <ele>669.39501953125</ele>
        <time>2017-06-14T13:02:01Z</time>
      </trkpt>
      <trkpt lat="45.2478" lon="5.60437">
        <ele>665.39501953125</ele>
        <time>2017-06-14T13:02:05Z</time>
      </trkpt>
      <trkpt lat="45.2479" lon="5.6044">
        <ele>659.39501953125</ele>
        <time>2017-06-14T13:02:18Z</time>
      </trkpt>
      <trkpt lat="45.24793" lon="5.60449">
        <ele>657.39501953125</ele>
        <time>2017-06-14T13:02:24Z</time>
      </trkpt>
      <trkpt lat="45.24801" lon="5.60454">
        <ele>650.39501953125</ele>
        <time>2017-06-14T13:02:29Z</time>
      </trkpt>
      <trkpt lat="45.24799" lon="5.60465">
        <ele>651.39501953125</ele>
        <time>2017-06-14T13:02:31Z</time>
      </trkpt>
      <trkpt lat="45.24792" lon="5.60466">
        <ele>650.39501953125</ele>
        <time>2017-06-14T13:02:36Z</time>
      </trkpt>
      <trkpt lat="45.24778" lon="5.60464">
        <ele>650.39501953125</ele>
        <time>2017-06-14T13:02:43Z</time>
      </trkpt>
      <trkpt lat="45.24769" lon="5.60461">
        <ele>645.39501953125</ele>
        <time>2017-06-14T13:02:52Z</time>
      </trkpt>
      <trkpt lat="45.24762" lon="5.60458">
        <ele>641.39501953125</ele>
        <time>2017-06-14T13:02:57Z</time>
      </trkpt>
      <trkpt lat="45.24754" lon="5.60454">
        <ele>640.39501953125</ele>
        <time>2017-06-14T13:03:02Z</time>
      </trkpt>
      <trkpt lat="45.24746" lon="5.60448">
        <ele>638.39501953125</ele>
        <time>2017-06-14T13:03:08Z</time>
      </trkpt>
      <trkpt lat="45.24739" lon="5.60444">
        <ele>638.39501953125</ele>
        <time>2017-06-14T13:03:12Z</time>
      </trkpt>
      <trkpt lat="45.24723" lon="5.60433">
        <ele>634.39501953125</ele>
        <time>2017-06-14T13:03:22Z</time>
      </trkpt>
      <trkpt lat="45.24716" lon="5.60431">
        <ele>635.39501953125</ele>
        <time>2017-06-14T13:03:27Z</time>
      </trkpt>
      <trkpt lat="45.24724" lon="5.60434">
        <ele>631.39501953125</ele>
        <time>2017-06-14T13:03:35Z</time>
      </trkpt>
      <trkpt lat="45.24723" lon="5.60447">
        <ele>632.39501953125</ele>
        <time>2017-06-14T13:03:39Z</time>
      </trkpt>
      <trkpt lat="45.24732" lon="5.60468">
        <ele>638.39501953125</ele>
        <time>2017-06-14T13:03:50Z</time>
      </trkpt>
      <trkpt lat="45.24734" lon="5.60478">
        <ele>636.39501953125</ele>
        <time>2017-06-14T13:03:55Z</time>
      </trkpt>
      <trkpt lat="45.24736" lon="5.605">
        <ele>629.39501953125</ele>
        <time>2017-06-14T13:04:03Z</time>
      </trkpt>
      <trkpt lat="45.24736" lon="5.6051">
        <ele>628.39501953125</ele>
        <time>2017-06-14T13:04:08Z</time>
      </trkpt>
      <trkpt lat="45.24736" lon="5.60524">
        <ele>620.39501953125</ele>
        <time>2017-06-14T13:04:15Z</time>
      </trkpt>
      <trkpt lat="45.24734" lon="5.60546">
        <ele>618.39501953125</ele>
        <time>2017-06-14T13:04:23Z</time>
      </trkpt>
      <trkpt lat="45.24731" lon="5.60557">
        <ele>617.39501953125</ele>
        <time>2017-06-14T13:04:28Z</time>
      </trkpt>
      <trkpt lat="45.2472" lon="5.60576">
        <ele>615.39501953125</ele>
        <time>2017-06-14T13:04:34Z</time>
      </trkpt>
      <trkpt lat="45.24707" lon="5.60593">
        <ele>618.39501953125</ele>
        <time>2017-06-14T13:04:42Z</time>
      </trkpt>
      <trkpt lat="45.247" lon="5.60598">
        <ele>617.39501953125</ele>
        <time>2017-06-14T13:04:47Z</time>
      </trkpt>
      <trkpt lat="45.24691" lon="5.60604">
        <ele>618.39501953125</ele>
        <time>2017-06-14T13:04:51Z</time>
      </trkpt>
      <trkpt lat="45.24673" lon="5.60613">
        <ele>614.39501953125</ele>
        <time>2017-06-14T13:05:01Z</time>
      </trkpt>
      <trkpt lat="45.24659" lon="5.60621">
        <ele>611.39501953125</ele>
        <time>2017-06-14T13:05:08Z</time>
      </trkpt>
      <trkpt lat="45.24644" lon="5.60635">
        <ele>608.39501953125</ele>
        <time>2017-06-14T13:05:17Z</time>
      </trkpt>
      <trkpt lat="45.24631" lon="5.6065">
        <ele>609.39501953125</ele>
        <time>2017-06-14T13:05:24Z</time>
      </trkpt>
      <trkpt lat="45.24626" lon="5.6066">
        <ele>604.39501953125</ele>
        <time>2017-06-14T13:05:29Z</time>
      </trkpt>
      <trkpt lat="45.24617" lon="5.60665">
        <ele>602.39501953125</ele>
        <time>2017-06-14T13:05:33Z</time>
      </trkpt>
    </trkseg>
  </trk>
</gpx>